Provisional Data: North Branch Muddy Creek near Muddy Creek Forks, PA


Please select a monitoring station.
Please select start date.
Please select start date.

Toggle Unit: C/F Toggle Unit: C/F
Sample Time Temperature (C) Temperature (F) Specific Conductivity (mS/cm) pH   Turbidity (NTU+) DO (mg/L)
5/4/2021 12:00:00 AM 16.39 61.502 0.157 7.01 5.44 8.64
5/4/2021 12:15:00 AM 16.38 61.484 0.155 7 8.97 8.66
5/4/2021 12:30:00 AM 16.37 61.466 0.153 6.99 16.23 8.68
5/4/2021 12:45:00 AM 16.35 61.43 0.152 6.99 13.91 8.66
5/4/2021 1:00:00 AM 16.32 61.376 0.152 6.98 7.49 8.66
5/4/2021 1:15:00 AM 16.29 61.322 0.152 6.96 8.89 8.67
5/4/2021 1:30:00 AM 16.26 61.268 0.152 6.97 9.19 8.69
5/4/2021 1:45:00 AM 16.23 61.214 0.152 6.96 10.52 8.7
5/4/2021 2:00:00 AM 16.2 61.16 0.152 6.96 12.15 8.71
5/4/2021 2:15:00 AM 16.16 61.088 0.151 6.97 10.52 8.74
5/4/2021 2:30:00 AM 16.14 61.052 0.15 6.98 8.89 8.74
5/4/2021 2:45:00 AM 16.11 60.998 0.149 6.98 9.64 8.74
5/4/2021 3:00:00 AM 16.08 60.944 0.149 6.99 12.1 8.77
5/4/2021 3:15:00 AM 16.06 60.908 0.148 6.99 13.37 8.78
5/4/2021 3:30:00 AM 16.03 60.854 0.148 7 17.58 8.8
5/4/2021 3:45:00 AM 16.01 60.818 0.148 7 19.18 8.8
5/4/2021 4:00:00 AM 15.99 60.782 0.148 7.01 19.62 8.81
5/4/2021 4:15:00 AM 15.97 60.746 0.148 7.02 17.35 8.83
5/4/2021 4:30:00 AM 15.95 60.71 0.148 7.02 26.16 8.85
5/4/2021 4:45:00 AM 15.93 60.674 0.149 7.03 21.37 8.86
5/4/2021 5:00:00 AM 15.9 60.62 0.15 7.03 26.53 8.87
5/4/2021 5:15:00 AM 15.88 60.584 0.15 7.04 19.9 8.9
5/4/2021 5:30:00 AM 15.86 60.548 0.151 7.04 17.79 8.9
5/4/2021 5:45:00 AM 15.84 60.512 0.151 7.04 15.9 8.91
5/4/2021 6:00:00 AM 15.82 60.476 0.151 7.04 11.59 8.9
5/4/2021 6:15:00 AM 15.79 60.422 0.151 7.04 22.42 8.89
5/4/2021 6:30:00 AM 15.76 60.368 0.151 7.04 17.62 8.9
5/4/2021 6:45:00 AM 15.73 60.314 0.151 7.04 24.33 8.91
5/4/2021 7:00:00 AM 15.71 60.278 0.151 7.04 12.5 8.94
5/4/2021 7:15:00 AM 15.69 60.242 0.151 7.04 17.75 8.97
5/4/2021 7:30:00 AM 15.66 60.188 0.151 7.04 13.63 9.01
5/4/2021 7:45:00 AM 15.63 60.134 0.151 7.04 13.31 9.02
5/4/2021 8:00:00 AM 15.61 60.098 0.151 7.04 17.74 9.03
5/4/2021 8:15:00 AM 15.59 60.062 0.151 7.04 17.61 9.05
5/4/2021 8:30:00 AM 15.59 60.062 0.151 7.04 16.41 9.08
5/4/2021 8:45:00 AM 15.61 60.098 0.151 7.04 15.55 9.08
5/4/2021 9:00:00 AM 15.63 60.134 0.151 7.04 16.43 9.12
5/4/2021 9:15:00 AM 15.67 60.206 0.151 7.02 12.06 9.12
5/4/2021 9:30:00 AM 15.74 60.332 0.151 7.02 15.4 9.19
5/4/2021 9:45:00 AM 15.81 60.458 0.151 7.01 12.73 9.26
5/4/2021 10:00:00 AM 15.92 60.656 0.152 7.01 18.76 9.27
5/4/2021 10:15:00 AM 16.09 60.962 0.152 7.01 12.51 9.33
5/4/2021 10:30:00 AM 16.24 61.232 0.152 6.99 9.3 9.41
5/4/2021 10:45:00 AM 16.52 61.736 0.152 6.98 10.31 9.45
5/4/2021 11:00:00 AM 16.76 62.168 0.152 6.97 11.34 9.52
5/4/2021 11:15:00 AM 16.98 62.564 0.153 6.96 11.23 9.49
5/4/2021 11:30:00 AM 17.24 63.032 0.153 6.96 10.02 9.54
5/4/2021 11:45:00 AM 17.55 63.59 0.153 6.95 10.08 9.65
5/4/2021 12:00:00 PM 17.9 64.22 0.154 6.94 11.9 9.67
5/4/2021 12:15:00 PM 18.27 64.886 0.154 6.93 10.62 9.61
5/4/2021 12:30:00 PM 18.6 65.48 0.154 6.93 12.15 9.73
5/4/2021 12:45:00 PM 18.8 65.84 0.155 6.94 12.67 9.64
5/4/2021 1:00:00 PM 19.07 66.326 0.155 6.94 12.11 9.57
5/4/2021 1:15:00 PM 19.39 66.902 0.156 6.94 10.19 9.52
5/4/2021 1:30:00 PM 19.74 67.532 0.156 6.94 9.7 9.55
5/4/2021 1:45:00 PM 19.94 67.892 0.156 6.93 10.1 9.58
5/4/2021 2:00:00 PM 20.32 68.576 0.157 6.92 39.02 9.6
5/4/2021 2:15:00 PM 20.58 69.044 0.157 6.93 10.95 9.48
5/4/2021 2:30:00 PM 20.78 69.404 0.158 6.93 7.49 9.47
5/4/2021 2:45:00 PM 20.97 69.746 0.158 6.93 8.8 9.5
5/4/2021 3:00:00 PM 21.12 70.016 0.158 6.93 6.74 9.47
5/4/2021 3:15:00 PM 21.26 70.268 0.158 6.93 7.19 9.31
5/4/2021 3:30:00 PM 21.3 70.34 0.159 6.94 6.51 9.35
5/4/2021 3:45:00 PM 21.36 70.448 0.159 6.94 6.89 9.29
5/4/2021 4:00:00 PM 21.46 70.628 0.159 6.94 8.98 9.25
5/4/2021 4:15:00 PM 21.45 70.61 0.159 6.95 6.58 9.25
5/4/2021 4:30:00 PM 21.41 70.538 0.158 6.96 8.14 9.12
5/4/2021 4:45:00 PM 21.47 70.646 0.158 6.96 5.26 9.14
5/4/2021 5:00:00 PM 21.44 70.592 0.158 6.97 6.22 9.04
5/4/2021 5:15:00 PM 21.31 70.358 0.159 6.99 6.57 9.02
5/4/2021 5:30:00 PM 21.22 70.196 0.159 7.01 6.31 8.97
5/4/2021 5:45:00 PM 21.19 70.142 0.159 7.01 5.41 8.91
5/4/2021 6:00:00 PM 21.13 70.034 0.159 7.01 4.44 8.83
5/4/2021 6:15:00 PM 21.06 69.908 0.158 7.01 6.19 8.76
5/4/2021 6:30:00 PM 20.98 69.764 0.158 7.01 9.67 8.67
5/4/2021 6:45:00 PM 20.89 69.602 0.158 7.02 5.64 8.55
5/4/2021 7:00:00 PM 20.79 69.422 0.157 7.03 5.92 8.43
5/4/2021 7:15:00 PM 20.71 69.278 0.157 7.03 6.8 8.4
5/4/2021 7:30:00 PM 20.61 69.098 0.157 7.03 6.19 8.39
5/4/2021 7:45:00 PM 20.48 68.864 0.157 7.03 4.73 8.36
5/4/2021 8:00:00 PM 20.38 68.684 0.156 7.03 5.83 8.28
5/4/2021 8:15:00 PM 20.27 68.486 0.156 7.03 5.03 8.19
5/4/2021 8:30:00 PM 20.18 68.324 0.156 7.02 4.41 8.11
5/4/2021 8:45:00 PM 20.1 68.18 0.156 7.02 7.28 8.05
5/4/2021 9:00:00 PM 20.01 68.018 0.156 7.02 4.01 8.01
5/4/2021 9:15:00 PM 19.91 67.838 0.155 7 6.23 7.97
5/4/2021 9:30:00 PM 19.84 67.712 0.155 6.99 6.3 7.92
5/4/2021 9:45:00 PM 19.75 67.55 0.155 6.99 4.73 7.92
5/4/2021 10:00:00 PM 19.66 67.388 0.155 6.98 4.27 7.88
5/4/2021 10:15:00 PM 19.57 67.226 0.155 6.97 3.99 7.87
5/4/2021 10:30:00 PM 19.49 67.082 0.155 6.97 4.3 7.86
5/4/2021 10:45:00 PM 19.41 66.938 0.155 6.96 4.65 7.82
5/4/2021 11:00:00 PM 19.33 66.794 0.155 6.96 4.42 7.84
5/4/2021 11:15:00 PM 19.26 66.668 0.155 6.95 3.88 7.85
5/4/2021 11:30:00 PM 19.18 66.524 0.155 6.95 3.76 7.85
5/4/2021 11:45:00 PM 19.11 66.398 0.155 6.95 4.39 7.85
5/5/2021 12:00:00 AM 19.03 66.254 0.155 6.95 5.2 7.86
5/5/2021 12:15:00 AM 18.95 66.11 0.155 6.95 5.97 7.88
5/5/2021 12:30:00 AM 18.88 65.984 0.155 6.94 4.28 7.88
5/5/2021 12:45:00 AM 18.8 65.84 0.155 6.94 3.41 7.92
5/5/2021 1:00:00 AM 18.73 65.714 0.155 6.94 5.56 7.93
5/5/2021 1:15:00 AM 18.67 65.606 0.154 6.94 3.5 7.94
5/5/2021 1:30:00 AM 18.61 65.498 0.154 6.94 5.45 7.96
5/5/2021 1:45:00 AM 18.54 65.372 0.154 6.94 3.98 7.98
5/5/2021 2:00:00 AM 18.49 65.282 0.154 6.94 5.22 8
5/5/2021 2:15:00 AM 18.43 65.174 0.155 6.94 29.43 8
5/5/2021 2:30:00 AM 18.39 65.102 0.155 6.94 4.81 8.04
5/5/2021 2:45:00 AM 18.33 64.994 0.155 6.95 4.1 8.04
5/5/2021 3:00:00 AM 18.29 64.922 0.156 6.95 5.56 8.05
5/5/2021 3:15:00 AM 18.24 64.832 0.156 6.95 4.65 8.07
5/5/2021 3:30:00 AM 18.18 64.724 0.156 6.97 4.27 8.07
5/5/2021 3:45:00 AM 18.13 64.634 0.157 6.97 5.22 8.11
5/5/2021 4:00:00 AM 18.08 64.544 0.157 6.97 3.9 8.11
5/5/2021 4:15:00 AM 18.03 64.454 0.157 6.97 5.08 8.14
5/5/2021 4:30:00 AM 17.98 64.364 0.158 6.97 6.14 8.12
5/5/2021 4:45:00 AM 17.94 64.292 0.158 6.96 4.92 8.15
5/5/2021 5:00:00 AM 17.89 64.202 0.158 6.97 8.82 8.17
5/5/2021 5:15:00 AM 17.85 64.13 0.158 6.97 4.15 8.18
5/5/2021 5:30:00 AM 17.8 64.04 0.149 6.98 3.59 8.18
5/5/2021 5:45:00 AM 17.76 63.968 0.158 6.98 5.88 8.21
5/5/2021 6:00:00 AM 17.71 63.878 0.158 6.97 4.61 8.23
5/5/2021 6:15:00 AM 17.67 63.806 0.158 6.97 10.15 8.18
5/5/2021 6:30:00 AM 17.63 63.734 0.159 6.97 4.78 8.15
5/5/2021 6:45:00 AM 17.59 63.662 0.159 6.98 4.38 8.16
5/5/2021 7:00:00 AM 17.55 63.59 0.159 6.98 3.54 8.17
5/5/2021 7:15:00 AM 17.52 63.536 0.159 6.99 4.48 8.22
5/5/2021 7:30:00 AM 17.48 63.464 0.159 7 6.65 8.3
5/5/2021 7:45:00 AM 17.45 63.41 0.159 7.01 7.95 8.3
5/5/2021 8:00:00 AM 17.42 63.356 0.159 7 4.94 8.4
5/5/2021 8:15:00 AM 17.39 63.302 0.158 7.02 4.11 8.4
5/5/2021 8:30:00 AM 17.37 63.266 0.158 7.02 4.37 8.48
5/5/2021 8:45:00 AM 17.35 63.23 0.158 7.02 4.42 8.53
5/5/2021 9:00:00 AM 17.34 63.212 0.158 7.03 3.91 8.55
5/5/2021 9:15:00 AM 17.33 63.194 0.158 7.03 4.92 8.62
5/5/2021 9:30:00 AM 17.32 63.176 0.158 7.03 4.79 8.69
5/5/2021 9:45:00 AM 17.32 63.176 0.157 7.04 5.77 8.74
5/5/2021 10:00:00 AM 17.33 63.194 0.157 7.04 5.92 8.79
5/5/2021 10:15:00 AM 17.35 63.23 0.157 7.05 4.77 8.84
5/5/2021 10:30:00 AM 17.36 63.248 0.157 7.05 5.48 8.85
5/5/2021 10:45:00 AM 17.36 63.248 0.157 7.05 3.47 8.94
5/5/2021 11:00:00 AM 17.34 63.212 0.156 7.05 7.44 8.93
5/5/2021 11:15:00 AM 17.33 63.194 0.155 7.05 5.49 8.98
5/5/2021 11:30:00 AM 17.33 63.194 0.155 7.05 6.43 8.96
5/5/2021 11:45:00 AM 17.37 63.266 0.155 7.06 3.9 9.07
5/5/2021 12:00:00 PM 17.44 63.392 0.155 7.04 6.27 9.15
5/5/2021 12:15:00 PM 17.58 63.644 0.155 7.05 4.74 9.3
5/5/2021 12:30:00 PM 17.85 64.13 0.155 7.04 5.86 9.33
5/5/2021 12:45:00 PM 18.23 64.814 0.155 7.03 5.21 9.44
5/5/2021 1:00:00 PM 18.51 65.318 0.155 7.03 5.27 9.51
5/5/2021 1:15:00 PM 18.82 65.876 0.155 7.04 4.94 9.55
5/5/2021 1:30:00 PM 19.02 66.236 0.155 7.04 5.32 9.46
5/5/2021 1:45:00 PM 19.1 66.38 0.155 7.04 5.43 9.59
5/5/2021 2:00:00 PM 19.18 66.524 0.154 7.04 5.54 9.54
5/5/2021 2:15:00 PM 19.47 67.046 0.154 7.05 5.8 9.58
5/5/2021 2:30:00 PM 19.68 67.424 0.154 7.06 16.39 9.62
5/5/2021 2:45:00 PM 19.62 67.316 0.155 7.07 5.21 9.51
5/5/2021 3:00:00 PM 19.67 67.406 0.155 7.09 6.32 9.48
5/5/2021 3:15:00 PM 19.93 67.874 0.155 7.1 9.48 9.49
5/5/2021 3:30:00 PM 19.99 67.982 0.155 7.11 6.46 9.47
5/5/2021 3:45:00 PM 20.08 68.144 0.155 7.13 6.09 9.46
5/5/2021 4:00:00 PM 20.14 68.252 0.156 7.14 8.5 9.46
5/5/2021 4:15:00 PM 20.15 68.27 0.156 7.17 7.41 9.44
5/5/2021 4:30:00 PM 19.94 67.892 0.156 7.18 9.15 9.36
5/5/2021 4:45:00 PM 19.85 67.73 0.156 7.2 6.5 9.31
5/5/2021 5:00:00 PM 19.83 67.694 0.156 7.21 6.33 9.32
5/5/2021 5:15:00 PM 19.65 67.37 0.157 7.21 6.84 9.23
5/5/2021 5:30:00 PM 19.44 66.992 0.157 7.22 8.66 9.17
5/5/2021 5:45:00 PM 19.34 66.812 0.157 7.22 7.92 9.11
5/5/2021 6:00:00 PM 19.21 66.578 0.157 7.23 7.81 9.06
5/5/2021 6:15:00 PM 19.09 66.362 0.157 7.24 14.64 9
5/5/2021 6:30:00 PM 18.98 66.164 0.157 7.24 11.18 8.95
5/5/2021 6:45:00 PM 18.87 65.966 0.157 7.24 8.29 8.91
5/5/2021 7:00:00 PM 18.76 65.768 0.157 7.23 6.96 8.84
5/5/2021 7:15:00 PM 18.67 65.606 0.157 7.22 10.11 8.75
5/5/2021 7:30:00 PM 18.54 65.372 0.157 7.2 9.89 8.69
5/5/2021 7:45:00 PM 18.41 65.138 0.158 7.2 12.45 8.66
5/5/2021 8:00:00 PM 18.29 64.922 0.158 7.19 5.25 8.65
5/5/2021 8:15:00 PM 18.2 64.76 0.158 7.17 4.74 8.62
5/5/2021 8:30:00 PM 18.08 64.544 0.158 7.15 6.54 8.58
5/5/2021 8:45:00 PM 17.97 64.346 0.158 7.14 6.15 8.54
5/5/2021 9:00:00 PM 17.87 64.166 0.158 7.13 5.62 8.51
5/5/2021 9:15:00 PM 17.79 64.022 0.158 7.12 5.47 8.5
5/5/2021 9:30:00 PM 17.68 63.824 0.158 7.11 6.65 8.48
5/5/2021 9:45:00 PM 17.57 63.626 0.158 7.1 5.75 8.47
5/5/2021 10:00:00 PM 17.47 63.446 0.158 7.09 6.3 8.47
5/5/2021 10:15:00 PM 17.37 63.266 0.159 7.07 5.96 8.46
5/5/2021 10:30:00 PM 17.26 63.068 0.159 7.06 6.93 8.46
5/5/2021 10:45:00 PM 17.16 62.888 0.159 7.04 5.91 8.46
5/5/2021 11:00:00 PM 17.04 62.672 0.159 7.04 7.06 8.48
5/5/2021 11:15:00 PM 16.92 62.456 0.159 7.03 7.69 8.49
5/5/2021 11:30:00 PM 16.77 62.186 0.159 7.02 4.95 8.55
5/5/2021 11:45:00 PM 16.66 61.988 0.159 7.01 5.2 8.56
5/6/2021 12:00:00 AM 16.56 61.808 0.16 7.01 9.95 8.58
5/6/2021 12:15:00 AM 16.45 61.61 0.16 7.01 5.68 8.62
5/6/2021 12:30:00 AM 16.36 61.448 0.16 7.01 6.7 8.62
5/6/2021 12:45:00 AM 16.25 61.25 0.16 7.01 5.62 8.65
5/6/2021 1:00:00 AM 16.14 61.052 0.16 7.01 5.24 8.66
5/6/2021 1:15:00 AM 16.04 60.872 0.16 7.01 6.8 8.69
5/6/2021 1:30:00 AM 15.92 60.656 0.16 7.01 7.21 8.72
5/6/2021 1:45:00 AM 15.83 60.494 0.161 7.01 7.06 8.75
5/6/2021 2:00:00 AM 15.73 60.314 0.161 7.01 8.01 8.78
5/6/2021 2:15:00 AM 15.67 60.206 0.161 7.02 6.9 8.79
5/6/2021 2:30:00 AM 15.57 60.026 0.161 7.03 7.34 8.81
5/6/2021 2:45:00 AM 15.45 59.81 0.162 7.03 6.31 8.86
5/6/2021 3:00:00 AM 15.35 59.63 0.162 7.03 6.44 8.88
5/6/2021 3:15:00 AM 15.26 59.468 0.162 7.04 5.16 8.91
5/6/2021 3:30:00 AM 15.16 59.288 0.163 7.04 9.04 8.93
5/6/2021 3:45:00 AM 15.07 59.126 0.163 7.05 11.77 8.96
5/6/2021 4:00:00 AM 14.97 58.946 0.163 7.06 8.91 8.98
5/6/2021 4:15:00 AM 14.87 58.766 0.163 7.06 5.97 9.01
5/6/2021 4:30:00 AM 14.76 58.568 0.163 7.07 9.79 9.04
5/6/2021 4:45:00 AM 14.65 58.37 0.163 7.07 9.41 9.07
5/6/2021 5:00:00 AM 14.55 58.19 0.164 7.07 5.74 9.09
5/6/2021 5:15:00 AM 14.44 57.992 0.163 7.07 6.26 9.1
5/6/2021 5:30:00 AM 14.32 57.776 0.163 7.07 6.61 9.14
5/6/2021 5:45:00 AM 14.23 57.614 0.163 7.08 5.39 9.16
5/6/2021 6:00:00 AM 14.15 57.47 0.163 7.08 11.58 9.13
5/6/2021 6:15:00 AM 14.01 57.218 0.163 7.09 7.15 9.21
5/6/2021 6:30:00 AM 13.9 57.02 0.163 7.09 5.58 9.23
5/6/2021 6:45:00 AM 13.81 56.858 0.163 7.09 7.84 9.29
5/6/2021 7:00:00 AM 13.72 56.696 0.163 7.09 7.17 9.31
5/6/2021 7:15:00 AM 13.63 56.534 0.162 7.09 6.72 9.36
5/6/2021 7:30:00 AM 13.55 56.39 0.162 7.1 5.06 9.44
5/6/2021 7:45:00 AM 13.47 56.246 0.162 7.09 9.58 9.5
5/6/2021 8:00:00 AM 13.41 56.138 0.162 7.09 4.73 9.54
5/6/2021 8:15:00 AM 13.35 56.03 0.161 7.09 8.6 9.62
5/6/2021 8:30:00 AM 13.31 55.958 0.161 7.09 4.45 9.65
5/6/2021 8:45:00 AM 13.28 55.904 0.161 7.09 4.95 9.7
5/6/2021 9:00:00 AM 13.26 55.868 0.161 7.09 5.23 9.79
5/6/2021 9:15:00 AM 13.26 55.868 0.16 7.09 5.06 9.89
5/6/2021 9:30:00 AM 13.26 55.868 0.16 7.1 5.4 9.93
5/6/2021 9:45:00 AM 13.27 55.886 0.16 7.09 4.83 10.06
5/6/2021 10:00:00 AM 13.33 55.994 0.159 7.09 5.08 10.12
5/6/2021 10:15:00 AM 13.42 56.156 0.159 7.09 3.62 10.22
5/6/2021 10:30:00 AM 13.5 56.3 0.159 7.1 3.33 10.27
5/6/2021 10:45:00 AM 13.69 56.642 0.159 7.1 11.23 10.36
5/6/2021 11:00:00 AM 13.89 57.002 0.158 7.11 4.63 10.47
5/6/2021 11:15:00 AM 14.1 57.38 0.158 7.11 6.3 10.51
5/6/2021 11:30:00 AM 14.34 57.812 0.158 7.12 4.2 10.5
5/6/2021 11:45:00 AM 14.55 58.19 0.158 7.12 4.67 10.52
5/6/2021 12:00:00 PM 14.88 58.784 0.158 7.12 4.5 10.54
5/6/2021 12:15:00 PM 15.2 59.36 0.157 7.12 3.52 10.55
5/6/2021 12:30:00 PM 15.54 59.972 0.157 7.12 4.59 10.53
5/6/2021 12:45:00 PM 15.96 60.728 0.157 7.11 3.78 10.53
5/6/2021 1:00:00 PM 16.3 61.34 0.157 7.1 3.65 10.52
5/6/2021 1:15:00 PM 16.68 62.024 0.157 7.09 4.18 10.46
5/6/2021 1:30:00 PM 17.01 62.618 0.157 7.09 3.78 10.36
5/6/2021 1:45:00 PM 17.4 63.32 0.157 7.09 4.75 10.34
5/6/2021 2:00:00 PM 17.82 64.076 0.157 7.08 3.95 10.38
5/6/2021 2:15:00 PM 18.22 64.796 0.157 7.08 3.57 10.24
5/6/2021 2:30:00 PM 18.47 65.246 0.158 7.06 4.47 10.26
5/6/2021 2:45:00 PM 18.58 65.444 0.158 7.05 4.9 10.16
5/6/2021 3:00:00 PM 18.62 65.516 0.158 7.06 4.22 10.2
5/6/2021 3:15:00 PM 18.66 65.588 0.158 7.07 7.35 10.12
5/6/2021 3:30:00 PM 18.69 65.642 0.158 7.06 3.45 10.11
5/6/2021 3:45:00 PM 18.7 65.66 0.158 7.06 3.95 9.96
5/6/2021 4:00:00 PM 18.68 65.624 0.159 7.05 12.84 10
5/6/2021 4:15:00 PM 18.58 65.444 0.159 7.07 2.73 9.94
5/6/2021 4:30:00 PM 18.44 65.192 0.159 7.09 3.94 9.88
5/6/2021 4:45:00 PM 18.31 64.958 0.159 7.1 3.52 9.9
5/6/2021 5:00:00 PM 18.18 64.724 0.159 7.11 4.01 9.78
5/6/2021 5:15:00 PM 18.03 64.454 0.159 7.11 6.94 9.87
5/6/2021 5:30:00 PM 17.92 64.256 0.159 7.12 5.85 9.8
5/6/2021 5:45:00 PM 17.81 64.058 0.159 7.13 3.48 9.75
5/6/2021 6:00:00 PM 17.69 63.842 0.159 7.13 3.17 9.76
5/6/2021 6:15:00 PM 17.57 63.626 0.159 7.14 4.02 9.67
5/6/2021 6:30:00 PM 17.42 63.356 0.159 7.14 3.31 9.72
5/6/2021 6:45:00 PM 17.3 63.14 0.159 7.14 3 9.65
5/6/2021 7:00:00 PM 17.19 62.942 0.159 7.15 2.93 9.53
5/6/2021 7:15:00 PM 17.04 62.672 0.159 7.15 3.2 9.48
5/6/2021 7:30:00 PM 16.88 62.384 0.159 7.15 4.92 9.44
5/6/2021 7:45:00 PM 16.76 62.168 0.159 7.16 2.64 9.33
5/6/2021 8:00:00 PM 16.63 61.934 0.159 7.17 3.14 9.32
5/6/2021 8:15:00 PM 16.48 61.664 0.159 7.17 3.28 9.24
5/6/2021 8:30:00 PM 16.35 61.43 0.159 7.17 2.91 9.19
5/6/2021 8:45:00 PM 16.22 61.196 0.159 7.16 2.31 9.13
5/6/2021 9:00:00 PM 16.09 60.962 0.16 7.16 3.27 9.1
5/6/2021 9:15:00 PM 15.97 60.746 0.16 7.17 3.08 9.06
5/6/2021 9:30:00 PM 15.85 60.53 0.16 7.16 2.76 9.03
5/6/2021 9:45:00 PM 15.73 60.314 0.16 7.15 2.78 9.01
5/6/2021 10:00:00 PM 15.61 60.098 0.16 7.15 2.65 9
5/6/2021 10:15:00 PM 15.47 59.846 0.16 7.15 3.79 9.02
5/6/2021 10:30:00 PM 15.35 59.63 0.16 7.14 3.53 9.02
5/6/2021 10:45:00 PM 15.23 59.414 0.16 7.13 2.76 9.02
5/6/2021 11:00:00 PM 15.12 59.216 0.16 7.12 3.61 9.02
5/6/2021 11:15:00 PM 14.99 58.982 0.16 7.12 3.03 9.05
5/6/2021 11:30:00 PM 14.88 58.784 0.16 7.13 2.99 9.08
5/6/2021 11:45:00 PM 14.77 58.586 0.16 7.12 3 9.08
5/7/2021 12:00:00 AM 14.69 58.442 0.16 7.11 3.23 9.09
5/7/2021 12:15:00 AM 14.57 58.226 0.16 7.1 2.82 9.11
5/7/2021 12:30:00 AM 14.51 58.118 0.16 7.1 2.59 9.12
5/7/2021 12:45:00 AM 14.42 57.956 0.161 7.1 4.42 9.12
5/7/2021 1:00:00 AM 14.34 57.812 0.161 7.09 3.64 9.14
5/7/2021 1:15:00 AM 14.28 57.704 0.161 7.08 3.25 9.17
5/7/2021 1:30:00 AM 14.2 57.56 0.161 7.09 3.74 9.19
5/7/2021 1:45:00 AM 14.14 57.452 0.161 7.07 3.05 9.21
5/7/2021 2:00:00 AM 14.07 57.326 0.161 7.07 3.88 9.22
5/7/2021 2:15:00 AM 14.01 57.218 0.161 7.06 4.45 9.22
5/7/2021 2:30:00 AM 13.93 57.074 0.161 7.05 6.65 9.27
5/7/2021 2:45:00 AM 13.87 56.966 0.161 7.06 4.36 9.27
5/7/2021 3:00:00 AM 13.78 56.804 0.161 7.05 3.52 9.28
5/7/2021 3:15:00 AM 13.74 56.732 0.161 7.05 3.17 9.29
5/7/2021 3:30:00 AM 13.65 56.57 0.161 7.05 3.05 9.32
5/7/2021 3:45:00 AM 13.57 56.426 0.161 7.04 4.95 9.35
5/7/2021 4:00:00 AM 13.49 56.282 0.161 7.04 2.72 9.36
5/7/2021 4:15:00 AM 13.39 56.102 0.161 7.04 5.64 9.38
5/7/2021 4:30:00 AM 13.32 55.976 0.161 7.04 3.27 9.41
5/7/2021 4:45:00 AM 13.25 55.85 0.161 7.04 5.01 9.42
5/7/2021 5:00:00 AM 13.17 55.706 0.161 7.03 3.7 9.45
5/7/2021 5:15:00 AM 13.07 55.526 0.161 7.03 4.21 9.47
5/7/2021 5:30:00 AM 12.97 55.346 0.161 7.04 3.47 9.52
5/7/2021 5:45:00 AM 12.91 55.238 0.161 7.04 5.12 9.53
5/7/2021 6:00:00 AM 12.83 55.094 0.161 7.04 7.4 9.47
5/7/2021 6:15:00 AM 12.73 54.914 0.161 7.04 3.13 9.49
5/7/2021 6:30:00 AM 12.66 54.788 0.161 7.04 3.85 9.57
5/7/2021 6:45:00 AM 12.6 54.68 0.161 7.04 2.61 9.57
5/7/2021 7:00:00 AM 12.53 54.554 0.161 7.03 4.75 9.66
5/7/2021 7:15:00 AM 12.48 54.464 0.161 7.03 2.68 9.71
5/7/2021 7:30:00 AM 12.44 54.392 0.161 7.03 6.16 9.77
5/7/2021 7:45:00 AM 12.42 54.356 0.161 7.03 4.33 9.83
5/7/2021 8:00:00 AM 12.4 54.32 0.161 7.03 5.09 9.95
5/7/2021 8:15:00 AM 12.38 54.284 0.161 7.03 3.32 9.98
5/7/2021 8:30:00 AM 12.38 54.284 0.161 7.02 3.61 10.09
5/7/2021 8:45:00 AM 12.39 54.302 0.161 7.02 3.34 10.19
5/7/2021 9:00:00 AM 12.41 54.338 0.161 7.02 2.99 10.29
5/7/2021 9:15:00 AM 12.43 54.374 0.161 7.02 2.59 10.33
5/7/2021 9:30:00 AM 12.46 54.428 0.161 7.02 3.49 10.36
5/7/2021 9:45:00 AM 12.55 54.59 0.161 7.02 4.24 10.49
5/7/2021 10:00:00 AM 12.66 54.788 0.16 7.04 3.33 10.58
5/7/2021 10:15:00 AM 12.77 54.986 0.16 7.05 4.16 10.66
5/7/2021 10:30:00 AM 12.9 55.22 0.16 7.07 3.57 10.73
5/7/2021 10:45:00 AM 13.02 55.436 0.16 7.07 4.31 10.77
5/7/2021 11:00:00 AM 13.2 55.76 0.16 7.08 4.03 10.81
5/7/2021 11:15:00 AM 13.36 56.048 0.16 7.09 8.01 10.88
5/7/2021 11:30:00 AM 13.49 56.282 0.16 7.09 4.32 10.87
5/7/2021 11:45:00 AM 13.59 56.462 0.16 7.1 3.61 10.84
5/7/2021 12:00:00 PM 13.72 56.696 0.16 7.1 6.07 10.85
5/7/2021 12:15:00 PM 13.9 57.02 0.16 7.11 5.91 10.84
5/7/2021 12:30:00 PM 14.14 57.452 0.16 7.12 3.74 10.83
5/7/2021 12:45:00 PM 14.47 58.046 0.16 7.11 5.31 10.88
5/7/2021 1:00:00 PM 14.72 58.496 0.16 7.12 4.1 10.89
5/7/2021 1:15:00 PM 14.91 58.838 0.16 7.12 3.42 10.81
5/7/2021 1:30:00 PM 15.01 59.018 0.16 7.13 3.05 10.78
5/7/2021 1:45:00 PM 15.06 59.108 0.16 7.12 3.1 10.68
5/7/2021 2:00:00 PM 15.12 59.216 0.16 7.12 2.91 10.71
5/7/2021 2:15:00 PM 15.18 59.324 0.16 7.12 2.91 10.7
5/7/2021 2:30:00 PM 15.2 59.36 0.16 7.12 4.04 10.6
5/7/2021 2:45:00 PM 15.21 59.378 0.16 7.13 3.46 10.55
5/7/2021 3:00:00 PM 15.18 59.324 0.16 7.13 3.43 10.44
5/7/2021 3:15:00 PM 15.14 59.252 0.161 7.14 2.55 10.29
5/7/2021 3:30:00 PM 15.07 59.126 0.161 7.14 5.96 10.07
5/7/2021 3:45:00 PM 14.97 58.946 0.161 7.15 3.37 10.02
5/7/2021 4:00:00 PM 14.9 58.82 0.161 7.15 2.4 9.94
5/7/2021 4:15:00 PM 14.83 58.694 0.161 7.15 3.66 9.94
5/7/2021 4:30:00 PM 14.78 58.604 0.161 7.15 2.23 9.87
5/7/2021 4:45:00 PM 14.69 58.442 0.161 7.14 3.35 9.96
5/7/2021 5:00:00 PM 14.61 58.298 0.161 7.14 2.53 9.98
5/7/2021 5:15:00 PM 14.54 58.172 0.161 7.13 2.68 9.9
5/7/2021 5:30:00 PM 14.45 58.01 0.16 7.13 2.43 9.8
5/7/2021 5:45:00 PM 14.37 57.866 0.16 7.13 3.02 9.86
5/7/2021 6:00:00 PM 14.29 57.722 0.16 7.13 3.67 9.81
5/7/2021 6:15:00 PM 14.19 57.542 0.16 7.13 2.17 9.83
5/7/2021 6:30:00 PM 14.11 57.398 0.16 7.12 2.34 9.81
5/7/2021 6:45:00 PM 14.04 57.272 0.16 7.12 3.43 9.73
5/7/2021 7:00:00 PM 13.95 57.11 0.16 7.12 4.23 9.78
5/7/2021 7:15:00 PM 13.87 56.966 0.159 7.12 3.11 9.77
5/7/2021 7:30:00 PM 13.8 56.84 0.159 7.12 3.24 9.73
5/7/2021 7:45:00 PM 13.75 56.75 0.159 7.12 4.65 9.66
5/7/2021 8:00:00 PM 13.65 56.57 0.159 7.12 2.71 9.68
5/7/2021 8:15:00 PM 13.57 56.426 0.159 7.12 3.18 9.7
5/7/2021 8:30:00 PM 13.51 56.318 0.159 7.13 2.61 9.68
5/7/2021 8:45:00 PM 13.45 56.21 0.159 7.13 2.75 9.65
5/7/2021 9:00:00 PM 13.39 56.102 0.159 7.12 3.2 9.63
5/7/2021 9:15:00 PM 13.32 55.976 0.159 7.12 7.2 9.63
5/7/2021 9:30:00 PM 13.27 55.886 0.159 7.12 3.09 9.61
5/7/2021 9:45:00 PM 13.21 55.778 0.159 7.11 5.3 9.62
5/7/2021 10:00:00 PM 13.15 55.67 0.158 7.1 4.22 9.63
5/7/2021 10:15:00 PM 13.11 55.598 0.159 7.1 2.91 9.64
5/7/2021 10:30:00 PM 13.06 55.508 0.159 7.09 4.93 9.63
5/7/2021 10:45:00 PM 13.01 55.418 0.159 7.09 5.47 9.64
5/7/2021 11:00:00 PM 12.96 55.328 0.159 7.09 3.49 9.65
5/7/2021 11:15:00 PM 12.91 55.238 0.159 7.08 3.23 9.65
5/7/2021 11:30:00 PM 12.86 55.148 0.159 7.07 4.15 9.67
5/7/2021 11:45:00 PM 12.83 55.094 0.159 7.07 4.34 9.66
5/8/2021 12:00:00 AM 12.77 54.986 0.159 7.07 4.25 9.68
5/8/2021 12:15:00 AM 12.73 54.914 0.159 7.06 4.19 9.69
5/8/2021 12:30:00 AM 12.68 54.824 0.159 7.06 8.18 9.7
5/8/2021 12:45:00 AM 12.63 54.734 0.159 7.05 4.7 9.7
5/8/2021 1:00:00 AM 12.58 54.644 0.159 7.05 3.7 9.72
5/8/2021 1:15:00 AM 12.53 54.554 0.159 7.05 3.58 9.72
5/8/2021 1:30:00 AM 12.49 54.482 0.159 7.05 3.48 9.73
5/8/2021 1:45:00 AM 12.43 54.374 0.159 7.05 3.94 9.74
5/8/2021 2:00:00 AM 12.36 54.248 0.159 7.04 4.3 9.75
5/8/2021 2:15:00 AM 12.29 54.122 0.159 7.04 5.1 9.77
5/8/2021 2:30:00 AM 12.23 54.014 0.159 7.04 4.99 9.8
5/8/2021 2:45:00 AM 12.16 53.888 0.159 7.04 3.22 9.81
5/8/2021 3:00:00 AM 12.1 53.78 0.159 7.04 4.11 9.81
5/8/2021 3:15:00 AM 12.03 53.654 0.159 7.03 7.52 9.85
5/8/2021 3:30:00 AM 11.96 53.528 0.159 7.03 5.52 9.87
5/8/2021 3:45:00 AM 11.87 53.366 0.159 7.03 5.2 9.89
5/8/2021 4:00:00 AM 11.81 53.258 0.159 7.03 8.48 9.91
5/8/2021 4:15:00 AM 11.76 53.168 0.159 7.03 9.07 9.91
5/8/2021 4:30:00 AM 11.67 53.006 0.159 7.04 9.1 9.95
5/8/2021 4:45:00 AM 11.62 52.916 0.159 7.05 6.87 9.95
5/8/2021 5:00:00 AM 11.55 52.79 0.159 7.05 3.34 9.97
5/8/2021 5:15:00 AM 11.47 52.646 0.159 7.05 3.06 10.01
5/8/2021 5:30:00 AM 11.4 52.52 0.159 7.05 4.53 10.03
5/8/2021 5:45:00 AM 11.35 52.43 0.159 7.05 4.47 10
5/8/2021 6:00:00 AM 11.27 52.286 0.159 7.05 19.84 10.03
5/8/2021 6:15:00 AM 11.23 52.214 0.159 7.07 5.79 9.98
5/8/2021 6:30:00 AM 11.13 52.034 0.159 7.06 4.96 10.08
5/8/2021 6:45:00 AM 11.09 51.962 0.159 7.07 5.03 10.07
5/8/2021 7:00:00 AM 11.05 51.89 0.159 7.08 3.51 10.12
5/8/2021 7:15:00 AM 10.99 51.782 0.159 7.08 7.56 10.19
5/8/2021 7:30:00 AM 10.97 51.746 0.159 7.08 3.71 10.21
5/8/2021 7:45:00 AM 10.94 51.692 0.159 7.09 2.92 10.32
5/8/2021 8:00:00 AM 10.92 51.656 0.159 7.09 3.67 10.41
5/8/2021 8:15:00 AM 10.93 51.674 0.159 7.09 18.43 10.52
5/8/2021 8:30:00 AM 10.96 51.728 0.159 7.1 4 10.6
5/8/2021 8:45:00 AM 10.96 51.728 0.159 7.09 3.77 10.66
5/8/2021 9:00:00 AM 10.97 51.746 0.159 7.1 3.93 10.69
5/8/2021 9:15:00 AM 10.96 51.728 0.159 7.1 3.21 10.72
5/8/2021 9:30:00 AM 10.96 51.728 0.159 7.1 5.34 10.76
5/8/2021 9:45:00 AM 10.97 51.746 0.159 7.1 3.69 10.76
5/8/2021 10:00:00 AM 10.98 51.764 0.159 7.1 3.69 10.76
5/8/2021 10:15:00 AM 11.02 51.836 0.158 7.1 3.21 10.87
5/8/2021 10:30:00 AM 11.08 51.944 0.158 7.1 2.98 10.95
5/8/2021 10:45:00 AM 11.18 52.124 0.158 7.11 3.71 11.01
5/8/2021 11:00:00 AM 11.23 52.214 0.158 7.11 4.58 11.08
5/8/2021 11:15:00 AM 11.31 52.358 0.158 7.12 3.59 11.1
5/8/2021 11:30:00 AM 11.41 52.538 0.158 7.12 3.66 11.12
5/8/2021 11:45:00 AM 11.52 52.736 0.158 7.13 3.55 11.22
5/8/2021 12:00:00 PM 11.69 53.042 0.158 7.14 2.7 11.19
5/8/2021 12:15:00 PM 11.82 53.276 0.158 7.14 3.06 11.26
5/8/2021 12:30:00 PM 11.99 53.582 0.158 7.14 3.91 11.17
5/8/2021 12:45:00 PM 12.12 53.816 0.158 7.14 3.98 11.14
5/8/2021 1:00:00 PM 12.33 54.194 0.157 7.15 3.87 11.15
5/8/2021 1:15:00 PM 12.5 54.5 0.158 7.15 4.69 11.19
5/8/2021 1:30:00 PM 12.85 55.13 0.157 7.15 3.79 11.19
5/8/2021 1:45:00 PM 13.05 55.49 0.157 7.15 2.76 11.11
5/8/2021 2:00:00 PM 13.07 55.526 0.158 7.17 3.17 11.03
5/8/2021 2:15:00 PM 12.95 55.31 0.158 7.17 3.21 10.9
5/8/2021 2:30:00 PM 12.85 55.13 0.158 7.16 5.36 10.85
5/8/2021 2:45:00 PM 12.95 55.31 0.158 7.17 3.11 10.78
5/8/2021 3:00:00 PM 13.12 55.616 0.157 7.16 4.54 10.87
5/8/2021 3:15:00 PM 13.39 56.102 0.157 7.17 2.81 10.91
5/8/2021 3:30:00 PM 13.51 56.318 0.157 7.16 2.93 10.98
5/8/2021 3:45:00 PM 13.52 56.336 0.158 7.16 3.09 10.89
5/8/2021 4:00:00 PM 13.36 56.048 0.157 7.16 3.07 10.85
5/8/2021 4:15:00 PM 13.32 55.976 0.157 7.17 3.18 10.85
5/8/2021 4:30:00 PM 13.36 56.048 0.157 7.18 2.15 10.74
5/8/2021 4:45:00 PM 13.49 56.282 0.157 7.17 4.09 10.77
5/8/2021 5:00:00 PM 13.59 56.462 0.157 7.17 2.49 10.87
5/8/2021 5:15:00 PM 13.62 56.516 0.157 7.17 2.62 10.78
5/8/2021 5:30:00 PM 13.61 56.498 0.157 7.17 2.77 10.8
5/8/2021 5:45:00 PM 13.54 56.372 0.158 7.17 3.88 10.64
5/8/2021 6:00:00 PM 13.47 56.246 0.158 7.17 2.38 10.56
5/8/2021 6:15:00 PM 13.38 56.084 0.158 7.18 3.15 10.52
5/8/2021 6:30:00 PM 13.31 55.958 0.158 7.18 3.63 10.49
5/8/2021 6:45:00 PM 13.22 55.796 0.158 7.16 2.38 10.43
5/8/2021 7:00:00 PM 13.13 55.634 0.158 7.15 3.67 10.4
5/8/2021 7:15:00 PM 13.06 55.508 0.158 7.16 3.47 10.32
5/8/2021 7:30:00 PM 13.01 55.418 0.158 7.17 2.89 10.28
5/8/2021 7:45:00 PM 12.92 55.256 0.158 7.17 2.62 10.27
5/8/2021 8:00:00 PM 12.82 55.076 0.159 7.18 4.01 10.23
5/8/2021 8:15:00 PM 12.73 54.914 0.159 7.18 2.36 10.18
5/8/2021 8:30:00 PM 12.59 54.662 0.159 7.18 2.38 10.19
5/8/2021 8:45:00 PM 12.52 54.536 0.159 7.19 2.59 10.15
5/8/2021 9:00:00 PM 12.38 54.284 0.159 7.19 5.92 10.14
5/8/2021 9:15:00 PM 12.32 54.176 0.159 7.19 2.91 10.09
5/8/2021 9:30:00 PM 12.29 54.122 0.159 7.18 3.5 10.04
5/8/2021 9:45:00 PM 12.23 54.014 0.159 7.18 2.38 10.03
5/8/2021 10:00:00 PM 12.16 53.888 0.159 7.17 3.11 10.03
5/8/2021 10:15:00 PM 12.09 53.762 0.16 7.16 4.64 10.02
5/8/2021 10:30:00 PM 11.98 53.564 0.16 7.16 3.71 10.04
5/8/2021 10:45:00 PM 11.9 53.42 0.16 7.16 5.06 10.04
5/8/2021 11:00:00 PM 11.82 53.276 0.16 7.16 6.95 10.04
5/8/2021 11:15:00 PM 11.73 53.114 0.16 7.16 4.81 10.05
5/8/2021 11:30:00 PM 11.65 52.97 0.16 7.15 3.34 10.06
5/8/2021 11:45:00 PM 11.58 52.844 0.16 7.15 3.3 10.07
5/9/2021 12:00:00 AM 11.48 52.664 0.16 7.14 7.2 10.1
5/9/2021 12:15:00 AM 11.43 52.574 0.16 7.15 4.31 10.09
5/9/2021 12:30:00 AM 11.35 52.43 0.16 7.15 6.28 10.09
5/9/2021 12:45:00 AM 11.29 52.322 0.16 7.14 3.65 10.14
5/9/2021 1:00:00 AM 11.2 52.16 0.16 7.14 3.91 10.14
5/9/2021 1:15:00 AM 11.14 52.052 0.16 7.13 3.8 10.15
5/9/2021 1:30:00 AM 11.08 51.944 0.16 7.13 4.53 10.17
5/9/2021 1:45:00 AM 11.01 51.818 0.16 7.13 3.84 10.18
5/9/2021 2:00:00 AM 10.94 51.692 0.16 7.12 4.18 10.2
5/9/2021 2:15:00 AM 10.87 51.566 0.16 7.11 3.8 10.24
5/9/2021 2:30:00 AM 10.81 51.458 0.16 7.11 3.03 10.24
5/9/2021 2:45:00 AM 10.76 51.368 0.16 7.11 4.14 10.26
5/9/2021 3:00:00 AM 10.71 51.278 0.16 7.11 4.22 10.28
5/9/2021 3:15:00 AM 10.67 51.206 0.16 7.1 4.07 10.29
5/9/2021 3:30:00 AM 10.62 51.116 0.159 7.1 4.38 10.31
5/9/2021 3:45:00 AM 10.58 51.044 0.159 7.1 3.61 10.33
5/9/2021 4:00:00 AM 10.54 50.972 0.159 7.1 4.44 10.34
5/9/2021 4:15:00 AM 10.5 50.9 0.159 7.1 3.3 10.36
5/9/2021 4:30:00 AM 10.47 50.846 0.159 7.09 3.9 10.37
5/9/2021 4:45:00 AM 10.42 50.756 0.159 7.09 3.8 10.4
5/9/2021 5:00:00 AM 10.38 50.684 0.159 7.09 4.34 10.4
5/9/2021 5:15:00 AM 10.35 50.63 0.159 7.08 7.97 10.41
5/9/2021 5:30:00 AM 10.32 50.576 0.159 7.08 4.73 10.43
5/9/2021 5:45:00 AM 10.28 50.504 0.159 7.07 6.46 10.38
5/9/2021 6:00:00 AM 10.24 50.432 0.159 7.08 3.64 10.44
5/9/2021 6:15:00 AM 10.22 50.396 0.159 7.08 11.04 10.41
5/9/2021 6:30:00 AM 10.16 50.288 0.159 7.08 12.93 10.46
5/9/2021 6:45:00 AM 10.15 50.27 0.159 7.08 5.33 10.46
5/9/2021 7:00:00 AM 10.12 50.216 0.159 7.08 12.75 10.51
5/9/2021 7:15:00 AM 10.11 50.198 0.159 7.08 5.03 10.57
5/9/2021 7:30:00 AM 10.1 50.18 0.159 7.08 4.86 10.61
5/9/2021 7:45:00 AM 10.1 50.18 0.159 7.08 4.71 10.68
5/9/2021 8:00:00 AM 10.12 50.216 0.159 7.08 5.19 10.76
5/9/2021 8:15:00 AM 10.14 50.252 0.159 7.08 5.21 10.89
5/9/2021 8:30:00 AM 10.17 50.306 0.159 7.07 3.97 10.98
5/9/2021 8:45:00 AM 10.21 50.378 0.159 7.08 3.62 11.03
5/9/2021 9:00:00 AM 10.26 50.468 0.159 7.08 3.39 11.12
5/9/2021 9:15:00 AM 10.3 50.54 0.159 7.08 4.11 11.16
5/9/2021 9:30:00 AM 10.36 50.648 0.159 7.08 3.29 11.22
5/9/2021 9:45:00 AM 10.42 50.756 0.159 7.09 3.6 11.27
5/9/2021 10:00:00 AM 10.48 50.864 0.158 7.09 4.53 11.3
5/9/2021 10:15:00 AM 10.54 50.972 0.158 7.09 3.22 11.36
5/9/2021 10:30:00 AM 10.61 51.098 0.158 7.09 4.17 11.41
5/9/2021 10:45:00 AM 10.69 51.242 0.158 7.1 5.12 11.45
5/9/2021 11:00:00 AM 10.78 51.404 0.158 7.1 4.22 11.46
5/9/2021 11:15:00 AM 10.85 51.53 0.158 7.1 4.03 11.51
5/9/2021 11:30:00 AM 10.91 51.638 0.158 7.1 3.83 11.44
5/9/2021 11:45:00 AM 10.97 51.746 0.158 7.1 4.21 11.51
5/9/2021 12:00:00 PM 11.03 51.854 0.158 7.1 3.91 11.5
5/9/2021 12:15:00 PM 11.08 51.944 0.158 7.1 5.32 11.48
5/9/2021 12:30:00 PM 11.14 52.052 0.158 7.1 4.6 11.5
5/9/2021 12:45:00 PM 11.17 52.106 0.158 7.1 4.21 11.47
5/9/2021 1:00:00 PM 11.21 52.178 0.158 7.11 4.36 11.47
5/9/2021 1:15:00 PM 11.23 52.214 0.158 7.12 3.51 11.43
5/9/2021 1:30:00 PM 11.25 52.25 0.158 7.12 3.49 11.38
5/9/2021 1:45:00 PM 11.26 52.268 0.158 7.13 3.34 11.38
5/9/2021 2:00:00 PM 11.27 52.286 0.158 7.13 4.38 11.32
5/9/2021 2:15:00 PM 11.26 52.268 0.158 7.13 4.63 11.27
5/9/2021 2:30:00 PM 11.25 52.25 0.158 7.13 3.95 11.2
5/9/2021 2:45:00 PM 11.3 52.34 0.158 7.13 5.3 11.22
5/9/2021 3:00:00 PM 11.35 52.43 0.158 7.12 4.48 11.18
5/9/2021 3:15:00 PM 11.46 52.628 0.158 7.13 3.85 11.31
5/9/2021 3:30:00 PM 11.58 52.844 0.158 7.13 4.62 11.35
5/9/2021 3:45:00 PM 11.64 52.952 0.158 7.13 4.27 11.38
5/9/2021 4:00:00 PM 11.72 53.096 0.158 7.13 3.94 11.38
5/9/2021 4:15:00 PM 11.74 53.132 0.158 7.13 3.4 11.37
5/9/2021 4:30:00 PM 11.76 53.168 0.158 7.14 4.35 11.35
5/9/2021 4:45:00 PM 11.76 53.168 0.158 7.15 3.37 11.32
5/9/2021 5:00:00 PM 11.77 53.186 0.158 7.15 3.46 11.24
5/9/2021 5:15:00 PM 11.78 53.204 0.158 7.15 4.57 11.21
5/9/2021 5:30:00 PM 11.78 53.204 0.158 7.16 4.18 11.16
5/9/2021 5:45:00 PM 11.78 53.204 0.158 7.15 3.52 11.08
5/9/2021 6:00:00 PM 11.78 53.204 0.158 7.15 4.07 11.01
5/9/2021 6:15:00 PM 11.77 53.186 0.158 7.15 4.13 10.95
5/9/2021 6:30:00 PM 11.76 53.168 0.159 7.15 3.65 10.89
5/9/2021 6:45:00 PM 11.74 53.132 0.159 7.15 4.08 10.86
5/9/2021 7:00:00 PM 11.71 53.078 0.159 7.14 4.69 10.81
5/9/2021 7:15:00 PM 11.69 53.042 0.159 7.13 3.93 10.76
5/9/2021 7:30:00 PM 11.66 52.988 0.159 7.14 4.23 10.73
5/9/2021 7:45:00 PM 11.64 52.952 0.159 7.13 4.77 10.65
5/9/2021 8:00:00 PM 11.61 52.898 0.159 7.12 3.54 10.56
5/9/2021 8:15:00 PM 11.59 52.862 0.159 7.12 3.89 10.56
5/9/2021 8:30:00 PM 11.56 52.808 0.159 7.11 4.71 10.51
5/9/2021 8:45:00 PM 11.53 52.754 0.159 7.11 3.66 10.44
5/9/2021 9:00:00 PM 11.51 52.718 0.159 7.11 3.69 10.38
5/9/2021 9:15:00 PM 11.48 52.664 0.16 7.11 4.17 10.36
5/9/2021 9:30:00 PM 11.45 52.61 0.16 7.1 3.66 10.31
5/9/2021 9:45:00 PM 11.42 52.556 0.16 7.1 5.82 10.3
5/9/2021 10:00:00 PM 11.39 52.502 0.16 7.09 4.06 10.27
5/9/2021 10:15:00 PM 11.37 52.466 0.16 7.08 4.18 10.25
5/9/2021 10:30:00 PM 11.34 52.412 0.16 7.08 4.94 10.24
5/9/2021 10:45:00 PM 11.32 52.376 0.16 7.07 3.9 10.21
5/9/2021 11:00:00 PM 11.3 52.34 0.16 7.07 4.32 10.2
5/9/2021 11:15:00 PM 11.28 52.304 0.16 7.06 4.52 10.21
5/9/2021 11:30:00 PM 11.27 52.286 0.16 7.05 4.33 10.18
5/9/2021 11:45:00 PM 11.26 52.268 0.16 7.06 4.49 10.18
5/10/2021 12:00:00 AM 11.25 52.25 0.16 7.05 4.67 10.17
5/10/2021 12:15:00 AM 11.24 52.232 0.16 7.05 4.45 10.16
5/10/2021 12:30:00 AM 11.23 52.214 0.16 7.05 5.32 10.15
5/10/2021 12:45:00 AM 11.22 52.196 0.16 7.04 6.03 10.13
5/10/2021 1:00:00 AM 11.22 52.196 0.16 7.04 7.05 10.14
5/10/2021 1:15:00 AM 11.21 52.178 0.16 7.03 5.58 10.14
5/10/2021 1:30:00 AM 11.21 52.178 0.16 7.03 10.74 10.14
5/10/2021 1:45:00 AM 11.21 52.178 0.16 7.03 5.41 10.13
5/10/2021 2:00:00 AM 11.21 52.178 0.16 7.02 5.17 10.13
5/10/2021 2:15:00 AM 11.21 52.178 0.16 7.02 4.58 10.12
5/10/2021 2:30:00 AM 11.21 52.178 0.16 7.02 6.13 10.13
5/10/2021 2:45:00 AM 11.21 52.178 0.16 7.02 5.73 10.13
5/10/2021 3:00:00 AM 11.21 52.178 0.16 7.02 5.86 10.12
5/10/2021 3:15:00 AM 11.22 52.196 0.16 7.02 5.02 10.13
5/10/2021 3:30:00 AM 11.22 52.196 0.16 7.01 5.01 10.12
5/10/2021 3:45:00 AM 11.22 52.196 0.16 7.01 4.69 10.13
5/10/2021 4:00:00 AM 11.21 52.178 0.16 7.01 6.03 10.14
5/10/2021 4:15:00 AM 11.19 52.142 0.16 7.01 5.32 10.14
5/10/2021 4:30:00 AM 11.18 52.124 0.16 7.01 5.77 10.12
5/10/2021 4:45:00 AM 11.16 52.088 0.16 7.01 4.57 10.14
5/10/2021 5:00:00 AM 11.13 52.034 0.16 7.01 7.16 10.16
5/10/2021 5:15:00 AM 11.11 51.998 0.16 7.01 7.03 10.17
5/10/2021 5:30:00 AM 11.08 51.944 0.16 7.01 5.79 10.17
5/10/2021 5:45:00 AM 11.06 51.908 0.16 7.01 8.93 10.11
5/10/2021 6:00:00 AM 11.04 51.872 0.16 7 6.35 10.15
5/10/2021 6:15:00 AM 11.02 51.836 0.16 7.01 5.43 10.14
5/10/2021 6:30:00 AM 10.99 51.782 0.16 7.01 6.84 10.14
5/10/2021 6:45:00 AM 10.96 51.728 0.161 7.02 4.66 10.18
5/10/2021 7:00:00 AM 10.95 51.71 0.161 7.02 5.24 10.23
5/10/2021 7:15:00 AM 10.93 51.674 0.16 7.03 7.26 10.29
5/10/2021 7:30:00 AM 10.93 51.674 0.16 7.03 6.31 10.33
5/10/2021 7:45:00 AM 10.92 51.656 0.16 7.04 5.12 10.37
5/10/2021 8:00:00 AM 10.93 51.674 0.16 7.04 5.03 10.46
5/10/2021 8:15:00 AM 10.95 51.71 0.16 7.05 4.45 10.55
5/10/2021 8:30:00 AM 10.97 51.746 0.16 7.06 5.15 10.64
5/10/2021 8:45:00 AM 11 51.8 0.16 7.05 5.95 10.72
5/10/2021 9:00:00 AM 11.02 51.836 0.16 7.06 5.55 10.78
5/10/2021 9:15:00 AM 11.05 51.89 0.159 7.06 6.38 10.84
5/10/2021 9:30:00 AM 11.07 51.926 0.159 7.07 7.32 10.9
5/10/2021 9:45:00 AM 11.12 52.016 0.159 7.07 5.68 10.96
5/10/2021 10:00:00 AM 11.17 52.106 0.159 7.07 5.95 11
5/10/2021 10:15:00 AM 11.27 52.286 0.159 7.08 8.72 11.05
5/10/2021 10:30:00 AM 11.42 52.556 0.159 7.08 6.11 11.11
5/10/2021 10:45:00 AM 11.52 52.736 0.159 7.09 5.82 11.15
5/10/2021 11:00:00 AM 11.61 52.898 0.159 7.09 5.81 11.18
5/10/2021 11:15:00 AM 11.73 53.114 0.159 7.1 5.6 11.17
5/10/2021 11:30:00 AM 11.92 53.456 0.158 7.1 5.45 11.22
5/10/2021 11:45:00 AM 12.13 53.834 0.158 7.11 5.1 11.23
5/10/2021 12:00:00 PM 12.36 54.248 0.158 7.11 5.67 11.22
5/10/2021 12:15:00 PM 12.55 54.59 0.158 7.11 6.25 11.23
5/10/2021 12:30:00 PM 12.81 55.058 0.158 7.11 6.34 11.24
5/10/2021 12:45:00 PM 13.08 55.544 0.158 7.1 5.24 11.22
5/10/2021 1:00:00 PM 13.37 56.066 0.158 7.1 5.2 11.21
5/10/2021 1:15:00 PM 13.81 56.858 0.158 7.1 5.62 11.14
5/10/2021 1:30:00 PM 14.22 57.596 0.158 7.09 4.98 11.13
5/10/2021 1:45:00 PM 14.63 58.334 0.158 7.1 8.96 11.09
5/10/2021 2:00:00 PM 15 59 0.158 7.1 8.86 10.99
5/10/2021 2:15:00 PM 15.31 59.558 0.158 7.09 6.95 10.89
5/10/2021 2:30:00 PM 15.69 60.242 0.158 7.09 6.55 10.83
5/10/2021 2:45:00 PM 16.1 60.98 0.158 7.09 5.53 10.8
5/10/2021 3:00:00 PM 16.44 61.592 0.158 7.09 5.14 10.74
5/10/2021 3:15:00 PM 16.61 61.898 0.158 7.09 5.18 10.7
5/10/2021 3:30:00 PM 16.59 61.862 0.159 7.08 7.81 10.64
5/10/2021 3:45:00 PM 16.57 61.826 0.159 7.08 5.36 10.57
5/10/2021 4:00:00 PM 16.6 61.88 0.159 7.09 5.13 10.51
5/10/2021 4:15:00 PM 16.55 61.79 0.159 7.1 5.55 10.46
5/10/2021 4:30:00 PM 16.58 61.844 0.159 7.09 5.8 10.35
5/10/2021 4:45:00 PM 16.64 61.952 0.159 7.1 5.56 10.32
5/10/2021 5:00:00 PM 16.66 61.988 0.159 7.1 4.87 10.31
5/10/2021 5:15:00 PM 16.59 61.862 0.16 7.09 6.32 10.27
5/10/2021 5:30:00 PM 16.49 61.682 0.16 7.1 5.53 10.27
5/10/2021 5:45:00 PM 16.4 61.52 0.16 7.1 5.22 10.17
5/10/2021 6:00:00 PM 16.24 61.232 0.16 7.1 5.19 10.06
5/10/2021 6:15:00 PM 16.11 60.998 0.16 7.1 5.47 10.01
5/10/2021 6:30:00 PM 15.93 60.674 0.16 7.1 6.09 9.9
5/10/2021 6:45:00 PM 15.76 60.368 0.16 7.09 6.38 9.88
5/10/2021 7:00:00 PM 15.63 60.134 0.16 7.09 5.62 9.82
5/10/2021 7:15:00 PM 15.48 59.864 0.16 7.09 6.09 9.76
5/10/2021 7:30:00 PM 15.36 59.648 0.16 7.09 7.13 9.73
5/10/2021 7:45:00 PM 15.23 59.414 0.16 7.08 8.15 9.67
5/10/2021 8:00:00 PM 15.07 59.126 0.16 7.07 5.89 9.63
5/10/2021 8:15:00 PM 14.95 58.91 0.16 7.06 5.55 9.57
5/10/2021 8:30:00 PM 14.81 58.658 0.16 7.07 6.34 9.57
5/10/2021 8:45:00 PM 14.68 58.424 0.161 7.06 6.75 9.53
5/10/2021 9:00:00 PM 14.56 58.208 0.161 7.06 7.54 9.48
5/10/2021 9:15:00 PM 14.46 58.028 0.16 7.05 7.24 9.44
5/10/2021 9:30:00 PM 14.34 57.812 0.16 7.06 6.92 9.44
5/10/2021 9:45:00 PM 14.26 57.668 0.16 7.05 7.74 9.41
5/10/2021 10:00:00 PM 14.14 57.452 0.16 7.06 6.72 9.42
5/10/2021 10:15:00 PM 14.05 57.29 0.161 7.05 9.14 9.42
5/10/2021 10:30:00 PM 13.9 57.02 0.16 7.05 6.85 9.44
5/10/2021 10:45:00 PM 13.81 56.858 0.16 7.05 5.77 9.43
5/10/2021 11:00:00 PM 13.7 56.66 0.16 7.05 6.23 9.43
5/10/2021 11:15:00 PM 13.6 56.48 0.16 7.05 6.42 9.46
5/10/2021 11:30:00 PM 13.49 56.282 0.161 7.04 7.31 9.46
5/10/2021 11:45:00 PM 13.38 56.084 0.161 7.04 7.16 9.49
5/11/2021 12:00:00 AM 13.26 55.868 0.161 7.03 6.82 9.52
5/11/2021 12:15:00 AM 13.17 55.706 0.161 7.03 6.47 9.53
5/11/2021 12:30:00 AM 13.07 55.526 0.161 7.03 7.06 9.54
5/11/2021 12:45:00 AM 12.94 55.292 0.161 7.02 6.57 9.58
5/11/2021 1:00:00 AM 12.84 55.112 0.161 7.02 5.63 9.61
5/11/2021 1:15:00 AM 12.75 54.95 0.161 7.03 6.57 9.64
5/11/2021 1:30:00 AM 12.7 54.86 0.161 7.03 6.93 9.65
5/11/2021 1:45:00 AM 12.62 54.716 0.161 7.03 6.34 9.66
5/11/2021 2:00:00 AM 12.56 54.608 0.161 7.03 6.82 9.67
5/11/2021 2:15:00 AM 12.5 54.5 0.161 7.02 5.74 9.7
5/11/2021 2:30:00 AM 12.41 54.338 0.161 7.02 7.51 9.72
5/11/2021 2:45:00 AM 12.35 54.23 0.161 7.02 5.49 9.75
5/11/2021 3:00:00 AM 12.32 54.176 0.161 7.02 6.82 9.75
5/11/2021 3:15:00 AM 12.27 54.086 0.161 7.01 6.5 9.78
5/11/2021 3:30:00 AM 12.23 54.014 0.161 7.01 5.85 9.79
5/11/2021 3:45:00 AM 12.19 53.942 0.161 7.01 5.85 9.8
5/11/2021 4:00:00 AM 12.13 53.834 0.161 7 7.84 9.82
5/11/2021 4:15:00 AM 12.1 53.78 0.161 7 6.44 9.81
5/11/2021 4:30:00 AM 12.07 53.726 0.161 7 8.87 9.83
5/11/2021 4:45:00 AM 12.01 53.618 0.161 7.01 5.96 9.87
5/11/2021 5:00:00 AM 11.99 53.582 0.161 7.01 6.58 9.87
5/11/2021 5:15:00 AM 11.95 53.51 0.161 7 5.6 9.88
5/11/2021 5:30:00 AM 11.92 53.456 0.161 7 6.2 9.88
5/11/2021 5:45:00 AM 11.86 53.348 0.161 7 7.6 9.82
5/11/2021 6:00:00 AM 11.82 53.276 0.161 7 8.53 9.83
5/11/2021 6:15:00 AM 11.78 53.204 0.161 7 7.38 9.86
5/11/2021 6:30:00 AM 11.74 53.132 0.161 7 7.37 9.88
5/11/2021 6:45:00 AM 11.71 53.078 0.161 7 10.08 9.92
5/11/2021 7:00:00 AM 11.67 53.006 0.161 7.01 6.22 9.94
5/11/2021 7:15:00 AM 11.63 52.934 0.161 7.01 6.3 9.99
5/11/2021 7:30:00 AM 11.59 52.862 0.161 7.02 5.35 10.08
5/11/2021 7:45:00 AM 11.56 52.808 0.161 7.02 5.84 10.14
5/11/2021 8:00:00 AM 11.53 52.754 0.161 7.02 6.89 10.16
5/11/2021 8:15:00 AM 11.5 52.7 0.161 7.02 6.02 10.21
5/11/2021 8:30:00 AM 11.49 52.682 0.161 7.02 5.44 10.25
5/11/2021 8:45:00 AM 11.49 52.682 0.161 7.03 57.68 10.35
5/11/2021 9:00:00 AM 11.52 52.736 0.161 7.03 5.69 10.39
5/11/2021 9:15:00 AM 11.54 52.772 0.16 7.04 5.02 10.48
5/11/2021 9:30:00 AM 11.58 52.844 0.16 7.04 5.96 10.54
5/11/2021 9:45:00 AM 11.63 52.934 0.16 7.05 6.89 10.63
5/11/2021 10:00:00 AM 11.71 53.078 0.16 7.05 6.53 10.67
5/11/2021 10:15:00 AM 11.82 53.276 0.16 7.06 4.71 10.77
5/11/2021 10:30:00 AM 11.97 53.546 0.16 7.06 5.25 10.83
5/11/2021 10:45:00 AM 12.15 53.87 0.16 7.08 5.4 10.89
5/11/2021 11:00:00 AM 12.38 54.284 0.159 7.07 6.18 10.95
5/11/2021 11:15:00 AM 12.63 54.734 0.159 7.08 5.29 11
5/11/2021 11:30:00 AM 12.91 55.238 0.159 7.07 5.23 11.05
5/11/2021 11:45:00 AM 13.17 55.706 0.159 7.08 5.25 11.08
5/11/2021 12:00:00 PM 13.55 56.39 0.159 7.09 5.4 11.05
5/11/2021 12:15:00 PM 13.82 56.876 0.159 7.09 5.28 11.07
5/11/2021 12:30:00 PM 14.15 57.47 0.159 7.09 5.08 11.08
5/11/2021 12:45:00 PM 14.44 57.992 0.159 7.08 5.06 10.97
5/11/2021 1:00:00 PM 14.7 58.46 0.159 7.09 4.74 10.93
5/11/2021 1:15:00 PM 14.88 58.784 0.159 7.1 6.43 10.84
5/11/2021 1:30:00 PM 15.01 59.018 0.159 7.11 5.21 10.78
5/11/2021 1:45:00 PM 15.09 59.162 0.159 7.11 5.11 10.71
5/11/2021 2:00:00 PM 15.16 59.288 0.159 7.11 9.33 10.62
5/11/2021 2:15:00 PM 15.28 59.504 0.159 7.11 4.45 10.57
5/11/2021 2:30:00 PM 15.35 59.63 0.159 7.1 10.97 10.53
5/11/2021 2:45:00 PM 15.4 59.72 0.159 7.11 6.72 10.5
5/11/2021 3:00:00 PM 15.4 59.72 0.16 7.12 4.72 10.49
5/11/2021 3:15:00 PM 15.33 59.594 0.16 7.12 4.72 10.45
5/11/2021 3:30:00 PM 15.26 59.468 0.16 7.12 4.87 10.38
5/11/2021 3:45:00 PM 15.17 59.306 0.16 7.12 4.69 10.31
5/11/2021 4:00:00 PM 15.12 59.216 0.16 7.12 6.23 10.3
5/11/2021 4:15:00 PM 15.1 59.18 0.16 7.11 5.49 10.36
5/11/2021 4:30:00 PM 15.14 59.252 0.16 7.11 6.01 10.45
5/11/2021 4:45:00 PM 15.15 59.27 0.16 7.11 5.62 10.48
5/11/2021 5:00:00 PM 15.15 59.27 0.16 7.1 6.42 10.57
5/11/2021 5:15:00 PM 15.12 59.216 0.16 7.1 4.84 10.59
5/11/2021 5:30:00 PM 15.13 59.234 0.16 7.11 4.43 10.56
5/11/2021 5:45:00 PM 15.04 59.072 0.16 7.12 7.81 10.52
5/11/2021 6:00:00 PM 14.93 58.874 0.161 7.11 5.03 10.42
5/11/2021 6:15:00 PM 14.79 58.622 0.161 7.11 4.74 10.39
5/11/2021 6:30:00 PM 14.68 58.424 0.161 7.11 6.55 10.3
5/11/2021 6:45:00 PM 14.57 58.226 0.161 7.12 4.39 10.27
5/11/2021 7:00:00 PM 14.48 58.064 0.161 7.12 4.46 10.22
5/11/2021 7:15:00 PM 14.39 57.902 0.161 7.12 6.53 10.2
5/11/2021 7:30:00 PM 14.31 57.758 0.161 7.12 4.81 10.16
5/11/2021 7:45:00 PM 14.21 57.578 0.161 7.12 4.74 10.11
5/11/2021 8:00:00 PM 14.09 57.362 0.161 7.12 6.63 10.05
5/11/2021 8:15:00 PM 14 57.2 0.161 7.11 4.84 9.96
5/11/2021 8:30:00 PM 13.88 56.984 0.161 7.12 3.96 9.96
5/11/2021 8:45:00 PM 13.76 56.768 0.161 7.11 4.28 9.89
5/11/2021 9:00:00 PM 13.66 56.588 0.161 7.1 5.17 9.84
5/11/2021 9:15:00 PM 13.56 56.408 0.161 7.11 6.55 9.81
5/11/2021 9:30:00 PM 13.47 56.246 0.161 7.1 7.96 9.78
5/11/2021 9:45:00 PM 13.36 56.048 0.161 7.09 4.76 9.74
5/11/2021 10:00:00 PM 13.28 55.904 0.161 7.09 5.39 9.75
5/11/2021 10:15:00 PM 13.2 55.76 0.162 7.08 5.35 9.73
5/11/2021 10:30:00 PM 13.11 55.598 0.161 7.08 5.57 9.71
5/11/2021 10:45:00 PM 13.02 55.436 0.161 7.08 5.43 9.73
5/11/2021 11:00:00 PM 12.96 55.328 0.161 7.08 6.37 9.71
5/11/2021 11:15:00 PM 12.88 55.184 0.161 7.07 5.95 9.72
5/11/2021 11:30:00 PM 12.8 55.04 0.161 7.07 9.01 9.72
5/11/2021 11:45:00 PM 12.71 54.878 0.162 7.06 7.8 9.74
5/12/2021 12:00:00 AM 12.63 54.734 0.162 7.05 6.06 9.76
5/12/2021 12:15:00 AM 12.54 54.572 0.162 7.05 6.07 9.76
5/12/2021 12:30:00 AM 12.47 54.446 0.162 7.04 7.77 9.78
5/12/2021 12:45:00 AM 12.38 54.284 0.162 7.04 6.96 9.79
5/12/2021 1:00:00 AM 12.3 54.14 0.162 7.04 6.44 9.81
5/12/2021 1:15:00 AM 12.22 53.996 0.162 7.03 6.19 9.83
5/12/2021 1:30:00 AM 12.12 53.816 0.162 7.03 5.53 9.85
5/12/2021 1:45:00 AM 12.04 53.672 0.162 7.03 6.38 9.86
5/12/2021 2:00:00 AM 11.97 53.546 0.162 7.03 5.88 9.88
5/12/2021 2:15:00 AM 11.89 53.402 0.162 7.03 8.85 9.92
5/12/2021 2:30:00 AM 11.82 53.276 0.162 7.03 6.02 9.92
5/12/2021 2:45:00 AM 11.71 53.078 0.162 7.03 7.05 9.98
5/12/2021 3:00:00 AM 11.64 52.952 0.162 7.03 6.07 9.99
5/12/2021 3:15:00 AM 11.55 52.79 0.162 7.03 5.83 10.01
5/12/2021 3:30:00 AM 11.46 52.628 0.161 7.03 6.68 10.04
5/12/2021 3:45:00 AM 11.39 52.502 0.161 7.02 8.08 10.07
5/12/2021 4:00:00 AM 11.3 52.34 0.161 7.02 6.04 10.09
5/12/2021 4:15:00 AM 11.22 52.196 0.161 7.01 6.9 10.11
5/12/2021 4:30:00 AM 11.15 52.07 0.161 7.01 7.31 10.12
5/12/2021 4:45:00 AM 11.07 51.926 0.161 7.01 6.06 10.14
5/12/2021 5:00:00 AM 11.01 51.818 0.161 7 8.29 10.19
5/12/2021 5:15:00 AM 10.94 51.692 0.161 7.01 6.23 10.19
5/12/2021 5:30:00 AM 10.87 51.566 0.161 7 8.54 10.21
5/12/2021 5:45:00 AM 10.83 51.494 0.161 7 7.46 10.24
5/12/2021 6:00:00 AM 10.78 51.404 0.161 7.01 7.44 10.19
5/12/2021 6:15:00 AM 10.73 51.314 0.162 7.01 7.48 10.23
5/12/2021 6:30:00 AM 10.68 51.224 0.162 7.01 9.45 10.24
5/12/2021 6:45:00 AM 10.64 51.152 0.162 7.02 7.53 10.28
5/12/2021 7:00:00 AM 10.6 51.08 0.161 7.01 7.22 10.32
5/12/2021 7:15:00 AM 10.58 51.044 0.161 7.01 11.57 10.38
5/12/2021 7:30:00 AM 10.56 51.008 0.161 7.02 8.97 10.46
5/12/2021 7:45:00 AM 10.55 50.99 0.161 7.03 9.8 10.56
5/12/2021 8:00:00 AM 10.55 50.99 0.161 7.03 11.17 10.62
5/12/2021 8:15:00 AM 10.56 51.008 0.161 7.03 8.05 10.74
5/12/2021 8:30:00 AM 10.57 51.026 0.161 7.03 10.8 10.84
5/12/2021 8:45:00 AM 10.59 51.062 0.161 7.04 7.63 10.93
5/12/2021 9:00:00 AM 10.58 51.044 0.161 7.05 7.23 10.94
5/12/2021 9:15:00 AM 10.6 51.08 0.161 7.05 7.21 10.99
5/12/2021 9:30:00 AM 10.61 51.098 0.16 7.05 6.87 11.02
5/12/2021 9:45:00 AM 10.65 51.17 0.16 7.05 6.62 11.1
5/12/2021 10:00:00 AM 10.72 51.296 0.16 7.06 7.01 11.13
5/12/2021 10:15:00 AM 10.8 51.44 0.16 7.06 8.81 11.17
5/12/2021 10:30:00 AM 10.93 51.674 0.16 7.06 7.12 11.22
5/12/2021 10:45:00 AM 11.11 51.998 0.159 7.07 6.9 11.24
5/12/2021 11:00:00 AM 11.31 52.358 0.159 7.06 7.22 11.3
5/12/2021 11:15:00 AM 11.55 52.79 0.159 7.06 7.08 11.3
5/12/2021 11:30:00 AM 11.79 53.222 0.159 7.07 6.88 11.32
5/12/2021 11:45:00 AM 12.11 53.798 0.159 7.07 7.97 11.32
5/12/2021 12:00:00 PM 12.42 54.356 0.159 7.07 6.02 11.27
5/12/2021 12:15:00 PM 12.79 55.022 0.159 7.07 6.66 11.27
5/12/2021 12:30:00 PM 13.16 55.688 0.159 7.06 7.31 11.28
5/12/2021 12:45:00 PM 13.62 56.516 0.158 7.06 8.24 11.27
5/12/2021 1:00:00 PM 14.05 57.29 0.158 7.06 9.59 11.2
5/12/2021 1:15:00 PM 14.52 58.136 0.158 7.06 5.99 11.14
5/12/2021 1:30:00 PM 14.97 58.946 0.159 7.05 7.8 11.08
5/12/2021 1:45:00 PM 15.45 59.81 0.158 7.04 6.05 11.05
5/12/2021 2:00:00 PM 15.89 60.602 0.159 7.04 6.97 10.85
5/12/2021 2:15:00 PM 16.36 61.448 0.159 7.05 10.75 10.91
5/12/2021 2:30:00 PM 16.83 62.294 0.159 7.05 8.78 10.83
5/12/2021 2:45:00 PM 17.08 62.744 0.159 7.05 6.48 10.76
5/12/2021 3:00:00 PM 17.34 63.212 0.159 7.05 14.42 10.67
5/12/2021 3:15:00 PM 17.4 63.32 0.16 7.05 9.79 10.6
5/12/2021 3:30:00 PM 17.47 63.446 0.16 7.03 10.21 10.48
5/12/2021 3:45:00 PM 17.55 63.59 0.16 7.02 15.04 10.42
5/12/2021 4:00:00 PM 17.43 63.374 0.161 7 6.32 10.27
5/12/2021 4:15:00 PM 17.32 63.176 0.162 6.98 7.97 10.18
5/12/2021 4:30:00 PM 17.28 63.104 0.162 7 11.67 10
5/12/2021 4:45:00 PM 17.27 63.086 0.162 6.98 7.12 10.07
5/12/2021 5:00:00 PM 17.25 63.05 0.162 6.97 6.59 10.02
5/12/2021 5:15:00 PM 17.18 62.924 0.162 6.96 7.23 10.11
5/12/2021 5:30:00 PM 17.01 62.618 0.163 6.97 13.26 10.05
5/12/2021 5:45:00 PM 16.91 62.438 0.162 6.98 9.14 9.99
5/12/2021 6:00:00 PM 16.82 62.276 0.162 6.98 7.1 9.86
5/12/2021 6:15:00 PM 16.71 62.078 0.162 6.96 9.41 9.87
5/12/2021 6:30:00 PM 16.55 61.79 0.163 6.97 5.01 9.9
5/12/2021 6:45:00 PM 16.38 61.484 0.163 6.97 4.2 9.81
5/12/2021 7:00:00 PM 16.2 61.16 0.163 6.98 4.3 9.67
5/12/2021 7:15:00 PM 16.03 60.854 0.163 6.98 9.75 9.6
5/12/2021 7:30:00 PM 15.86 60.548 0.163 6.98 7.33 9.46
5/12/2021 7:45:00 PM 15.7 60.26 0.163 6.99 9.83 9.48
5/12/2021 8:00:00 PM 15.57 60.026 0.163 6.99 3.68 9.39
5/12/2021 8:15:00 PM 15.43 59.774 0.162 7 8.55 9.48
5/12/2021 8:30:00 PM 15.28 59.504 0.162 7 4.93 9.46
5/12/2021 8:45:00 PM 15.13 59.234 0.162 7.01 4.18 9.44
5/12/2021 9:00:00 PM 14.99 58.982 0.163 7.01 4.94 9.4
5/12/2021 9:15:00 PM 14.86 58.748 0.163 7.02 5.75 9.36
5/12/2021 9:30:00 PM 14.71 58.478 0.163 7.02 4.65 9.35
5/12/2021 9:45:00 PM 14.58 58.244 0.163 7.02 6.35 9.33
5/12/2021 10:00:00 PM 14.45 58.01 0.162 7.03 7.77 9.33
5/12/2021 10:15:00 PM 14.33 57.794 0.162 7.02 5.93 9.33
5/12/2021 10:30:00 PM 14.21 57.578 0.162 7.02 6.32 9.35
5/12/2021 10:45:00 PM 14.08 57.344 0.162 7.02 6.01 9.36
5/12/2021 11:00:00 PM 13.97 57.146 0.162 7.02 5.24 9.35
5/12/2021 11:15:00 PM 13.86 56.948 0.162 7.01 5.91 9.36
5/12/2021 11:30:00 PM 13.73 56.714 0.162 7.01 6.9 9.38
5/12/2021 11:45:00 PM 13.61 56.498 0.162 7.01 6.57 9.42
5/13/2021 12:00:00 AM 13.51 56.318 0.162 7.01 9.65 9.41
5/13/2021 12:15:00 AM 13.38 56.084 0.163 7.01 7.2 9.45
5/13/2021 12:30:00 AM 13.26 55.868 0.163 7.01 6.5 9.47
5/13/2021 12:45:00 AM 13.16 55.688 0.163 7.01 8.91 9.5
5/13/2021 1:00:00 AM 13.02 55.436 0.163 7 6.71 9.52
5/13/2021 1:15:00 AM 12.89 55.202 0.163 7.01 6.92 9.57
5/13/2021 1:30:00 AM 12.81 55.058 0.162 7.01 6.19 9.58
5/13/2021 1:45:00 AM 12.7 54.86 0.163 7 6.28 9.62
5/13/2021 2:00:00 AM 12.59 54.662 0.163 7 7.57 9.63
5/13/2021 2:15:00 AM 12.48 54.464 0.162 7 7.88 9.7
5/13/2021 2:30:00 AM 12.39 54.302 0.162 6.99 7.86 9.71
5/13/2021 2:45:00 AM 12.31 54.158 0.162 7 6.93 9.7
5/13/2021 3:00:00 AM 12.19 53.942 0.162 7 7.1 9.77
5/13/2021 3:15:00 AM 12.12 53.816 0.162 6.99 10.54 9.77
5/13/2021 3:30:00 AM 12.04 53.672 0.162 6.99 8.39 9.79
5/13/2021 3:45:00 AM 11.97 53.546 0.162 6.99 8.95 9.83
5/13/2021 4:00:00 AM 11.88 53.384 0.162 6.98 7.73 9.85
5/13/2021 4:15:00 AM 11.8 53.24 0.161 6.98 8.19 9.88
5/13/2021 4:30:00 AM 11.7 53.06 0.161 6.99 7.52 9.92
5/13/2021 4:45:00 AM 11.64 52.952 0.161 6.98 6.96 9.92
5/13/2021 5:00:00 AM 11.57 52.826 0.161 6.99 7.98 9.94
5/13/2021 5:15:00 AM 11.5 52.7 0.161 6.98 7.8 9.97
5/13/2021 5:30:00 AM 11.41 52.538 0.161 6.99 7.92 9.99
5/13/2021 5:45:00 AM 11.32 52.376 0.161 6.99 7.51 10
5/13/2021 6:00:00 AM 11.25 52.25 0.161 6.98 9.66 9.98
5/13/2021 6:15:00 AM 11.17 52.106 0.162 6.97 7.86 9.96
5/13/2021 6:30:00 AM 11.1 51.98 0.161 6.97 7.16 10.04
5/13/2021 6:45:00 AM 11.01 51.818 0.161 6.96 7.72 10.09
5/13/2021 7:00:00 AM 10.96 51.728 0.162 6.95 7.99 10.14
5/13/2021 7:15:00 AM 10.89 51.602 0.162 6.94 8.93 10.16
5/13/2021 7:30:00 AM 10.81 51.458 0.162 6.94 7.71 10.24
5/13/2021 7:45:00 AM 10.75 51.35 0.161 6.93 7.67 10.25
5/13/2021 8:00:00 AM 10.71 51.278 0.161 6.93 7.06 10.35
5/13/2021 8:15:00 AM 10.68 51.224 0.161 6.92 7.11 10.41
5/13/2021 8:30:00 AM 10.66 51.188 0.161 6.92 7.77 10.5
5/13/2021 8:45:00 AM 10.67 51.206 0.161 6.93 7.04 10.56
5/13/2021 9:00:00 AM 10.7 51.26 0.161 6.94 7.65 10.65
5/13/2021 9:15:00 AM 10.74 51.332 0.161 6.95 11.6 10.71
5/13/2021 9:30:00 AM 10.79 51.422 0.161 6.95 8.02 10.77
5/13/2021 9:45:00 AM 10.87 51.566 0.161 6.95 6.65 10.82
5/13/2021 10:00:00 AM 10.96 51.728 0.161 6.96 8.74 10.91
5/13/2021 10:15:00 AM 11.07 51.926 0.16 6.97 7.42 11.01
5/13/2021 10:30:00 AM 11.25 52.25 0.16 6.98 8.32 11.05
5/13/2021 10:45:00 AM 11.46 52.628 0.16 6.99 7.45 11.12
5/13/2021 11:00:00 AM 11.71 53.078 0.16 6.99 8.42 11.17
5/13/2021 11:15:00 AM 11.96 53.528 0.16 7.01 8 11.2
5/13/2021 11:30:00 AM 12.26 54.068 0.159 7.01 6.63 11.22
5/13/2021 11:45:00 AM 12.59 54.662 0.159 7.02 8.06 11.2
5/13/2021 12:00:00 PM 12.94 55.292 0.16 7.01 6.56 11.25
5/13/2021 12:15:00 PM 13.35 56.03 0.159 7.01 8.44 11.23
5/13/2021 12:30:00 PM 13.72 56.696 0.159 7 7.72 11.19
5/13/2021 12:45:00 PM 14.16 57.488 0.159 7 7.95 11.16
5/13/2021 1:00:00 PM 14.5 58.1 0.159 6.98 7.45 11.12
5/13/2021 1:15:00 PM 14.94 58.892 0.159 6.98 7.73 11.03
5/13/2021 1:30:00 PM 15.41 59.738 0.159 6.97 17.66 10.99
5/13/2021 1:45:00 PM 15.89 60.602 0.159 6.98 8.07 10.97
5/13/2021 2:00:00 PM 16.32 61.376 0.16 7 20.98 10.93
5/13/2021 2:15:00 PM 16.57 61.826 0.159 6.98 8.65 10.8
5/13/2021 2:30:00 PM 16.86 62.348 0.159 6.99 8.7 10.73
5/13/2021 2:45:00 PM 17.16 62.888 0.159 6.97 8.99 10.62
5/13/2021 3:00:00 PM 17.37 63.266 0.16 6.98 21.1 10.56
5/13/2021 3:15:00 PM 17.55 63.59 0.16 7.01 9.07 10.55
5/13/2021 3:30:00 PM 17.69 63.842 0.16 7 25.28 10.55
5/13/2021 3:45:00 PM 17.58 63.644 0.16 7.01 9.95 10.45
5/13/2021 4:00:00 PM 17.69 63.842 0.16 6.99 8.24 10.38
5/13/2021 4:15:00 PM 17.74 63.932 0.16 6.99 10.68 10.34
5/13/2021 4:30:00 PM 17.66 63.788 0.161 7 9.89 10.28
5/13/2021 4:45:00 PM 17.61 63.698 0.161 6.98 7.86 10.21
5/13/2021 5:00:00 PM 17.51 63.518 0.161 6.98 8.06 10.23
5/13/2021 5:15:00 PM 17.4 63.32 0.161 6.97 10.91 10.18
5/13/2021 5:30:00 PM 17.25 63.05 0.161 6.96 8.65 10.15
5/13/2021 5:45:00 PM 17.05 62.69 0.161 6.96 10.36 10.08
5/13/2021 6:00:00 PM 16.87 62.366 0.161 6.97 9.86 10.02
5/13/2021 6:15:00 PM 16.68 62.024 0.161 6.98 8.64 9.91
5/13/2021 6:30:00 PM 16.55 61.79 0.161 7.01 9.62 9.97
5/13/2021 6:45:00 PM 16.43 61.574 0.161 7 9.06 9.95
5/13/2021 7:00:00 PM 16.25 61.25 0.162 7.03 9.92 9.92
5/13/2021 7:15:00 PM 16.12 61.016 0.162 7.04 9.31 9.86
5/13/2021 7:30:00 PM 15.96 60.728 0.162 7.04 12.51 9.78
5/13/2021 7:45:00 PM 15.83 60.494 0.162 7.05 9.73 9.66
5/13/2021 8:00:00 PM 15.67 60.206 0.162 7.07 9.38 9.64
5/13/2021 8:15:00 PM 15.51 59.918 0.162 7.08 10.25 9.59
5/13/2021 8:30:00 PM 15.36 59.648 0.162 7.08 9.46 9.54
5/13/2021 8:45:00 PM 15.21 59.378 0.162 7.08 9.86 9.47
5/13/2021 9:00:00 PM 15.05 59.09 0.162 7.09 7.45 9.46
5/13/2021 9:15:00 PM 14.9 58.82 0.162 7.09 9.97 9.43
5/13/2021 9:30:00 PM 14.77 58.586 0.162 7.08 10.29 9.39
5/13/2021 9:45:00 PM 14.62 58.316 0.162 7.09 9.99 9.39
5/13/2021 10:00:00 PM 14.5 58.1 0.162 7.1 10.39 9.37
5/13/2021 10:15:00 PM 14.4 57.92 0.162 7.1 11.75 9.38
5/13/2021 10:30:00 PM 14.28 57.704 0.162 7.11 10.18 9.38
5/13/2021 10:45:00 PM 14.19 57.542 0.162 7.11 9.9 9.37
5/13/2021 11:00:00 PM 14.08 57.344 0.162 7.12 11.35 9.4
5/13/2021 11:15:00 PM 14 57.2 0.162 7.12 10.37 9.39
5/13/2021 11:30:00 PM 13.87 56.966 0.162 7.12 10.93 9.42
5/13/2021 11:45:00 PM 13.74 56.732 0.162 7.13 11.56 9.43
5/14/2021 12:00:00 AM 13.65 56.57 0.162 7.13 12.03 9.46
5/14/2021 12:15:00 AM 13.55 56.39 0.162 7.13 11.13 9.48
5/14/2021 12:30:00 AM 13.42 56.156 0.162 7.11 10.31 9.5
5/14/2021 12:45:00 AM 13.34 56.012 0.162 7.13 13.46 9.5
5/14/2021 1:00:00 AM 13.21 55.778 0.162 7.13 11.48 9.55
5/14/2021 1:15:00 AM 13.1 55.58 0.162 7.13 11.59 9.59
5/14/2021 1:30:00 AM 12.99 55.382 0.162 7.11 12.98 9.59
5/14/2021 1:45:00 AM 12.91 55.238 0.162 7.11 9.36 9.61
5/14/2021 2:00:00 AM 12.81 55.058 0.162 7.11 12.51 9.64
5/14/2021 2:15:00 AM 12.73 54.914 0.162 7.1 12.11 9.66
5/14/2021 2:30:00 AM 12.66 54.788 0.162 7.11 12.19 9.69
5/14/2021 2:45:00 AM 12.56 54.608 0.162 7.11 11.93 9.71
5/14/2021 3:00:00 AM 12.49 54.482 0.162 7.12 10.35 9.73
5/14/2021 3:15:00 AM 12.41 54.338 0.162 7.12 11.82 9.76
5/14/2021 3:30:00 AM 12.35 54.23 0.162 7.12 12.09 9.76
5/14/2021 3:45:00 AM 12.24 54.032 0.162 7.13 12.81 9.81
5/14/2021 4:00:00 AM 12.19 53.942 0.162 7.12 11.32 9.8
5/14/2021 4:15:00 AM 12.11 53.798 0.162 7.13 13.78 9.83
5/14/2021 4:30:00 AM 12.04 53.672 0.162 7.13 10.91 9.85
5/14/2021 4:45:00 AM 11.98 53.564 0.162 7.13 10.38 9.88
5/14/2021 5:00:00 AM 11.89 53.402 0.162 7.13 9.32 9.89
5/14/2021 5:15:00 AM 11.83 53.294 0.162 7.13 11.53 9.92
5/14/2021 5:30:00 AM 11.75 53.15 0.162 7.13 13.39 9.94
5/14/2021 5:45:00 AM 11.67 53.006 0.162 7.13 12.43 9.98
5/14/2021 6:00:00 AM 11.61 52.898 0.162 7.13 10.55 9.93
5/14/2021 6:15:00 AM 11.53 52.754 0.162 7.12 12.08 9.95
5/14/2021 6:30:00 AM 11.46 52.628 0.162 7.13 13.98 10.04
5/14/2021 6:45:00 AM 11.39 52.502 0.162 7.13 12.12 10.07
5/14/2021 7:00:00 AM 11.34 52.412 0.162 7.13 13.56 10.08
5/14/2021 7:15:00 AM 11.28 52.304 0.162 7.13 14.31 10.14
5/14/2021 7:30:00 AM 11.23 52.214 0.162 7.13 11.97 10.17
5/14/2021 7:45:00 AM 11.2 52.16 0.162 7.13 14.4 10.24
5/14/2021 8:00:00 AM 11.17 52.106 0.162 7.12 10.18 10.29
5/14/2021 8:15:00 AM 11.16 52.088 0.162 7.1 31.32 10.28
5/14/2021 8:30:00 AM 11.15 52.07 0.162 7.13 13.5 10.34
5/14/2021 8:45:00 AM 11.17 52.106 0.162 7.13 11.76 10.45
5/14/2021 9:00:00 AM 11.21 52.178 0.161 7.13 14.33 10.53
5/14/2021 9:15:00 AM 11.27 52.286 0.161 7.12 12.18 10.61
5/14/2021 9:30:00 AM 11.35 52.43 0.161 7.12 11.9 10.65
5/14/2021 9:45:00 AM 11.44 52.592 0.161 7.11 13.35 10.75
5/14/2021 10:00:00 AM 11.58 52.844 0.161 7.12 12 10.8
5/14/2021 10:15:00 AM 11.73 53.114 0.161 7.12 12.81 10.85
5/14/2021 10:30:00 AM 11.9 53.42 0.16 7.12 12.26 10.9
5/14/2021 10:45:00 AM 12.14 53.852 0.16 7.11 11.47 10.97
5/14/2021 11:00:00 AM 12.4 54.32 0.16 7.12 12.25 11.06
5/14/2021 11:15:00 AM 12.65 54.77 0.16 7.12 14.19 11.08
5/14/2021 11:30:00 AM 12.96 55.328 0.16 7.12 20.69 11.11
5/14/2021 11:45:00 AM 13.24 55.832 0.16 7.13 14.47 11.08
5/14/2021 12:00:00 PM 13.68 56.624 0.16 7.14 15.39 11.16
5/14/2021 12:15:00 PM 14.11 57.398 0.16 7.15 14.86 11.13
5/14/2021 12:30:00 PM 14.49 58.082 0.16 7.14 13.36 11.09
5/14/2021 12:45:00 PM 14.95 58.91 0.16 7.14 13.09 11.11
5/14/2021 1:00:00 PM 15.37 59.666 0.16 7.14 15.28 11.07
5/14/2021 1:15:00 PM 15.85 60.53 0.16 7.13 15.87 11.04
5/14/2021 1:30:00 PM 16.38 61.484 0.16 7.16 11.5 10.99
5/14/2021 1:45:00 PM 16.9 62.42 0.16 7.16 15.53 10.92
5/14/2021 2:00:00 PM 17.38 63.284 0.16 7.18 17.58 10.86
5/14/2021 2:15:00 PM 17.77 63.986 0.16 7.17 19.68 10.76
5/14/2021 2:30:00 PM 18.14 64.652 0.16 7.12 12.12 10.59
5/14/2021 2:45:00 PM 18.38 65.084 0.161 7.11 15 10.51
5/14/2021 3:00:00 PM 18.4 65.12 0.161 7.11 14.43 10.53
5/14/2021 3:15:00 PM 18.52 65.336 0.161 7.11 14.6 10.44
5/14/2021 3:30:00 PM 18.62 65.516 0.161 7.1 12.35 10.36
5/14/2021 3:45:00 PM 18.52 65.336 0.161 7.11 14.79 10.28
5/14/2021 4:00:00 PM 18.4 65.12 0.162 7.13 11.78 10.16
5/14/2021 4:15:00 PM 18.47 65.246 0.162 7.12 12.8 10.04
5/14/2021 4:30:00 PM 18.58 65.444 0.162 7.1 13.26 10.05
5/14/2021 4:45:00 PM 18.71 65.67799 0.162 7.08 11.93 10.05
5/14/2021 5:00:00 PM 18.67 65.606 0.162 7.06 15.4 10.01
5/14/2021 5:15:00 PM 18.5 65.3 0.162 7.08 16.42 10.05
5/14/2021 5:30:00 PM 18.33 64.994 0.162 7.1 16.03 10
5/14/2021 5:45:00 PM 18.23 64.814 0.162 7.12 12.93 9.93
5/14/2021 6:00:00 PM 18.14 64.652 0.163 7.12 15.79 9.77
5/14/2021 6:15:00 PM 18.06 64.508 0.163 7.12 12.08 9.75
5/14/2021 6:30:00 PM 17.93 64.274 0.162 7.13 17.82 9.72
5/14/2021 6:45:00 PM 17.77 63.986 0.163 7.14 11.37 9.68
5/14/2021 7:00:00 PM 17.62 63.716 0.163 7.14 13.89 9.62
5/14/2021 7:15:00 PM 17.48 63.464 0.163 7.14 11.64 9.59
5/14/2021 7:30:00 PM 17.36 63.248 0.163 7.15 10.15 9.51
5/14/2021 7:45:00 PM 17.23 63.014 0.163 7.16 10.56 9.44
5/14/2021 8:00:00 PM 17.09 62.762 0.163 7.16 8.8 9.36
5/14/2021 8:15:00 PM 16.91 62.438 0.163 7.17 10.56 9.28
5/14/2021 8:30:00 PM 16.73 62.114 0.163 7.17 10.69 9.22
5/14/2021 8:45:00 PM 16.58 61.844 0.163 7.18 8.72 9.16
5/14/2021 9:00:00 PM 16.42 61.556 0.163 7.17 12.91 9.1
5/14/2021 9:15:00 PM 16.24 61.232 0.163 7.18 14.16 9.09
5/14/2021 9:30:00 PM 16.1 60.98 0.163 7.18 10.31 9.06
5/14/2021 9:45:00 PM 15.96 60.728 0.163 7.17 11 9.03
5/14/2021 10:00:00 PM 15.81 60.458 0.163 7.17 10.74 9.02
5/14/2021 10:15:00 PM 15.66 60.188 0.163 7.16 16.48 9.04
5/14/2021 10:30:00 PM 15.53 59.954 0.163 7.15 10.4 9.02
5/14/2021 10:45:00 PM 15.34 59.612 0.163 7.15 13.05 9.04
5/14/2021 11:00:00 PM 15.22 59.396 0.163 7.14 13.82 9.07
5/14/2021 11:15:00 PM 15.06 59.108 0.163 7.14 16 9.09
5/14/2021 11:30:00 PM 14.92 58.856 0.163 7.14 15.58 9.1
5/14/2021 11:45:00 PM 14.76 58.568 0.163 7.14 15.98 9.14
5/15/2021 12:00:00 AM 14.62 58.316 0.163 7.14 14.28 9.16
5/15/2021 12:15:00 AM 14.49 58.082 0.163 7.14 12.37 9.18
5/15/2021 12:30:00 AM 14.35 57.83 0.163 7.13 14.75 9.22
5/15/2021 12:45:00 AM 14.25 57.65 0.163 7.12 12.14 9.22
5/15/2021 1:00:00 AM 14.11 57.398 0.163 7.12 15.02 9.25
5/15/2021 1:15:00 AM 14.01 57.218 0.163 7.12 13.24 9.29
5/15/2021 1:30:00 AM 13.88 56.984 0.163 7.11 15.49 9.31
5/15/2021 1:45:00 AM 13.77 56.786 0.163 7.12 15.1 9.33
5/15/2021 2:00:00 AM 13.65 56.57 0.163 7.11 15.01 9.36
5/15/2021 2:15:00 AM 13.56 56.408 0.163 7.11 12.7 9.38
5/15/2021 2:30:00 AM 13.43 56.174 0.163 7.11 14.1 9.44
5/15/2021 2:45:00 AM 13.35 56.03 0.163 7.11 12.89 9.45
5/15/2021 3:00:00 AM 13.25 55.85 0.163 7.1 14.25 9.48
5/15/2021 3:15:00 AM 13.15 55.67 0.163 7.1 14.93 9.51
5/15/2021 3:30:00 AM 13.11 55.598 0.163 7.1 13.06 9.5
5/15/2021 3:45:00 AM 13 55.4 0.163 7.1 14.87 9.53
5/15/2021 4:00:00 AM 12.93 55.274 0.163 7.09 12.13 9.58
5/15/2021 4:15:00 AM 12.83 55.094 0.163 7.09 14.47 9.59
5/15/2021 4:30:00 AM 12.76 54.968 0.163 7.09 13.95 9.6
5/15/2021 4:45:00 AM 12.68 54.824 0.163 7.08 14.44 9.63
5/15/2021 5:00:00 AM 12.6 54.68 0.163 7.09 15.47 9.67
5/15/2021 5:15:00 AM 12.51 54.518 0.163 7.09 12 9.7
5/15/2021 5:30:00 AM 12.43 54.374 0.163 7.09 12.64 9.72
5/15/2021 5:45:00 AM 12.35 54.23 0.163 7.09 12.46 9.75
5/15/2021 6:00:00 AM 12.29 54.122 0.163 7.09 11.45 9.69
5/15/2021 6:15:00 AM 12.21 53.978 0.163 7.09 12.28 9.71
5/15/2021 6:30:00 AM 12.13 53.834 0.163 7.09 15.71 9.77
5/15/2021 6:45:00 AM 12.06 53.708 0.163 7.09 10.76 9.82
5/15/2021 7:00:00 AM 12 53.6 0.164 7.08 11.37 9.82
5/15/2021 7:15:00 AM 11.94 53.492 0.164 7.08 10.99 9.83
5/15/2021 7:30:00 AM 11.87 53.366 0.163 7.08 8.47 9.96
5/15/2021 7:45:00 AM 11.82 53.276 0.163 7.07 11 10.01
5/15/2021 8:00:00 AM 11.8 53.24 0.163 7.07 10.14 10.11
5/15/2021 8:15:00 AM 11.79 53.222 0.163 7.07 10.05 10.12
5/15/2021 8:30:00 AM 11.78 53.204 0.163 7.06 11.31 10.14
5/15/2021 8:45:00 AM 11.8 53.24 0.163 7.06 13.02 10.2
5/15/2021 9:00:00 AM 11.84 53.312 0.163 7.06 10.27 10.19
5/15/2021 9:15:00 AM 11.89 53.402 0.163 7.05 11.33 10.33
5/15/2021 9:30:00 AM 11.97 53.546 0.163 7.05 16.45 10.37
5/15/2021 9:45:00 AM 12.06 53.708 0.162 7.05 8.5 10.49
5/15/2021 10:00:00 AM 12.18 53.924 0.162 7.04 9.63 10.49
5/15/2021 10:15:00 AM 12.34 54.212 0.162 7.04 12.57 10.53
5/15/2021 10:30:00 AM 12.5 54.5 0.162 7.03 9.05 10.66
5/15/2021 10:45:00 AM 12.74 54.932 0.162 7.02 8.88 10.72
5/15/2021 11:00:00 AM 12.99 55.382 0.162 7.01 9.86 10.8
5/15/2021 11:15:00 AM 13.27 55.886 0.162 7.02 9.9 10.83
5/15/2021 11:30:00 AM 13.57 56.426 0.161 7.03 9.03 10.87
5/15/2021 11:45:00 AM 13.89 57.002 0.161 7.04 12.95 10.9
5/15/2021 12:00:00 PM 14.27 57.686 0.161 7.05 10.62 10.92
5/15/2021 12:15:00 PM 14.67 58.406 0.161 7.05 9.34 10.9
5/15/2021 12:30:00 PM 15.13 59.234 0.161 7.02 13.51 10.93
5/15/2021 12:45:00 PM 15.6 60.08 0.161 7.02 13.67 10.92
5/15/2021 1:00:00 PM 16.12 61.016 0.161 7.04 9.64 10.89
5/15/2021 1:15:00 PM 16.58 61.844 0.161 7.03 8.66 10.81
5/15/2021 1:30:00 PM 16.77 62.186 0.161 7.05 11.73 10.74
5/15/2021 1:45:00 PM 17.03 62.654 0.161 7.03 10.08 10.6
5/15/2021 2:00:00 PM 17.38 63.284 0.161 7.04 11.54 10.56
5/15/2021 2:15:00 PM 17.62 63.716 0.161 7.05 11.68 10.55
5/15/2021 2:30:00 PM 17.86 64.148 0.161 7.05 11.2 10.49
5/15/2021 2:45:00 PM 17.93 64.274 0.161 7.05 9.88 10.25
5/15/2021 3:00:00 PM 17.87 64.166 0.162 7.07 20.65 10.09
5/15/2021 3:15:00 PM 17.81 64.058 0.162 7.09 11.16 9.94
5/15/2021 3:30:00 PM 17.85 64.13 0.162 7.08 11.36 9.75
5/15/2021 3:45:00 PM 17.94 64.292 0.162 7.06 11.33 9.86
5/15/2021 4:00:00 PM 18.06 64.508 0.162 7.05 12.24 9.92
5/15/2021 4:15:00 PM 18.1 64.58 0.163 7.04 12.22 10.03
5/15/2021 4:30:00 PM 18.16 64.688 0.163 7.04 8.52 9.96
5/15/2021 4:45:00 PM 18.27 64.886 0.164 7.02 8.16 10
5/15/2021 5:00:00 PM 18.32 64.976 0.163 7.02 8.53 9.97
5/15/2021 5:15:00 PM 18.33 64.994 0.163 7.02 10.79 9.92
5/15/2021 5:30:00 PM 18.27 64.886 0.163 7.02 7.47 9.95
5/15/2021 5:45:00 PM 18.18 64.724 0.162 7.03 8.05 9.97
5/15/2021 6:00:00 PM 18.08 64.544 0.162 7.04 13.48 9.85
5/15/2021 6:15:00 PM 18.01 64.418 0.162 7.05 6.92 9.82
5/15/2021 6:30:00 PM 17.9 64.22 0.162 7.07 11.44 9.69
5/15/2021 6:45:00 PM 17.86 64.148 0.162 7.08 14.31 9.58
5/15/2021 7:00:00 PM 17.8 64.04 0.162 7.1 9.25 9.45
5/15/2021 7:15:00 PM 17.72 63.896 0.162 7.12 11.27 9.36
5/15/2021 7:30:00 PM 17.65 63.77 0.163 7.13 9.5 9.33
5/15/2021 7:45:00 PM 17.55 63.59 0.164 7.14 13.87 9.31
5/15/2021 8:00:00 PM 17.45 63.41 0.163 7.15 14.2 9.22
5/15/2021 8:15:00 PM 17.3 63.14 0.164 7.15 9.32 9.13
5/15/2021 8:30:00 PM 17.18 62.924 0.164 7.16 9.97 9.09
5/15/2021 8:45:00 PM 17.02 62.636 0.164 7.15 9.16 9.02
5/15/2021 9:00:00 PM 16.89 62.402 0.164 7.14 8.62 8.98
5/15/2021 9:15:00 PM 16.76 62.168 0.164 7.14 9.24 8.94
5/15/2021 9:30:00 PM 16.62 61.916 0.164 7.13 10.35 8.93
5/15/2021 9:45:00 PM 16.51 61.718 0.164 7.12 8.69 8.9
5/15/2021 10:00:00 PM 16.39 61.502 0.164 7.12 9.59 8.9
5/15/2021 10:15:00 PM 16.28 61.304 0.164 7.12 9.99 8.91
5/15/2021 10:30:00 PM 16.18 61.124 0.164 7.12 12.2 8.91
5/15/2021 10:45:00 PM 16.09 60.962 0.164 7.12 9.13 8.91
5/15/2021 11:00:00 PM 16 60.8 0.164 7.12 10.84 8.91
5/15/2021 11:15:00 PM 15.88 60.584 0.164 7.12 8.97 8.92
5/15/2021 11:30:00 PM 15.77 60.386 0.164 7.12 9.69 8.9
5/15/2021 11:45:00 PM 15.67 60.206 0.164 7.11 10.43 8.93
5/16/2021 12:00:00 AM 15.56 60.008 0.164 7.1 10.25 8.94
5/16/2021 12:15:00 AM 15.46 59.828 0.164 7.11 13.02 8.93
5/16/2021 12:30:00 AM 15.35 59.63 0.164 7.1 11.39 8.97
5/16/2021 12:45:00 AM 15.25 59.45 0.164 7.1 11.01 8.96
5/16/2021 1:00:00 AM 15.15 59.27 0.164 7.09 12.46 9
5/16/2021 1:15:00 AM 15.05 59.09 0.164 7.1 11.83 9
5/16/2021 1:30:00 AM 14.96 58.928 0.164 7.1 10.8 9.02
5/16/2021 1:45:00 AM 14.87 58.766 0.164 7.1 10.38 9.05
5/16/2021 2:00:00 AM 14.78 58.604 0.163 7.1 12.83 9.07
5/16/2021 2:15:00 AM 14.69 58.442 0.163 7.1 11.76 9.11
5/16/2021 2:30:00 AM 14.62 58.316 0.164 7.1 9.84 9.14
5/16/2021 2:45:00 AM 14.54 58.172 0.163 7.09 10.95 9.14
5/16/2021 3:00:00 AM 14.47 58.046 0.164 7.09 9.5 9.15
5/16/2021 3:15:00 AM 14.42 57.956 0.163 7.09 12.3 9.18
5/16/2021 3:30:00 AM 14.34 57.812 0.164 7.08 17.61 9.19
5/16/2021 3:45:00 AM 14.27 57.686 0.164 7.08 10.37 9.21
5/16/2021 4:00:00 AM 14.2 57.56 0.164 7.08 12.16 9.25
5/16/2021 4:15:00 AM 14.14 57.452 0.164 7.08 13.03 9.27
5/16/2021 4:30:00 AM 14.09 57.362 0.164 7.08 11.47 9.29
5/16/2021 4:45:00 AM 14.02 57.236 0.164 7.08 12.81 9.29
5/16/2021 5:00:00 AM 13.97 57.146 0.164 7.08 14.7 9.32
5/16/2021 5:15:00 AM 13.91 57.038 0.163 7.08 18.74 9.35
5/16/2021 5:30:00 AM 13.84 56.912 0.163 7.08 12.85 9.35
5/16/2021 5:45:00 AM 13.76 56.768 0.163 7.08 13.26 9.37
5/16/2021 6:00:00 AM 13.71 56.678 0.163 7.08 13.34 9.26
5/16/2021 6:15:00 AM 13.64 56.552 0.163 7.09 13.18 9.29
5/16/2021 6:30:00 AM 13.6 56.48 0.163 7.09 9.51 9.29
5/16/2021 6:45:00 AM 13.55 56.39 0.163 7.09 14.35 9.32
5/16/2021 7:00:00 AM 13.5 56.3 0.163 7.09 9.2 9.39
5/16/2021 7:15:00 AM 13.46 56.228 0.163 7.09 11.2 9.41
5/16/2021 7:30:00 AM 13.45 56.21 0.163 7.08 9.88 9.55
5/16/2021 7:45:00 AM 13.44 56.192 0.163 7.08 15.77 9.55
5/16/2021 8:00:00 AM 13.44 56.192 0.163 7.08 10.29 9.68
5/16/2021 8:15:00 AM 13.46 56.228 0.163 7.08 9.32 9.75
5/16/2021 8:30:00 AM 13.47 56.246 0.163 7.08 10.27 9.84
5/16/2021 8:45:00 AM 13.49 56.282 0.163 7.08 10.39 9.86
5/16/2021 9:00:00 AM 13.52 56.336 0.163 7.09 9.96 9.96
5/16/2021 9:15:00 AM 13.54 56.372 0.163 7.09 11.26 10
5/16/2021 9:30:00 AM 13.58 56.444 0.163 7.08 12.22 10.11
5/16/2021 9:45:00 AM 13.63 56.534 0.163 7.09 16.57 10.17
5/16/2021 10:00:00 AM 13.67 56.606 0.163 7.09 12.1 10.27
5/16/2021 10:15:00 AM 13.74 56.732 0.163 7.09 13.4 10.29
5/16/2021 10:30:00 AM 13.82 56.876 0.163 7.08 12.71 10.36
5/16/2021 10:45:00 AM 13.9 57.02 0.162 7.08 16.03 10.45
5/16/2021 11:00:00 AM 14.01 57.218 0.162 7.08 13.75 10.6
5/16/2021 11:15:00 AM 14.12 57.416 0.162 7.07 13.94 10.63
5/16/2021 11:30:00 AM 14.24 57.632 0.162 7.07 17.68 10.69
5/16/2021 11:45:00 AM 14.42 57.956 0.162 7.08 11.6 10.67
5/16/2021 12:00:00 PM 14.64 58.352 0.162 7.08 16.22 10.68
5/16/2021 12:15:00 PM 14.87 58.766 0.162 7.08 12.34 10.74
5/16/2021 12:30:00 PM 15.03 59.054 0.162 7.09 18.14 10.75
5/16/2021 12:45:00 PM 15.2 59.36 0.162 7.09 16.39 10.74
5/16/2021 1:00:00 PM 15.31 59.558 0.162 7.07 13.63 10.69
5/16/2021 1:15:00 PM 15.4 59.72 0.162 7.08 14.11 10.64
5/16/2021 1:30:00 PM 15.53 59.954 0.162 7.1 15.73 10.66
5/16/2021 1:45:00 PM 15.7 60.26 0.162 7.1 15.94 10.64
5/16/2021 2:00:00 PM 15.79 60.422 0.162 7.12 16.42 10.53
5/16/2021 2:15:00 PM 15.84 60.512 0.162 7.13 14.96 10.52
5/16/2021 2:30:00 PM 15.88 60.584 0.162 7.13 17.2 10.5
5/16/2021 2:45:00 PM 15.92 60.656 0.162 7.14 15.24 10.45
5/16/2021 3:00:00 PM 15.96 60.728 0.162 7.14 21.41 10.36
5/16/2021 3:15:00 PM 15.94 60.692 0.162 7.17 19.7 10.35
5/16/2021 3:30:00 PM 15.92 60.656 0.162 7.18 18.52 10.19
5/16/2021 3:45:00 PM 15.87 60.566 0.162 7.19 16.75 10.27
5/16/2021 4:00:00 PM 15.81 60.458 0.162 7.19 19.52 9.99
5/16/2021 4:15:00 PM 15.77 60.386 0.162 7.19 19.93 10.1
5/16/2021 4:30:00 PM 15.71 60.278 0.162 7.19 17.69 10.07
5/16/2021 4:45:00 PM 15.62 60.116 0.162 7.2 23.87 9.9
5/16/2021 5:00:00 PM 15.55 59.99 0.163 7.21 19.58 9.81
5/16/2021 5:15:00 PM 15.47 59.846 0.163 7.21 26.24 9.8
5/16/2021 5:30:00 PM 15.4 59.72 0.163 7.22 20.87 9.77
5/16/2021 5:45:00 PM 15.35 59.63 0.163 7.21 20.04 9.69
5/16/2021 6:00:00 PM 15.28 59.504 0.163 7.21 17.73 9.7
5/16/2021 6:15:00 PM 15.2 59.36 0.163 7.21 16.38 9.77
5/16/2021 6:30:00 PM 15.12 59.216 0.163 7.21 13.64 9.69
5/16/2021 6:45:00 PM 15.05 59.09 0.163 7.21 16.86 9.65
5/16/2021 7:00:00 PM 14.99 58.982 0.163 7.2 22.17 9.55
5/16/2021 7:15:00 PM 14.93 58.874 0.163 7.2 14.98 9.76
5/16/2021 7:30:00 PM 14.88 58.784 0.163 7.19 17.89 9.77
5/16/2021 7:45:00 PM 14.81 58.658 0.163 7.19 18.2 9.74
5/16/2021 8:00:00 PM 14.73 58.514 0.163 7.19 16.86 9.71
5/16/2021 8:15:00 PM 14.67 58.406 0.163 7.18 13.64 9.65
5/16/2021 8:30:00 PM 14.6 58.28 0.163 7.18 19.93 9.59
5/16/2021 8:45:00 PM 14.52 58.136 0.163 7.17 20.07 9.57
5/16/2021 9:00:00 PM 14.44 57.992 0.163 7.17 18.85 9.53
5/16/2021 9:15:00 PM 14.37 57.866 0.163 7.17 21.37 9.49
5/16/2021 9:30:00 PM 14.31 57.758 0.163 7.16 22.59 9.49
5/16/2021 9:45:00 PM 14.24 57.632 0.163 7.15 17.27 9.49
5/16/2021 10:00:00 PM 14.18 57.524 0.163 7.15 18.92 9.48
5/16/2021 10:15:00 PM 14.12 57.416 0.163 7.14 22.36 9.47
5/16/2021 10:30:00 PM 14.06 57.308 0.163 7.14 25.72 9.49
5/16/2021 10:45:00 PM 14.02 57.236 0.163 7.13 23.58 9.48
5/16/2021 11:00:00 PM 13.97 57.146 0.163 7.13 21.91 9.48
5/16/2021 11:15:00 PM 13.92 57.056 0.163 7.13 18.67 9.5
5/16/2021 11:30:00 PM 13.87 56.966 0.163 7.13 16.98 9.5
5/16/2021 11:45:00 PM 13.83 56.894 0.163 7.13 21.79 9.51
5/17/2021 12:00:00 AM 13.78 56.804 0.163 7.13 21.38 9.5
5/17/2021 12:15:00 AM 13.73 56.714 0.163 7.13 20.97 9.49
5/17/2021 12:30:00 AM 13.68 56.624 0.163 7.12 20.62 9.53
5/17/2021 12:45:00 AM 13.64 56.552 0.163 7.12 20.28 9.53
5/17/2021 1:00:00 AM 13.6 56.48 0.163 7.12 18.52 9.54
5/17/2021 1:15:00 AM 13.56 56.408 0.163 7.12 20.26 9.58
5/17/2021 1:30:00 AM 13.53 56.354 0.164 7.13 19.73 9.58
5/17/2021 1:45:00 AM 13.49 56.282 0.164 7.13 17.54 9.56
5/17/2021 2:00:00 AM 13.45 56.21 0.164 7.13 27.84 9.59
5/17/2021 2:15:00 AM 13.42 56.156 0.164 7.13 29.62 9.59
5/17/2021 2:30:00 AM 13.38 56.084 0.164 7.12 17.14 9.6
5/17/2021 2:45:00 AM 13.34 56.012 0.164 7.13 29.23 9.61
5/17/2021 3:00:00 AM 13.3 55.94 0.164 7.13 30.68 9.62
5/17/2021 3:15:00 AM 13.25 55.85 0.164 7.13 25.24 9.63
5/17/2021 3:30:00 AM 13.2 55.76 0.164 7.13 23.13 9.66
5/17/2021 3:45:00 AM 13.14 55.652 0.164 7.15 22.09 9.67
5/17/2021 4:00:00 AM 13.09 55.562 0.163 7.15 27.74 9.69
5/17/2021 4:15:00 AM 13.03 55.454 0.164 7.15 32.69 9.68
5/17/2021 4:30:00 AM 12.98 55.364 0.163 7.15 29.29 9.7
5/17/2021 4:45:00 AM 12.93 55.274 0.164 7.14 27.12 9.71
5/17/2021 5:00:00 AM 12.87 55.166 0.164 7.16 29.5 9.74
5/17/2021 5:15:00 AM 12.82 55.076 0.164 7.16 27.17 9.74
5/17/2021 5:30:00 AM 12.77 54.986 0.156 7.15 23.31 9.76
5/17/2021 5:45:00 AM 12.72 54.896 0.157 7.16 28.15 9.79
5/17/2021 6:00:00 AM 12.66 54.788 0.155 7.16 35.2 9.81
5/17/2021 6:15:00 AM 12.62 54.716 0.164 7.16 38.3 9.82
5/17/2021 6:30:00 AM 12.57 54.626 0.16 7.15 34.09 9.79
5/17/2021 6:45:00 AM 12.53 54.554 0.164 7.14 29.35 9.79
5/17/2021 7:00:00 AM 12.48 54.464 0.164 7.13 25.14 9.77
5/17/2021 7:15:00 AM 12.45 54.41 0.164 7.13 26.31 9.81
5/17/2021 7:30:00 AM 12.41 54.338 0.164 7.13 26.86 9.94
5/17/2021 7:45:00 AM 12.4 54.32 0.164 7.13 21.62 9.99
5/17/2021 8:00:00 AM 12.39 54.302 0.164 7.14 26.86 10.06
5/17/2021 8:15:00 AM 12.4 54.32 0.164 7.15 29.55 10.14
5/17/2021 8:30:00 AM 12.42 54.356 0.164 7.15 25.6 10.32
5/17/2021 8:45:00 AM 12.45 54.41 0.164 7.14 27.64 10.31
5/17/2021 9:00:00 AM 12.49 54.482 0.163 7.13 40.71 10.39
5/17/2021 9:15:00 AM 12.56 54.608 0.163 7.16 26.14 10.57
5/17/2021 9:30:00 AM 12.63 54.734 0.163 7.16 35.93 10.67
5/17/2021 9:45:00 AM 12.72 54.896 0.163 7.15 31.08 10.72
5/17/2021 10:00:00 AM 12.83 55.094 0.163 7.14 24.95 10.78
5/17/2021 10:15:00 AM 12.96 55.328 0.155 7.15 32.11 10.81
5/17/2021 10:30:00 AM 13.11 55.598 0.163 7.16 31.04 10.9
5/17/2021 10:45:00 AM 13.28 55.904 0.163 7.16 33.99 10.94
5/17/2021 11:00:00 AM 13.48 56.264 0.163 7.16 29.42 10.99
5/17/2021 11:15:00 AM 13.67 56.606 0.163 7.16 29.22 11
5/17/2021 11:30:00 AM 13.87 56.966 0.163 7.16 27.9 11.05
5/17/2021 11:45:00 AM 14.08 57.344 0.163 7.16 27.58 11.05
5/17/2021 12:00:00 PM 14.27 57.686 0.163 7.17 29.06 11.05
5/17/2021 12:15:00 PM 14.46 58.028 0.163 7.15 26.35 11.05
5/17/2021 12:30:00 PM 14.67 58.406 0.162 7.15 28.84 11
5/17/2021 12:45:00 PM 14.86 58.748 0.162 7.16 27.32 11.04
5/17/2021 1:00:00 PM 15.06 59.108 0.162 7.16 30.48 11.01
5/17/2021 1:15:00 PM 15.26 59.468 0.162 7.18 27.68 10.99
5/17/2021 1:30:00 PM 15.5 59.9 0.162 7.18 32.16 10.97
5/17/2021 1:45:00 PM 15.72 60.296 0.162 7.2 30.01 10.93
5/17/2021 2:00:00 PM 15.97 60.746 0.162 7.23 31.06 10.93
5/17/2021 2:15:00 PM 16.1 60.98 0.162 7.25 30.44 10.87
5/17/2021 2:30:00 PM 16.49 61.682 0.162 7.28 30.06 10.83
5/17/2021 2:45:00 PM 16.65 61.97 0.162 7.29 28.83 10.8
5/17/2021 3:00:00 PM 16.78 62.204 0.162 7.29 27.4 10.76
5/17/2021 3:15:00 PM 16.85 62.33 0.162 7.3 28.43 10.69
5/17/2021 3:30:00 PM 16.89 62.402 0.162 7.29 33.55 10.63
5/17/2021 3:45:00 PM 16.93 62.474 0.162 7.28 33.56 10.57
5/17/2021 4:00:00 PM 17.01 62.618 0.162 7.29 35.32 10.52
5/17/2021 4:15:00 PM 17.08 62.744 0.162 7.28 40.41 10.51
5/17/2021 4:30:00 PM 17.16 62.888 0.162 7.27 41.95 10.47
5/17/2021 4:45:00 PM 17.17 62.906 0.162 7.26 42.48 10.37
5/17/2021 5:00:00 PM 17.18 62.924 0.162 7.25 34.6 10.33
5/17/2021 5:15:00 PM 17.26 63.068 0.162 7.25 43.26 10.28
5/17/2021 5:30:00 PM 17.38 63.284 0.162 7.27 42.05 10.27
5/17/2021 5:45:00 PM 17.45 63.41 0.162 7.27 40.11 10.19
5/17/2021 6:00:00 PM 17.47 63.446 0.162 7.25 43.76 10.16
5/17/2021 6:15:00 PM 17.42 63.356 0.162 7.26 37.15 10.12
5/17/2021 6:30:00 PM 17.36 63.248 0.162 7.27 43 10
5/17/2021 6:45:00 PM 17.27 63.086 0.162 7.26 45.25 9.91
5/17/2021 7:00:00 PM 17.19 62.942 0.162 7.26 44.9 9.84
5/17/2021 7:15:00 PM 17.11 62.798 0.162 7.28 35.31 9.77
5/17/2021 7:30:00 PM 17.04 62.672 0.163 7.28 42.2 9.65
5/17/2021 7:45:00 PM 16.95 62.51 0.163 7.28 48.71 9.57
5/17/2021 8:00:00 PM 16.84 62.312 0.163 7.28 42.07 9.47
5/17/2021 8:15:00 PM 16.7 62.06 0.163 7.28 38.9 9.42
5/17/2021 8:30:00 PM 16.57 61.826 0.163 7.28 38.85 9.36
5/17/2021 8:45:00 PM 16.42 61.556 0.163 7.28 49.52 9.3
5/17/2021 9:00:00 PM 16.27 61.286 0.163 7.27 45.74 9.26
5/17/2021 9:15:00 PM 16.14 61.052 0.163 7.27 47.64 9.21
5/17/2021 9:30:00 PM 16 60.8 0.163 7.27 35.36 9.17
5/17/2021 9:45:00 PM 15.84 60.512 0.163 7.26 47.7 9.17
5/17/2021 10:00:00 PM 15.72 60.296 0.163 7.27 41.72 9.16
5/17/2021 10:15:00 PM 15.6 60.08 0.164 7.27 41.18 9.16
5/17/2021 10:30:00 PM 15.48 59.864 0.164 7.26 54.04 9.13
5/17/2021 10:45:00 PM 15.36 59.648 0.164 7.25 34.21 9.15
5/17/2021 11:00:00 PM 15.26 59.468 0.164 7.26 43.32 9.14
5/17/2021 11:15:00 PM 15.16 59.288 0.164 7.26 52.58 9.16
5/17/2021 11:30:00 PM 15.06 59.108 0.164 7.26 37.01 9.17
5/17/2021 11:45:00 PM 14.96 58.928 0.164 7.25 35.18 9.15
5/18/2021 12:00:00 AM 14.86 58.748 0.164 7.24 60.81 9.17
5/18/2021 12:15:00 AM 14.74 58.532 0.164 7.24 56.47 9.2
5/18/2021 12:30:00 AM 14.65 58.37 0.164 7.24 56.01 9.19
5/18/2021 12:45:00 AM 14.55 58.19 0.164 7.24 41.62 9.22
5/18/2021 1:00:00 AM 14.45 58.01 0.164 7.24 54.06 9.24
5/18/2021 1:15:00 AM 14.34 57.812 0.164 7.24 55.03 9.27
5/18/2021 1:30:00 AM 14.24 57.632 0.164 7.24 64.74 9.31
5/18/2021 1:45:00 AM 14.16 57.488 0.164 7.24 61.46 9.29
5/18/2021 2:00:00 AM 14.06 57.308 0.164 7.24 40.7 9.34
5/18/2021 2:15:00 AM 13.97 57.146 0.164 7.24 57.28 9.37
5/18/2021 2:30:00 AM 13.89 57.002 0.164 7.24 67.32 9.39
5/18/2021 2:45:00 AM 13.81 56.858 0.164 7.23 62.84 9.39
5/18/2021 3:00:00 AM 13.72 56.696 0.164 7.23 32.24 9.43
5/18/2021 3:15:00 AM 13.63 56.534 0.164 7.23 49.89 9.45
5/18/2021 3:30:00 AM 13.56 56.408 0.164 7.22 68.52 9.47
5/18/2021 3:45:00 AM 13.48 56.264 0.164 7.23 38.83 9.48
5/18/2021 4:00:00 AM 13.41 56.138 0.164 7.23 69.24 9.5
5/18/2021 4:15:00 AM 13.34 56.012 0.164 7.23 44.87 9.52
5/18/2021 4:30:00 AM 13.28 55.904 0.164 7.23 51.2 9.54
5/18/2021 4:45:00 AM 13.21 55.778 0.164 7.23 39.19 9.57
5/18/2021 5:00:00 AM 13.14 55.652 0.164 7.22 43.56 9.57
5/18/2021 5:15:00 AM 13.07 55.526 0.164 7.22 41.16 9.6
5/18/2021 5:30:00 AM 13 55.4 0.164 7.22 52.5 9.62
5/18/2021 5:45:00 AM 12.94 55.292 0.164 7.22 50.45 9.62
5/18/2021 6:00:00 AM 12.88 55.184 0.164 7.22 52.4 9.65
5/18/2021 6:15:00 AM 12.81 55.058 0.164 7.22 49.41 9.68
5/18/2021 6:30:00 AM 12.75 54.95 0.164 7.21 56.76 9.71
5/18/2021 6:45:00 AM 12.7 54.86 0.164 7.21 46.77 9.73
5/18/2021 7:00:00 AM 12.65 54.77 0.164 7.2 44.53 9.77
5/18/2021 7:15:00 AM 12.62 54.716 0.164 7.21 52.96 9.81
5/18/2021 7:30:00 AM 12.56 54.608 0.164 7.21 50.25 9.87
5/18/2021 7:45:00 AM 12.52 54.536 0.164 7.21 58.32 9.91
5/18/2021 8:00:00 AM 12.5 54.5 0.164 7.21 65.88 9.98
5/18/2021 8:15:00 AM 12.5 54.5 0.164 7.21 64.12 10
5/18/2021 8:30:00 AM 12.51 54.518 0.164 7.21 44.91 10.03
5/18/2021 8:45:00 AM 12.53 54.554 0.164 7.21 28.44 10.09
5/18/2021 9:00:00 AM 12.58 54.644 0.164 7.21 56.39 10.14
5/18/2021 9:15:00 AM 12.63 54.734 0.164 7.21 41.63 10.2
5/18/2021 9:30:00 AM 12.7 54.86 0.164 7.21 45.58 10.25
5/18/2021 9:45:00 AM 12.79 55.022 0.164 7.21 49.51 10.3
5/18/2021 10:00:00 AM 12.91 55.238 0.164 7.21 56.87 10.36
5/18/2021 10:15:00 AM 13.04 55.472 0.164 7.21 44.84 10.4
5/18/2021 10:30:00 AM 13.23 55.814 0.164 7.21 53.37 10.47
5/18/2021 10:45:00 AM 13.45 56.21 0.164 7.22 52.79 10.54
5/18/2021 11:00:00 AM 13.73 56.714 0.164 7.22 32.25 10.6
5/18/2021 11:15:00 AM 14.02 57.236 0.164 7.22 39.69 10.64
5/18/2021 11:30:00 AM 14.27 57.686 0.164 7.23 65.05 10.67
5/18/2021 11:45:00 AM 14.57 58.226 0.163 7.23 47.07 10.68
5/18/2021 12:00:00 PM 14.88 58.784 0.163 7.24 47.88 10.7
5/18/2021 12:15:00 PM 15.26 59.468 0.163 7.2 50.9 10.62
5/18/2021 12:30:00 PM 15.58 60.044 0.164 7.2 43.9 10.72
5/18/2021 12:45:00 PM 16.06 60.908 0.163 7.21 40.03 10.7
5/18/2021 1:00:00 PM 16.46 61.628 0.163 7.23 47.59 10.69
5/18/2021 1:15:00 PM 16.93 62.474 0.163 7.23 59.78 10.66
5/18/2021 1:30:00 PM 17.41 63.338 0.163 7.26 39.98 10.61
5/18/2021 1:45:00 PM 17.91 64.238 0.163 7.26 44.2 10.57
5/18/2021 2:00:00 PM 18.38 65.084 0.163 7.27 40.52 10.53
5/18/2021 2:15:00 PM 18.85 65.93 0.163 7.27 55.21 10.49
5/18/2021 2:30:00 PM 19.26 66.668 0.163 7.26 57.29 10.44
5/18/2021 2:45:00 PM 19.57 67.226 0.163 7.26 42.31 10.37
5/18/2021 3:00:00 PM 19.76 67.568 0.163 7.25 40.08 10.28
5/18/2021 3:15:00 PM 20.03 68.054 0.163 7.26 44.48 10.15
5/18/2021 3:30:00 PM 20.2 68.36 0.164 7.25 48.42 10.1
5/18/2021 3:45:00 PM 20.47 68.846 0.16 7.26 36.53 10.03
5/18/2021 4:00:00 PM 20.58 69.044 0.164 7.27 24.16 9.95
5/18/2021 4:15:00 PM 20.6 69.08 0.164 7.27 41.68 9.84
5/18/2021 4:30:00 PM 20.64 69.152 0.164 7.27 22.7 9.75
5/18/2021 4:45:00 PM 20.59 69.062 0.164 7.27 18.93 9.71
5/18/2021 5:00:00 PM 20.49 68.882 0.164 7.28 20.89 9.6
5/18/2021 5:15:00 PM 20.39 68.702 0.164 7.28 16.13 9.56
5/18/2021 5:30:00 PM 20.29 68.522 0.165 7.3 14.14 9.54
5/18/2021 5:45:00 PM 20.18 68.324 0.165 7.31 14.89 9.47
5/18/2021 6:00:00 PM 20.01 68.018 0.165 7.31 13.22 9.42
5/18/2021 6:15:00 PM 19.85 67.73 0.165 7.31 13.01 9.31
5/18/2021 6:30:00 PM 19.63 67.334 0.165 7.32 16.52 9.23
5/18/2021 6:45:00 PM 19.46 67.028 0.165 7.33 16.04 9.13
5/18/2021 7:00:00 PM 19.27 66.686 0.165 7.34 19.53 9.06
5/18/2021 7:15:00 PM 19.12 66.416 0.165 7.34 16.73 8.99
5/18/2021 7:30:00 PM 18.95 66.11 0.165 7.33 13.84 8.93
5/18/2021 7:45:00 PM 18.81 65.858 0.165 7.33 11.68 8.88
5/18/2021 8:00:00 PM 18.68 65.624 0.165 7.32 11.98 8.82
5/18/2021 8:15:00 PM 18.53 65.354 0.165 7.32 13.71 8.78
5/18/2021 8:30:00 PM 18.32 64.976 0.165 7.31 10.93 8.75
5/18/2021 8:45:00 PM 18.18 64.724 0.165 7.31 10.19 8.72
5/18/2021 9:00:00 PM 18.01 64.418 0.165 7.3 13.29 8.68
5/18/2021 9:15:00 PM 17.85 64.13 0.165 7.29 9.77 8.65
5/18/2021 9:30:00 PM 17.67 63.806 0.165 7.29 11.5 8.64
5/18/2021 9:45:00 PM 17.53 63.554 0.165 7.27 9.01 8.65
5/18/2021 10:00:00 PM 17.39 63.302 0.165 7.26 9.91 8.63
5/18/2021 10:15:00 PM 17.25 63.05 0.165 7.26 10.88 8.64
5/18/2021 10:30:00 PM 17.12 62.816 0.165 7.25 6.96 8.63
5/18/2021 10:45:00 PM 17.01 62.618 0.165 7.25 7.47 8.66
5/18/2021 11:00:00 PM 16.9 62.42 0.165 7.24 8.91 8.66
5/18/2021 11:15:00 PM 16.77 62.186 0.165 7.24 5.82 8.68
5/18/2021 11:30:00 PM 16.63 61.934 0.165 7.24 8.72 8.71
5/18/2021 11:45:00 PM 16.55 61.79 0.165 7.24 6.82 8.7
5/19/2021 12:00:00 AM 16.45 61.61 0.165 7.24 6.81 8.71
5/19/2021 12:15:00 AM 16.34 61.412 0.165 7.23 9.47 8.75
5/19/2021 12:30:00 AM 16.23 61.214 0.165 7.23 16.51 8.76
5/19/2021 12:45:00 AM 16.09 60.962 0.165 7.22 18.62 8.79
5/19/2021 1:00:00 AM 16.01 60.818 0.165 7.22 8.79 8.81
5/19/2021 1:15:00 AM 15.89 60.602 0.165 7.22 8.13 8.83
5/19/2021 1:30:00 AM 15.77 60.386 0.165 7.22 11.5 8.86
5/19/2021 1:45:00 AM 15.69 60.242 0.165 7.22 9.82 8.87
5/19/2021 2:00:00 AM 15.58 60.044 0.165 7.21 10.21 8.9
5/19/2021 2:15:00 AM 15.48 59.864 0.166 7.21 8.61 8.92
5/19/2021 2:30:00 AM 15.41 59.738 0.166 7.21 8.34 8.93
5/19/2021 2:45:00 AM 15.31 59.558 0.166 7.21 11.55 8.97
5/19/2021 3:00:00 AM 15.22 59.396 0.165 7.21 8.57 8.98
5/19/2021 3:15:00 AM 15.14 59.252 0.165 7.2 13.31 9.01
5/19/2021 3:30:00 AM 15.07 59.126 0.165 7.19 17.04 9.05
5/19/2021 3:45:00 AM 14.97 58.946 0.165 7.19 9.4 9.05
5/19/2021 4:00:00 AM 14.9 58.82 0.165 7.2 12.24 9.08
5/19/2021 4:15:00 AM 14.82 58.676 0.165 7.19 8.62 9.1
5/19/2021 4:30:00 AM 14.73 58.514 0.166 7.2 7.89 9.12
5/19/2021 4:45:00 AM 14.69 58.442 0.165 7.2 13.15 9.16
5/19/2021 5:00:00 AM 14.61 58.298 0.165 7.2 13.42 9.16
5/19/2021 5:15:00 AM 14.53 58.154 0.165 7.2 16.59 9.21
5/19/2021 5:30:00 AM 14.46 58.028 0.165 7.19 10.09 9.23
5/19/2021 5:45:00 AM 14.42 57.956 0.165 7.2 10 9.24
5/19/2021 6:00:00 AM 14.36 57.848 0.165 7.2 9.99 9.25
5/19/2021 6:15:00 AM 14.29 57.722 0.165 7.19 13.07 9.29
5/19/2021 6:30:00 AM 14.24 57.632 0.165 7.19 10.21 9.3
5/19/2021 6:45:00 AM 14.19 57.542 0.165 7.19 26.45 9.32
5/19/2021 7:00:00 AM 14.13 57.434 0.165 7.2 71.94 9.37
5/19/2021 7:15:00 AM 14.1 57.38 0.165 7.21 38.76 9.4
5/19/2021 7:30:00 AM 14.05 57.29 0.165 7.21 17.4 9.45
5/19/2021 7:45:00 AM 14.03 57.254 0.165 7.2 12.12 9.47
5/19/2021 8:00:00 AM 14 57.2 0.165 7.21 21.89 9.54
5/19/2021 8:15:00 AM 14 57.2 0.165 7.22 26.32 9.57
5/19/2021 8:30:00 AM 14 57.2 0.165 7.21 19.06 9.66
5/19/2021 8:45:00 AM 14.03 57.254 0.165 7.23 19.86 9.72
5/19/2021 9:00:00 AM 14.06 57.308 0.165 7.21 14.25 9.75
5/19/2021 9:15:00 AM 14.12 57.416 0.165 7.21 13.36 9.79
5/19/2021 9:30:00 AM 14.2 57.56 0.165 7.21 10.63 9.82
5/19/2021 9:45:00 AM 14.3 57.74 0.165 7.22 15.23 9.91
5/19/2021 10:00:00 AM 14.39 57.902 0.165 7.23 25.93 9.95
5/19/2021 10:15:00 AM 14.55 58.19 0.165 7.22 50.42 10.01
5/19/2021 10:30:00 AM 14.72 58.496 0.164 7.23 20.87 10.07
5/19/2021 10:45:00 AM 14.93 58.874 0.164 7.22 30.22 10.11
5/19/2021 11:00:00 AM 15.2 59.36 0.164 7.24 16.18 10.17
5/19/2021 11:15:00 AM 15.48 59.864 0.164 7.23 48.65 10.19
5/19/2021 11:30:00 AM 15.75 60.35 0.164 7.24 20.06 10.19
5/19/2021 11:45:00 AM 16.07 60.926 0.163 7.25 17.65 10.24
5/19/2021 12:00:00 PM 16.39 61.502 0.164 7.23 24.43 10.25
5/19/2021 12:15:00 PM 16.85 62.33 0.163 7.26 16.24 10.17
5/19/2021 12:30:00 PM 17.27 63.086 0.164 7.29 15.03 10.15
5/19/2021 12:45:00 PM 17.74 63.932 0.164 7.3 23.72 10.14
5/19/2021 1:00:00 PM 18.19 64.742 0.164 7.32 14.96 10.24
5/19/2021 1:15:00 PM 18.65 65.57 0.164 7.34 19.41 10.22
5/19/2021 1:30:00 PM 19.19 66.542 0.164 7.36 20.12 10.03
5/19/2021 1:45:00 PM 19.7 67.46 0.164 7.38 10.15 9.96
5/19/2021 2:00:00 PM 20.16 68.288 0.164 7.4 18.94 9.97
5/19/2021 2:15:00 PM 20.62 69.116 0.164 7.39 41.95 10.03
5/19/2021 2:30:00 PM 21.03 69.854 0.164 7.37 13.68 9.65
5/19/2021 2:45:00 PM 21.42 70.556 0.164 7.34 16.42 9.74
5/19/2021 3:00:00 PM 21.65 70.97 0.164 7.34 9.05 9.54
5/19/2021 3:15:00 PM 21.83 71.294 0.165 7.34 15.47 9.67
5/19/2021 3:30:00 PM 22.01 71.618 0.165 7.37 10 9.52
5/19/2021 3:45:00 PM 22.17 71.906 0.165 7.37 9.51 9.38
5/19/2021 4:00:00 PM 22.3 72.14 0.165 7.36 13.38 9.36
5/19/2021 4:15:00 PM 22.39 72.302 0.165 7.39 30.53 9.21
5/19/2021 4:30:00 PM 22.4 72.32 0.165 7.38 15.16 9.26
5/19/2021 4:45:00 PM 22.36 72.248 0.165 7.36 9.37 9.03
5/19/2021 5:00:00 PM 22.31 72.158 0.166 7.37 11.5 8.92
5/19/2021 5:15:00 PM 22.24 72.032 0.166 7.37 18.62 8.93
5/19/2021 5:30:00 PM 22.18 71.924 0.166 7.37 16.67 8.81
5/19/2021 5:45:00 PM 22.07 71.726 0.166 7.37 10.51 8.75
5/19/2021 6:00:00 PM 21.95 71.51 0.166 7.36 4.99 8.69
5/19/2021 6:15:00 PM 21.82 71.276 0.167 7.34 11.34 8.69
5/19/2021 6:30:00 PM 21.65 70.97 0.167 7.34 9.73 8.59
5/19/2021 6:45:00 PM 21.48 70.664 0.167 7.34 12.59 8.49
5/19/2021 7:00:00 PM 21.34 70.412 0.166 7.34 24.71 8.45
5/19/2021 7:15:00 PM 21.18 70.124 0.167 7.31 12.84 8.33
5/19/2021 7:30:00 PM 21.03 69.854 0.167 7.3 15.77 8.3
5/19/2021 7:45:00 PM 20.83 69.494 0.167 7.29 12.98 8.28
5/19/2021 8:00:00 PM 20.68 69.224 0.167 7.28 4.65 8.43
5/19/2021 8:15:00 PM 20.5 68.9 0.167 7.27 4 8.4
5/19/2021 8:30:00 PM 20.35 68.63 0.167 7.29 5.47 8.35
5/19/2021 8:45:00 PM 20.17 68.306 0.167 7.3 6.99 8.3
5/19/2021 9:00:00 PM 20 68 0.167 7.3 5.28 8.26
5/19/2021 9:15:00 PM 19.83 67.694 0.167 7.3 12.23 8.22
5/19/2021 9:30:00 PM 19.7 67.46 0.167 7.27 5.52 8.18
5/19/2021 9:45:00 PM 19.55 67.19 0.167 7.26 4.64 8.18
5/19/2021 10:00:00 PM 19.41 66.938 0.167 7.25 6.29 8.17
5/19/2021 10:15:00 PM 19.29 66.722 0.167 7.25 4.38 8.17
5/19/2021 10:30:00 PM 19.15 66.47 0.167 7.25 7.12 8.18
5/19/2021 10:45:00 PM 19.03 66.254 0.167 7.24 5.06 8.17
5/19/2021 11:00:00 PM 18.92 66.056 0.167 7.23 6.33 8.2
5/19/2021 11:15:00 PM 18.8 65.84 0.167 7.22 9.6 8.18
5/19/2021 11:30:00 PM 18.68 65.624 0.167 7.21 5.63 8.2
5/19/2021 11:45:00 PM 18.57 65.426 0.167 7.22 19.91 8.21
5/20/2021 12:00:00 AM 18.44 65.192 0.167 7.21 4.14 8.22
5/20/2021 12:15:00 AM 18.33 64.994 0.167 7.21 3.91 8.25
5/20/2021 12:30:00 AM 18.2 64.76 0.167 7.21 3.8 8.27
5/20/2021 12:45:00 AM 18.09 64.562 0.167 7.19 5.1 8.31
5/20/2021 1:00:00 AM 17.97 64.346 0.167 7.2 4.14 8.33
5/20/2021 1:15:00 AM 17.83 64.094 0.167 7.18 10.66 8.34
5/20/2021 1:30:00 AM 17.72 63.896 0.167 7.18 7.88 8.38
5/20/2021 1:45:00 AM 17.61 63.698 0.167 7.17 5.02 8.41
5/20/2021 2:00:00 AM 17.49 63.482 0.167 7.17 7.31 8.44
5/20/2021 2:15:00 AM 17.4 63.32 0.167 7.17 5.93 8.46
5/20/2021 2:30:00 AM 17.27 63.086 0.167 7.17 4.41 8.46
5/20/2021 2:45:00 AM 17.18 62.924 0.167 7.15 6.95 8.49
5/20/2021 3:00:00 AM 17.07 62.726 0.167 7.14 5.34 8.54
5/20/2021 3:15:00 AM 16.94 62.492 0.167 7.16 8.43 8.31
5/20/2021 3:30:00 AM 16.88 62.384 0.167 7.17 5.18 8.55
5/20/2021 3:45:00 AM 16.8 62.24 0.167 7.18 4.54 8.44
5/20/2021 4:00:00 AM 16.71 62.078 0.167 7.18 4.7 8.54
5/20/2021 4:15:00 AM 16.63 61.934 0.167 7.18 4.15 8.64
5/20/2021 4:30:00 AM 16.55 61.79 0.166 7.19 6.29 8.67
5/20/2021 4:45:00 AM 16.49 61.682 0.167 7.19 4.69 8.65
5/20/2021 5:00:00 AM 16.41 61.538 0.167 7.18 5.05 8.67
5/20/2021 5:15:00 AM 16.35 61.43 0.166 7.18 4.15 8.69
5/20/2021 5:30:00 AM 16.27 61.286 0.167 7.18 6.25 8.74
5/20/2021 5:45:00 AM 16.2 61.16 0.166 7.16 4.82 8.77
5/20/2021 6:00:00 AM 16.14 61.052 0.167 7.16 4.62 8.78
5/20/2021 6:15:00 AM 16.07 60.926 0.166 7.17 6 8.7
5/20/2021 6:30:00 AM 16.01 60.818 0.167 7.17 4.33 8.79
5/20/2021 6:45:00 AM 15.97 60.746 0.168 7.17 8.56 8.87
5/20/2021 7:00:00 AM 15.92 60.656 0.167 7.18 4.77 8.92
5/20/2021 7:15:00 AM 15.88 60.584 0.166 7.16 6.15 8.95
5/20/2021 7:30:00 AM 15.86 60.548 0.166 7.16 4.68 9.01
5/20/2021 7:45:00 AM 15.85 60.53 0.166 7.15 4.69 9.07
5/20/2021 8:00:00 AM 15.85 60.53 0.166 7.14 4.79 9.14
5/20/2021 8:15:00 AM 15.86 60.548 0.166 7.14 7.79 9.2
5/20/2021 8:30:00 AM 15.88 60.584 0.166 7.16 7.34 9.27
5/20/2021 8:45:00 AM 15.91 60.638 0.166 7.17 5.81 9.28
5/20/2021 9:00:00 AM 15.96 60.728 0.166 7.17 5.69 9.33
5/20/2021 9:15:00 AM 16.02 60.836 0.166 7.19 4.42 9.38
5/20/2021 9:30:00 AM 16.09 60.962 0.166 7.2 5.94 9.43
5/20/2021 9:45:00 AM 16.18 61.124 0.166 7.21 7.64 9.48
5/20/2021 10:00:00 AM 16.28 61.304 0.166 7.21 4.45 9.52
5/20/2021 10:15:00 AM 16.44 61.592 0.165 7.21 4.88 9.57
5/20/2021 10:30:00 AM 16.6 61.88 0.165 7.2 6.24 9.64
5/20/2021 10:45:00 AM 16.8 62.24 0.165 7.18 4.18 9.7
5/20/2021 11:00:00 AM 17.01 62.618 0.165 7.21 4.72 9.77
5/20/2021 11:15:00 AM 17.27 63.086 0.165 7.22 3.98 9.81
5/20/2021 11:30:00 AM 17.53 63.554 0.165 7.25 4.83 9.87
5/20/2021 11:45:00 AM 17.77 63.986 0.165 7.27 6.16 9.9
5/20/2021 12:00:00 PM 17.98 64.364 0.164 7.31 4.8 9.92
5/20/2021 12:15:00 PM 18.22 64.796 0.165 7.31 4.1 9.91
5/20/2021 12:30:00 PM 18.5 65.3 0.164 7.32 4.43 9.9
5/20/2021 12:45:00 PM 18.9 66.02 0.165 7.34 7.15 9.93
5/20/2021 1:00:00 PM 19.3 66.74 0.165 7.36 4.99 9.92
5/20/2021 1:15:00 PM 19.76 67.568 0.164 7.4 6.03 9.92
5/20/2021 1:30:00 PM 20.19 68.342 0.165 7.43 5.41 9.9
5/20/2021 1:45:00 PM 20.66 69.188 0.165 7.44 5.53 9.86
5/20/2021 2:00:00 PM 21.1 69.98 0.164 7.46 7.57 9.82
5/20/2021 2:15:00 PM 21.48 70.664 0.165 7.42 6.44 9.76
5/20/2021 2:30:00 PM 21.84 71.312 0.164 7.37 4.38 9.72
5/20/2021 2:45:00 PM 22.17 71.906 0.164 7.33 4.35 9.66
5/20/2021 3:00:00 PM 22.34 72.212 0.149 7.33 5.59 9.63
5/20/2021 3:15:00 PM 22.51 72.518 0.15 7.34 12.89 9.5
5/20/2021 3:30:00 PM 22.67 72.806 0.163 7.37 4.12 9.5
5/20/2021 3:45:00 PM 22.79 73.022 0.166 7.35 4.24 9.41
5/20/2021 4:00:00 PM 22.89 73.202 0.157 7.33 4.4 9.34
5/20/2021 4:15:00 PM 22.92 73.256 0.157 7.39 4.17 9.26
5/20/2021 4:30:00 PM 22.9 73.22 0.167 7.38 5.19 9.19
5/20/2021 4:45:00 PM 22.86 73.148 0.167 7.39 5.69 9.12
5/20/2021 5:00:00 PM 22.8 73.04 0.167 7.4 4.61 9.03
5/20/2021 5:15:00 PM 22.7 72.86 0.167 7.42 4.13 8.88
5/20/2021 5:30:00 PM 22.58 72.644 0.167 7.45 3.61 8.83
5/20/2021 5:45:00 PM 22.5 72.5 0.167 7.44 4.81 8.72
5/20/2021 6:00:00 PM 22.38 72.284 0.167 7.42 4.12 8.74
5/20/2021 6:15:00 PM 22.23 72.014 0.168 7.42 5.07 8.67
5/20/2021 6:30:00 PM 22.03 71.654 0.168 7.44 6.42 8.57
5/20/2021 6:45:00 PM 21.84 71.312 0.168 7.44 3.9 8.5
5/20/2021 7:00:00 PM 21.65 70.97 0.168 7.44 3.69 8.42
5/20/2021 7:15:00 PM 21.49 70.682 0.168 7.43 4.88 8.39
5/20/2021 7:30:00 PM 21.29 70.32201 0.168 7.42 4.08 8.33
5/20/2021 7:45:00 PM 21.09 69.962 0.168 7.41 5.76 8.29
5/20/2021 8:00:00 PM 20.92 69.656 0.168 7.4 6.83 8.27
5/20/2021 8:15:00 PM 20.73 69.314 0.168 7.39 6.89 8.21
5/20/2021 8:30:00 PM 20.53 68.954 0.168 7.38 4.69 8.2
5/20/2021 8:45:00 PM 20.33 68.594 0.168 7.37 4.12 8.18
5/20/2021 9:00:00 PM 20.17 68.306 0.168 7.35 5.32 8.14
5/20/2021 9:15:00 PM 19.98 67.964 0.168 7.34 4.3 8.13
5/20/2021 9:30:00 PM 19.8 67.64 0.169 7.33 4.88 8.11
5/20/2021 9:45:00 PM 19.63 67.334 0.168 7.32 7.65 8.1
5/20/2021 10:00:00 PM 19.47 67.046 0.168 7.31 5.67 8.12
5/20/2021 10:15:00 PM 19.31 66.758 0.168 7.3 4.97 8.11
5/20/2021 10:30:00 PM 19.15 66.47 0.168 7.29 5.26 8.13
5/20/2021 10:45:00 PM 19.01 66.218 0.168 7.29 4.75 8.12
5/20/2021 11:00:00 PM 18.87 65.966 0.168 7.29 4.3 8.14
5/20/2021 11:15:00 PM 18.73 65.714 0.168 7.27 3.66 8.17
5/20/2021 11:30:00 PM 18.59 65.462 0.168 7.26 4.9 8.18
5/20/2021 11:45:00 PM 18.45 65.21 0.168 7.25 7.12 8.2
5/21/2021 12:00:00 AM 18.28 64.904 0.168 7.24 5.97 8.24
5/21/2021 12:15:00 AM 18.17 64.706 0.168 7.23 5.81 8.26
5/21/2021 12:30:00 AM 18.04 64.472 0.168 7.22 7.08 8.28
5/21/2021 12:45:00 AM 17.88 64.184 0.168 7.22 4.66 8.33
5/21/2021 1:00:00 AM 17.75 63.95 0.168 7.21 5.5 8.36
5/21/2021 1:15:00 AM 17.61 63.698 0.168 7.21 5.34 8.39
5/21/2021 1:30:00 AM 17.47 63.446 0.168 7.21 7.15 8.44
5/21/2021 1:45:00 AM 17.34 63.212 0.168 7.21 5.52 8.47
5/21/2021 2:00:00 AM 17.19 62.942 0.168 7.21 5.34 8.51
5/21/2021 2:15:00 AM 17.08 62.744 0.168 7.21 7.94 8.54
5/21/2021 2:30:00 AM 16.94 62.492 0.168 7.21 5.97 8.59
5/21/2021 2:45:00 AM 16.8 62.24 0.168 7.21 5.88 8.61
5/21/2021 3:00:00 AM 16.71 62.078 0.168 7.21 5.09 8.64
5/21/2021 3:15:00 AM 16.58 61.844 0.168 7.19 9.88 8.66
5/21/2021 3:30:00 AM 16.45 61.61 0.168 7.19 6.57 8.72
5/21/2021 3:45:00 AM 16.35 61.43 0.167 7.19 9.34 8.72
5/21/2021 4:00:00 AM 16.24 61.232 0.167 7.2 8.69 8.77
5/21/2021 4:15:00 AM 16.14 61.052 0.167 7.21 5.92 8.79
5/21/2021 4:30:00 AM 16.05 60.89 0.167 7.2 5.49 8.8
5/21/2021 4:45:00 AM 15.96 60.728 0.167 7.19 6.18 8.82
5/21/2021 5:00:00 AM 15.88 60.584 0.167 7.19 5.3 8.84
5/21/2021 5:15:00 AM 15.78 60.404 0.167 7.2 5.59 8.87
5/21/2021 5:30:00 AM 15.69 60.242 0.167 7.21 5.01 8.91
5/21/2021 5:45:00 AM 15.62 60.116 0.167 7.21 4.06 8.91
5/21/2021 6:00:00 AM 15.53 59.954 0.167 7.2 8.24 8.96
5/21/2021 6:15:00 AM 15.45 59.81 0.167 7.2 4.65 8.99
5/21/2021 6:30:00 AM 15.36 59.648 0.167 7.19 6.34 9.01
5/21/2021 6:45:00 AM 15.32 59.576 0.167 7.2 5.53 9.03
5/21/2021 7:00:00 AM 15.24 59.432 0.167 7.2 4.56 9.09
5/21/2021 7:15:00 AM 15.17 59.306 0.167 7.2 4.74 9.14
5/21/2021 7:30:00 AM 15.12 59.216 0.167 7.19 3.47 9.18
5/21/2021 7:45:00 AM 15.09 59.162 0.167 7.18 4.22 9.22
5/21/2021 8:00:00 AM 15.07 59.126 0.167 7.18 4.51 9.25
5/21/2021 8:15:00 AM 15.05 59.09 0.167 7.17 4.05 9.3
5/21/2021 8:30:00 AM 15.05 59.09 0.166 7.17 7.8 9.35
5/21/2021 8:45:00 AM 15.06 59.108 0.166 7.17 3.48 9.39
5/21/2021 9:00:00 AM 15.08 59.144 0.166 7.16 9.58 9.43
5/21/2021 9:15:00 AM 15.12 59.216 0.166 7.15 3.42 9.49
5/21/2021 9:30:00 AM 15.18 59.324 0.166 7.15 3.52 9.53
5/21/2021 9:45:00 AM 15.25 59.45 0.166 7.16 4.17 9.58
5/21/2021 10:00:00 AM 15.34 59.612 0.166 7.16 3.77 9.62
5/21/2021 10:15:00 AM 15.46 59.828 0.166 7.14 5.07 9.68
5/21/2021 10:30:00 AM 15.6 60.08 0.166 7.12 4.9 9.74
5/21/2021 10:45:00 AM 15.78 60.404 0.166 7.13 4.39 9.79
5/21/2021 11:00:00 AM 15.98 60.764 0.166 7.14 4.35 9.83
5/21/2021 11:15:00 AM 16.22 61.196 0.166 7.15 3.87 9.88
5/21/2021 11:30:00 AM 16.45 61.61 0.166 7.16 5.03 9.9
5/21/2021 11:45:00 AM 16.75 62.15 0.166 7.13 5.51 9.91
5/21/2021 12:00:00 PM 17.07 62.726 0.165 7.1 3.98 9.9
5/21/2021 12:15:00 PM 17.44 63.392 0.165 7.14 4.51 9.93
5/21/2021 12:30:00 PM 17.85 64.13 0.166 7.16 4.4 9.93
5/21/2021 12:45:00 PM 18.26 64.868 0.166 7.2 3.36 9.92
5/21/2021 1:00:00 PM 18.7 65.66 0.166 7.19 3.81 9.89
5/21/2021 1:15:00 PM 19.17 66.506 0.166 7.2 4.4 9.89
5/21/2021 1:30:00 PM 19.67 67.406 0.165 7.24 6.5 9.84
5/21/2021 1:45:00 PM 20.15 68.27 0.166 7.24 3.95 9.89
5/21/2021 2:00:00 PM 20.63 69.134 0.166 7.26 3.3 9.84
5/21/2021 2:15:00 PM 21.05 69.89 0.166 7.26 3.5 9.82
5/21/2021 2:30:00 PM 21.47 70.646 0.166 7.25 3.53 9.77
5/21/2021 2:45:00 PM 21.84 71.312 0.166 7.23 4.03 9.7
5/21/2021 3:00:00 PM 22.05 71.69 0.166 7.2 4.21 9.65
5/21/2021 3:15:00 PM 22.26 72.068 0.166 7.19 4.05 9.58
5/21/2021 3:30:00 PM 22.49 72.482 0.166 7.19 10.38 9.49
5/21/2021 3:45:00 PM 22.63 72.734 0.166 7.19 4.27 9.4
5/21/2021 4:00:00 PM 22.74 72.932 0.166 7.18 5.78 9.33
5/21/2021 4:15:00 PM 22.77 72.986 0.167 7.14 3.87 9.24
5/21/2021 4:30:00 PM 22.8 73.04 0.167 7.15 4.35 9.17
5/21/2021 4:45:00 PM 22.79 73.022 0.167 7.17 3.58 9.11
5/21/2021 5:00:00 PM 22.75 72.95 0.167 7.17 3.74 9.02
5/21/2021 5:15:00 PM 22.69 72.842 0.167 7.17 5.85 8.96
5/21/2021 5:30:00 PM 22.62 72.716 0.167 7.19 3.89 8.86
5/21/2021 5:45:00 PM 22.55 72.59 0.168 7.22 4.5 8.8
5/21/2021 6:00:00 PM 22.46 72.42799 0.168 7.21 4.25 8.75
5/21/2021 6:15:00 PM 22.37 72.266 0.168 7.21 3.37 8.67
5/21/2021 6:30:00 PM 22.2 71.96 0.168 7.28 4.54 8.59
5/21/2021 6:45:00 PM 21.98 71.564 0.168 7.3 18.75 8.53
5/21/2021 7:00:00 PM 21.86 71.348 0.168 7.35 8.46 8.48
5/21/2021 7:15:00 PM 21.71 71.078 0.168 7.36 4.62 8.4
5/21/2021 7:30:00 PM 21.56 70.808 0.168 7.36 3.87 8.34
5/21/2021 7:45:00 PM 21.35 70.43 0.169 7.35 3.72 8.3
5/21/2021 8:00:00 PM 21.19 70.142 0.168 7.34 3.99 8.25
5/21/2021 8:15:00 PM 21.04 69.872 0.169 7.33 3.97 8.22
5/21/2021 8:30:00 PM 20.86 69.548 0.168 7.32 3.48 8.18
5/21/2021 8:45:00 PM 20.71 69.278 0.169 7.31 3.33 8.14
5/21/2021 9:00:00 PM 20.5 68.9 0.169 7.28 3.34 8.12
5/21/2021 9:15:00 PM 20.35 68.63 0.169 7.27 4.34 8.09
5/21/2021 9:30:00 PM 20.18 68.324 0.169 7.26 4.39 8.08
5/21/2021 9:45:00 PM 20.03 68.054 0.169 7.26 4.48 8.09
5/21/2021 10:00:00 PM 19.89 67.802 0.169 7.25 7.06 8.07
5/21/2021 10:15:00 PM 19.74 67.532 0.169 7.24 3.85 8.08
5/21/2021 10:30:00 PM 19.62 67.316 0.168 7.23 4.79 8.08
5/21/2021 10:45:00 PM 19.47 67.046 0.169 7.23 3.71 8.11
5/21/2021 11:00:00 PM 19.36 66.848 0.168 7.22 4.81 8.11
5/21/2021 11:15:00 PM 19.24 66.632 0.169 7.22 8.4 8.13
5/21/2021 11:30:00 PM 19.1 66.38 0.168 7.21 4.03 8.15
5/21/2021 11:45:00 PM 19 66.2 0.168 7.2 2.95 8.17
5/22/2021 12:00:00 AM 18.87 65.966 0.168 7.2 3.1 8.18
5/22/2021 12:15:00 AM 18.74 65.732 0.168 7.19 18.89 8.2
5/22/2021 12:30:00 AM 18.62 65.516 0.168 7.19 7.43 8.18
5/22/2021 12:45:00 AM 18.53 65.354 0.168 7.19 3.34 8.24
5/22/2021 1:00:00 AM 18.37 65.066 0.168 7.18 3.51 8.29
5/22/2021 1:15:00 AM 18.27 64.886 0.168 7.19 2.95 8.3
5/22/2021 1:30:00 AM 18.15 64.67 0.168 7.19 3.34 8.33
5/22/2021 1:45:00 AM 18.02 64.436 0.168 7.19 3.14 8.37
5/22/2021 2:00:00 AM 17.9 64.22 0.168 7.17 3.54 8.4
5/22/2021 2:15:00 AM 17.78 64.004 0.168 7.16 2.94 8.42
5/22/2021 2:30:00 AM 17.69 63.842 0.168 7.15 3.17 8.45
5/22/2021 2:45:00 AM 17.56 63.608 0.168 7.16 3.29 8.48
5/22/2021 3:00:00 AM 17.5 63.5 0.168 7.16 3.27 8.48
5/22/2021 3:15:00 AM 17.4 63.32 0.168 7.16 3.57 8.52
5/22/2021 3:30:00 AM 17.3 63.14 0.168 7.14 3.9 8.54
5/22/2021 3:45:00 AM 17.19 62.942 0.168 7.15 3.34 8.56
5/22/2021 4:00:00 AM 17.14 62.852 0.168 7.14 2.92 8.58
5/22/2021 4:15:00 AM 17.07 62.726 0.168 7.12 3 8.58
5/22/2021 4:30:00 AM 16.95 62.51 0.168 7.12 4.09 8.62
5/22/2021 4:45:00 AM 16.91 62.438 0.168 7.12 3.08 8.63
5/22/2021 5:00:00 AM 16.82 62.276 0.168 7.13 3.36 8.66
5/22/2021 5:15:00 AM 16.76 62.168 0.168 7.13 3.46 8.68
5/22/2021 5:30:00 AM 16.7 62.06 0.168 7.13 4.79 8.69
5/22/2021 5:45:00 AM 16.63 61.934 0.168 7.14 3.16 8.7
5/22/2021 6:00:00 AM 16.57 61.826 0.168 7.14 3.3 8.73
5/22/2021 6:15:00 AM 16.51 61.718 0.168 7.14 3.31 8.74
5/22/2021 6:30:00 AM 16.47 61.646 0.168 7.14 3.22 8.75
5/22/2021 6:45:00 AM 16.43 61.574 0.168 7.14 3.18 8.8
5/22/2021 7:00:00 AM 16.4 61.52 0.168 7.14 3.14 8.83
5/22/2021 7:15:00 AM 16.36 61.448 0.168 7.13 3.47 8.86
5/22/2021 7:30:00 AM 16.34 61.412 0.168 7.14 3.51 8.92
5/22/2021 7:45:00 AM 16.34 61.412 0.167 7.14 3.81 8.99
5/22/2021 8:00:00 AM 16.34 61.412 0.167 7.13 3.4 9.05
5/22/2021 8:15:00 AM 16.36 61.448 0.167 7.13 3.84 9.1
5/22/2021 8:30:00 AM 16.4 61.52 0.167 7.12 3.65 9.16
5/22/2021 8:45:00 AM 16.45 61.61 0.167 7.12 3.27 9.24
5/22/2021 9:00:00 AM 16.53 61.754 0.167 7.12 3.74 9.32
5/22/2021 9:15:00 AM 16.6 61.88 0.167 7.13 2.95 9.38
5/22/2021 9:30:00 AM 16.69 62.042 0.167 7.13 3.56 9.46
5/22/2021 9:45:00 AM 16.79 62.222 0.167 7.13 3.47 9.5
5/22/2021 10:00:00 AM 16.89 62.402 0.167 7.12 3.28 9.53
5/22/2021 10:15:00 AM 16.99 62.582 0.166 7.12 3.12 9.58
5/22/2021 10:30:00 AM 17.13 62.834 0.166 7.13 3.74 9.63
5/22/2021 10:45:00 AM 17.27 63.086 0.166 7.11 4.35 9.63
5/22/2021 11:00:00 AM 17.45 63.41 0.166 7.12 4.55 9.7
5/22/2021 11:15:00 AM 17.63 63.734 0.166 7.14 3.2 9.73
5/22/2021 11:30:00 AM 17.88 64.184 0.166 7.13 3.28 9.74
5/22/2021 11:45:00 AM 18.07 64.526 0.166 7.14 3.52 9.77
5/22/2021 12:00:00 PM 18.27 64.886 0.166 7.14 2.96 9.77
5/22/2021 12:15:00 PM 18.58 65.444 0.166 7.15 2.99 9.82
5/22/2021 12:30:00 PM 18.86 65.948 0.166 7.15 2.96 9.82
5/22/2021 12:45:00 PM 19.19 66.542 0.166 7.16 3.3 9.8
5/22/2021 1:00:00 PM 19.46 67.028 0.166 7.18 3.4 9.81
5/22/2021 1:15:00 PM 19.79 67.622 0.166 7.22 3.45 9.77
5/22/2021 1:30:00 PM 20.18 68.324 0.166 7.24 3.74 9.75
5/22/2021 1:45:00 PM 20.58 69.044 0.166 7.29 3.32 9.74
5/22/2021 2:00:00 PM 20.84 69.512 0.166 7.3 3.27 9.68
5/22/2021 2:15:00 PM 21.04 69.872 0.166 7.29 4.16 9.64
5/22/2021 2:30:00 PM 21.17 70.106 0.166 7.26 4.12 9.58
5/22/2021 2:45:00 PM 21.39 70.502 0.166 7.22 3.76 9.52
5/22/2021 3:00:00 PM 21.53 70.754 0.166 7.2 3.34 9.46
5/22/2021 3:15:00 PM 21.68 71.024 0.166 7.18 3.51 9.45
5/22/2021 3:30:00 PM 21.73 71.114 0.166 7.2 4.17 9.37
5/22/2021 3:45:00 PM 21.78 71.204 0.166 7.22 4.83 9.28
5/22/2021 4:00:00 PM 21.8 71.24 0.166 7.22 5.67 9.17
5/22/2021 4:15:00 PM 21.8 71.24 0.167 7.22 3.61 9.08
5/22/2021 4:30:00 PM 21.79 71.222 0.167 7.24 6.03 9.01
5/22/2021 4:45:00 PM 21.8 71.24 0.167 7.27 4.31 8.96
5/22/2021 5:00:00 PM 21.83 71.294 0.167 7.28 3.8 8.93
5/22/2021 5:15:00 PM 21.86 71.348 0.167 7.26 3.97 8.91
5/22/2021 5:30:00 PM 21.87 71.366 0.167 7.25 4.54 8.89
5/22/2021 5:45:00 PM 21.84 71.312 0.167 7.25 4.12 8.84
5/22/2021 6:00:00 PM 21.77 71.186 0.168 7.32 5.09 8.8
5/22/2021 6:15:00 PM 21.7 71.06 0.168 7.33 5.89 8.71
5/22/2021 6:30:00 PM 21.62 70.916 0.168 7.3 5.24 8.63
5/22/2021 6:45:00 PM 21.54 70.772 0.168 7.3 5.68 8.56
5/22/2021 7:00:00 PM 21.46 70.628 0.168 7.3 5.79 8.5
5/22/2021 7:15:00 PM 21.38 70.484 0.168 7.27 4.85 8.46
5/22/2021 7:30:00 PM 21.28 70.304 0.168 7.27 4.38 8.42
5/22/2021 7:45:00 PM 21.17 70.106 0.168 7.26 5.7 8.36
5/22/2021 8:00:00 PM 21.08 69.944 0.168 7.24 6.03 8.3
5/22/2021 8:15:00 PM 20.99 69.782 0.168 7.19 8.71 8.24
5/22/2021 8:30:00 PM 20.89 69.602 0.168 7.19 5.17 8.16
5/22/2021 8:45:00 PM 20.8 69.44 0.168 7.19 4.86 8.13
5/22/2021 9:00:00 PM 20.71 69.278 0.168 7.18 3.53 8.07
5/22/2021 9:15:00 PM 20.6 69.08 0.169 7.18 3.41 8.02
5/22/2021 9:30:00 PM 20.51 68.918 0.168 7.17 3.17 8
5/22/2021 9:45:00 PM 20.42 68.756 0.168 7.15 3.63 7.95
5/22/2021 10:00:00 PM 20.33 68.594 0.168 7.15 3.59 7.98
5/22/2021 10:15:00 PM 20.22 68.396 0.168 7.13 3.27 7.96
5/22/2021 10:30:00 PM 20.14 68.252 0.168 7.12 4.03 7.95
5/22/2021 10:45:00 PM 20.06 68.108 0.168 7.11 4.04 7.92
5/22/2021 11:00:00 PM 19.97 67.946 0.168 7.11 3.67 7.93
5/22/2021 11:15:00 PM 19.89 67.802 0.168 7.1 4.07 7.94
5/22/2021 11:30:00 PM 19.79 67.622 0.168 7.1 3.35 7.98
5/22/2021 11:45:00 PM 19.69 67.442 0.168 7.1 3.92 7.97
5/23/2021 12:00:00 AM 19.61 67.298 0.168 7.1 4.31 7.97
5/23/2021 12:15:00 AM 19.52 67.136 0.168 7.09 4.34 7.95
5/23/2021 12:30:00 AM 19.42 66.956 0.168 7.08 6.61 7.95
5/23/2021 12:45:00 AM 19.34 66.812 0.168 7.08 4 8
5/23/2021 1:00:00 AM 19.24 66.632 0.168 7.09 4.07 8.03
5/23/2021 1:15:00 AM 19.14 66.452 0.168 7.08 4.97 8
5/23/2021 1:30:00 AM 19.05 66.29 0.168 7.08 3.64 8.05
5/23/2021 1:45:00 AM 18.96 66.128 0.168 7.08 4.14 8.09
5/23/2021 2:00:00 AM 18.89 66.002 0.168 7.08 3.62 8.1
5/23/2021 2:15:00 AM 18.84 65.912 0.168 7.08 3.51 8.11
5/23/2021 2:30:00 AM 18.78 65.804 0.168 7.08 3.9 8.12
5/23/2021 2:45:00 AM 18.72 65.696 0.168 7.09 3.53 8.12
5/23/2021 3:00:00 AM 18.66 65.588 0.168 7.09 3.35 8.16
5/23/2021 3:15:00 AM 18.61 65.498 0.168 7.09 3.23 8.16
5/23/2021 3:30:00 AM 18.54 65.372 0.168 7.08 3.91 8.18
5/23/2021 3:45:00 AM 18.49 65.282 0.168 7.08 5.57 8.19
5/23/2021 4:00:00 AM 18.45 65.21 0.168 7.09 3.89 8.2
5/23/2021 4:15:00 AM 18.4 65.12 0.167 7.09 4.82 8.22
5/23/2021 4:30:00 AM 18.35 65.03 0.168 7.08 4.93 8.22
5/23/2021 4:45:00 AM 18.31 64.958 0.168 7.09 4.27 8.24
5/23/2021 5:00:00 AM 18.28 64.904 0.167 7.08 3.75 8.26
5/23/2021 5:15:00 AM 18.22 64.796 0.168 7.09 4.06 8.29
5/23/2021 5:30:00 AM 18.18 64.724 0.168 7.1 4.38 8.29
5/23/2021 5:45:00 AM 18.14 64.652 0.168 7.08 4.4 8.28
5/23/2021 6:00:00 AM 18.11 64.598 0.168 7.1 3.13 8.3
5/23/2021 6:15:00 AM 18.06 64.508 0.168 7.1 3.66 8.31
5/23/2021 6:30:00 AM 18.04 64.472 0.168 7.1 3.49 8.32
5/23/2021 6:45:00 AM 18.01 64.418 0.168 7.12 3.94 8.35
5/23/2021 7:00:00 AM 17.99 64.382 0.168 7.12 3.98 8.39
5/23/2021 7:15:00 AM 17.94 64.292 0.168 7.11 4.64 8.44
5/23/2021 7:30:00 AM 17.92 64.256 0.168 7.1 3.61 8.46
5/23/2021 7:45:00 AM 17.9 64.22 0.168 7.09 3.5 8.51
5/23/2021 8:00:00 AM 17.88 64.184 0.167 7.09 4.25 8.53
5/23/2021 8:15:00 AM 17.88 64.184 0.167 7.09 4.25 8.54
5/23/2021 8:30:00 AM 17.88 64.184 0.167 7.09 40.77 8.59
5/23/2021 8:45:00 AM 17.9 64.22 0.167 7.08 4.86 8.62
5/23/2021 9:00:00 AM 17.93 64.274 0.167 7.08 3.58 8.68
5/23/2021 9:15:00 AM 17.97 64.346 0.167 7.08 3.53 8.73
5/23/2021 9:30:00 AM 18.02 64.436 0.167 7.08 3.82 8.77
5/23/2021 9:45:00 AM 18.09 64.562 0.167 7.09 3.35 8.81
5/23/2021 10:00:00 AM 18.18 64.724 0.167 7.09 3.41 8.84
5/23/2021 10:15:00 AM 18.28 64.904 0.167 7.11 3.57 8.89
5/23/2021 10:30:00 AM 18.4 65.12 0.167 7.1 4.81 8.93
5/23/2021 10:45:00 AM 18.56 65.408 0.167 7.11 4.29 9
5/23/2021 11:00:00 AM 18.74 65.732 0.167 7.1 3.65 9.05
5/23/2021 11:15:00 AM 19.03 66.254 0.167 7.08 4.57 9.09
5/23/2021 11:30:00 AM 19.23 66.614 0.167 7.09 4.2 9.12
5/23/2021 11:45:00 AM 19.53 67.154 0.167 7.11 5.17 9.13
5/23/2021 12:00:00 PM 19.84 67.712 0.167 7.12 4.94 9.16
5/23/2021 12:15:00 PM 20.2 68.36 0.167 7.16 4.05 9.18
5/23/2021 12:30:00 PM 20.57 69.026 0.167 7.19 5.5 9.18
5/23/2021 12:45:00 PM 20.95 69.71 0.167 7.17 6.1 9.16
5/23/2021 1:00:00 PM 21.35 70.43 0.167 7.17 3.6 9.15
5/23/2021 1:15:00 PM 21.71 71.078 0.167 7.17 5.57 9.14
5/23/2021 1:30:00 PM 22.11 71.798 0.167 7.23 4.75 9.1
5/23/2021 1:45:00 PM 22.49 72.482 0.167 7.3 3.87 9.08
5/23/2021 2:00:00 PM 22.81 73.058 0.167 7.32 4.91 9.03
5/23/2021 2:15:00 PM 23.15 73.67 0.167 7.3 4.15 8.99
5/23/2021 2:30:00 PM 23.54 74.372 0.167 7.36 4.56 8.94
5/23/2021 2:45:00 PM 23.87 74.966 0.167 7.36 4.26 8.93
5/23/2021 3:00:00 PM 24.04 75.272 0.167 7.32 4.14 8.88
5/23/2021 3:15:00 PM 24.26 75.668 0.167 7.35 4.4 8.83
5/23/2021 3:30:00 PM 24.5 76.1 0.168 7.33 5.86 8.77
5/23/2021 3:45:00 PM 24.51 76.118 0.168 7.3 4.62 8.69
5/23/2021 4:00:00 PM 24.59 76.262 0.168 7.28 4.15 8.6
5/23/2021 4:15:00 PM 24.65 76.37 0.169 7.24 4.21 8.55
5/23/2021 4:30:00 PM 24.62 76.316 0.168 7.22 4.06 8.49
5/23/2021 4:45:00 PM 24.6 76.28 0.168 7.19 4.41 8.41
5/23/2021 5:00:00 PM 24.57 76.226 0.169 7.18 4.74 8.36
5/23/2021 5:15:00 PM 24.56 76.208 0.169 7.2 4.55 8.32
5/23/2021 5:30:00 PM 24.53 76.154 0.169 7.25 8.68 8.29
5/23/2021 5:45:00 PM 24.49 76.082 0.169 7.25 8.66 8.22
5/23/2021 6:00:00 PM 24.42 75.956 0.169 7.25 7.15 8.16
5/23/2021 6:15:00 PM 24.33 75.794 0.169 7.28 6.93 8.08
5/23/2021 6:30:00 PM 24.2 75.56 0.169 7.27 5.73 7.99
5/23/2021 6:45:00 PM 24.05 75.29 0.169 7.27 5.32 7.93
5/23/2021 7:00:00 PM 23.92 75.056 0.169 7.27 5.81 7.87
5/23/2021 7:15:00 PM 23.79 74.82201 0.169 7.25 5.34 7.8
5/23/2021 7:30:00 PM 23.64 74.552 0.169 7.23 5.2 7.74
5/23/2021 7:45:00 PM 23.49 74.282 0.169 7.23 6.71 7.68
5/23/2021 8:00:00 PM 23.37 74.066 0.169 7.23 5.57 7.65
5/23/2021 8:15:00 PM 23.23 73.814 0.169 7.22 6.45 7.6
5/23/2021 8:30:00 PM 23.09 73.562 0.169 7.21 3.84 7.57
5/23/2021 8:45:00 PM 22.97 73.346 0.169 7.19 4.73 7.53
5/23/2021 9:00:00 PM 22.85 73.13 0.169 7.17 4.13 7.49
5/23/2021 9:15:00 PM 22.71 72.878 0.169 7.16 4.25 7.43
5/23/2021 9:30:00 PM 22.61 72.698 0.17 7.16 3.58 7.45
5/23/2021 9:45:00 PM 22.49 72.482 0.169 7.16 3.58 7.44
5/23/2021 10:00:00 PM 22.38 72.284 0.17 7.15 4.08 7.41
5/23/2021 10:15:00 PM 22.25 72.05 0.17 7.13 4.01 7.42
5/23/2021 10:30:00 PM 22.16 71.888 0.17 7.12 3.53 7.43
5/23/2021 10:45:00 PM 22.04 71.672 0.17 7.11 3.74 7.41
5/23/2021 11:00:00 PM 21.94 71.492 0.17 7.11 3.38 7.42
5/23/2021 11:15:00 PM 21.84 71.312 0.17 7.09 3.43 7.44
5/23/2021 11:30:00 PM 21.74 71.132 0.17 7.08 3.71 7.46
5/23/2021 11:45:00 PM 21.65 70.97 0.17 7.07 3.49 7.45
5/24/2021 12:00:00 AM 21.56 70.808 0.17 7.05 3.89 7.49
5/24/2021 12:15:00 AM 21.47 70.646 0.17 7.05 3.7 7.49
5/24/2021 12:30:00 AM 21.39 70.502 0.17 7.05 3.93 7.53
5/24/2021 12:45:00 AM 21.3 70.34 0.17 7.04 3.22 7.54
5/24/2021 1:00:00 AM 21.22 70.196 0.17 7.05 3.07 7.56
5/24/2021 1:15:00 AM 21.15 70.07 0.17 7.04 3.31 7.55
5/24/2021 1:30:00 AM 21.06 69.908 0.17 7.04 3.45 7.58
5/24/2021 1:45:00 AM 20.99 69.782 0.17 7.05 3.17 7.62
5/24/2021 2:00:00 AM 20.92 69.656 0.17 7.06 4.25 7.63
5/24/2021 2:15:00 AM 20.83 69.494 0.17 7.04 3.65 7.64
5/24/2021 2:30:00 AM 20.76 69.368 0.169 7.03 4.31 7.62
5/24/2021 2:45:00 AM 20.69 69.242 0.169 7.04 530.5 7.67
5/24/2021 3:00:00 AM 20.6 69.08 0.169 7.03 4.26 7.7
5/24/2021 3:15:00 AM 20.53 68.954 0.169 7.03 3.96 7.74
5/24/2021 3:30:00 AM 20.44 68.792 0.169 7.02 4.4 7.75
5/24/2021 3:45:00 AM 20.38 68.684 0.169 7.02 4.48 7.76
5/24/2021 4:00:00 AM 20.31 68.558 0.169 7.02 3.54 7.81
5/24/2021 4:15:00 AM 20.26 68.468 0.169 7.01 5.01 7.78
5/24/2021 4:30:00 AM 20.2 68.36 0.169 7.02 4.11 7.82
5/24/2021 4:45:00 AM 20.14 68.252 0.169 7.01 4.11 7.85
5/24/2021 5:00:00 AM 20.09 68.162 0.169 7.03 3.86 7.87
5/24/2021 5:15:00 AM 20.03 68.054 0.169 7.06 4.65 7.86
5/24/2021 5:30:00 AM 19.98 67.964 0.169 7.03 3.91 7.84
5/24/2021 5:45:00 AM 19.94 67.892 0.169 7 4.13 7.87
5/24/2021 6:00:00 AM 19.89 67.802 0.169 6.99 4.71 7.9
5/24/2021 6:15:00 AM 19.84 67.712 0.169 7 3.51 7.92
5/24/2021 6:30:00 AM 19.8 67.64 0.169 6.99 3.76 7.92
5/24/2021 6:45:00 AM 19.76 67.568 0.169 7.02 3.52 7.93
5/24/2021 7:00:00 AM 19.71 67.478 0.169 6.99 3.62 7.97
5/24/2021 7:15:00 AM 19.67 67.406 0.169 7 5.13 7.99
5/24/2021 7:30:00 AM 19.64 67.352 0.169 7.02 5.49 8
5/24/2021 7:45:00 AM 19.6 67.28 0.168 7.03 5.48 8.04
5/24/2021 8:00:00 AM 19.56 67.208 0.169 7.05 4.75 8.03
5/24/2021 8:15:00 AM 19.52 67.136 0.169 7.05 4.85 8.05
5/24/2021 8:30:00 AM 19.49 67.082 0.169 7.07 4.82 8.09
5/24/2021 8:45:00 AM 19.45 67.01 0.169 7.07 4.89 8.11
5/24/2021 9:00:00 AM 19.42 66.956 0.168 7.08 4.55 8.14
5/24/2021 9:15:00 AM 19.37 66.866 0.168 7.09 3.9 8.18
5/24/2021 9:30:00 AM 19.33 66.794 0.168 7.09 3.7 8.23
5/24/2021 9:45:00 AM 19.29 66.722 0.168 7.1 3.85 8.28
5/24/2021 10:00:00 AM 19.25 66.65 0.168 7.08 4.59 8.29
5/24/2021 10:15:00 AM 19.21 66.578 0.168 7.11 3.74 8.37
5/24/2021 10:30:00 AM 19.17 66.506 0.168 7.08 3.87 8.4
5/24/2021 10:45:00 AM 19.13 66.434 0.168 7.07 3.82 8.46
5/24/2021 11:00:00 AM 19.1 66.38 0.168 7.1 4.48 8.52
5/24/2021 11:15:00 AM 19.07 66.326 0.167 7.11 3.68 8.55
5/24/2021 11:30:00 AM 19.05 66.29 0.167 7.11 3.33 8.59
5/24/2021 11:45:00 AM 19.02 66.236 0.167 7.13 3.6 8.63
5/24/2021 12:00:00 PM 19 66.2 0.167 7.14 4.02 8.71
5/24/2021 12:15:00 PM 18.97 66.146 0.167 7.15 4.09 8.73
5/24/2021 12:30:00 PM 18.94 66.092 0.167 7.13 5.03 8.74
5/24/2021 12:45:00 PM 18.89 66.002 0.167 7.15 4.69 8.74
5/24/2021 1:00:00 PM 18.87 65.966 0.167 7.16 5.38 8.76
5/24/2021 1:15:00 PM 18.82 65.876 0.167 7.19 4.64 8.78
5/24/2021 1:30:00 PM 18.78 65.804 0.167 7.19 5 8.78
5/24/2021 1:45:00 PM 18.76 65.768 0.167 7.18 4.99 8.78
5/24/2021 2:00:00 PM 18.73 65.714 0.163 7.17 5.04 8.78
5/24/2021 2:15:00 PM 18.7 65.66 0.167 7.18 5.34 8.81
5/24/2021 2:30:00 PM 18.66 65.588 0.167 7.18 5 8.83
5/24/2021 2:45:00 PM 18.63 65.534 0.167 7.18 5.33 8.84
5/24/2021 3:00:00 PM 18.59 65.462 0.167 7.18 4.66 8.87
5/24/2021 3:15:00 PM 18.55 65.39 0.167 7.18 5.31 8.88
5/24/2021 3:30:00 PM 18.5 65.3 0.167 7.2 4.96 8.92
5/24/2021 3:45:00 PM 18.46 65.228 0.167 7.21 4.51 8.92
5/24/2021 4:00:00 PM 18.42 65.156 0.167 7.21 5.24 8.94
5/24/2021 4:15:00 PM 18.38 65.084 0.167 7.2 4.72 8.94
5/24/2021 4:30:00 PM 18.35 65.03 0.167 7.21 4.63 8.94
5/24/2021 4:45:00 PM 18.33 64.994 0.167 7.21 4.86 8.94
5/24/2021 5:00:00 PM 18.35 65.03 0.166 7.19 4.3 9.02
5/24/2021 5:15:00 PM 18.36 65.048 0.166 7.18 4.98 9.06
5/24/2021 5:30:00 PM 18.35 65.03 0.167 7.2 4.31 9.11
5/24/2021 5:45:00 PM 18.33 64.994 0.167 7.19 4.05 9.13
5/24/2021 6:00:00 PM 18.3 64.94 0.167 7.21 4.71 9.12
5/24/2021 6:15:00 PM 18.26 64.868 0.167 7.21 4.27 9.1
5/24/2021 6:30:00 PM 18.22 64.796 0.167 7.22 4.46 9.06
5/24/2021 6:45:00 PM 18.19 64.742 0.167 7.22 4.33 9.02
5/24/2021 7:00:00 PM 18.14 64.652 0.167 7.21 4.88 8.97
5/24/2021 7:15:00 PM 18.09 64.562 0.167 7.22 4.11 8.95
5/24/2021 7:30:00 PM 18.02 64.436 0.167 7.23 3.98 8.9
5/24/2021 7:45:00 PM 17.96 64.328 0.167 7.24 4.26 8.84
5/24/2021 8:00:00 PM 17.91 64.238 0.167 7.25 3.74 8.8
5/24/2021 8:15:00 PM 17.85 64.13 0.167 7.24 4.29 8.76
5/24/2021 8:30:00 PM 17.78 64.004 0.167 7.23 4.17 8.72
5/24/2021 8:45:00 PM 17.71 63.878 0.167 7.24 4.61 8.71
5/24/2021 9:00:00 PM 17.64 63.752 0.167 7.23 4.87 8.69
5/24/2021 9:15:00 PM 17.58 63.644 0.167 7.23 3.99 8.67
5/24/2021 9:30:00 PM 17.5 63.5 0.167 7.24 5.89 8.66
5/24/2021 9:45:00 PM 17.42 63.356 0.167 7.23 5.04 8.66
5/24/2021 10:00:00 PM 17.37 63.266 0.167 7.23 5.67 8.65
5/24/2021 10:15:00 PM 17.3 63.14 0.167 7.22 104.1 8.65
5/24/2021 10:30:00 PM 17.24 63.032 0.167 7.21 5.16 8.65
5/24/2021 10:45:00 PM 17.17 62.906 0.167 7.21 4.33 8.65
5/24/2021 11:00:00 PM 17.1 62.78 0.167 7.2 4.83 8.66
5/24/2021 11:15:00 PM 17.05 62.69 0.167 7.2 5.76 8.66
5/24/2021 11:30:00 PM 16.98 62.564 0.167 7.2 5.2 8.66
5/24/2021 11:45:00 PM 16.92 62.456 0.167 7.2 5.25 8.66
5/25/2021 12:00:00 AM 16.85 62.33 0.167 7.2 7.04 8.68
5/25/2021 12:15:00 AM 16.8 62.24 0.167 7.2 5.65 8.68
5/25/2021 12:30:00 AM 16.74 62.132 0.167 7.19 5.23 8.68
5/25/2021 12:45:00 AM 16.69 62.042 0.167 7.2 5.46 8.67
5/25/2021 1:00:00 AM 16.63 61.934 0.167 7.19 5.56 8.68
5/25/2021 1:15:00 AM 16.58 61.844 0.167 7.18 5.18 8.7
5/25/2021 1:30:00 AM 16.53 61.754 0.167 7.16 5.72 8.7
5/25/2021 1:45:00 AM 16.47 61.646 0.167 7.15 6.47 8.71
5/25/2021 2:00:00 AM 16.42 61.556 0.167 7.14 8.51 8.71
5/25/2021 2:15:00 AM 16.37 61.466 0.167 7.12 6.56 8.74
5/25/2021 2:30:00 AM 16.33 61.394 0.167 7.1 5.5 8.77
5/25/2021 2:45:00 AM 16.28 61.304 0.167 7.11 5.73 8.76
5/25/2021 3:00:00 AM 16.24 61.232 0.167 7.12 6.94 8.77
5/25/2021 3:15:00 AM 16.19 61.142 0.167 7.11 5.83 8.8
5/25/2021 3:30:00 AM 16.15 61.07 0.167 7.08 5.87 8.82
5/25/2021 3:45:00 AM 16.1 60.98 0.167 7.06 5.39 8.81
5/25/2021 4:00:00 AM 16.07 60.926 0.167 7.07 5.19 8.84
5/25/2021 4:15:00 AM 16.04 60.872 0.167 7.08 4.99 8.85
5/25/2021 4:30:00 AM 15.99 60.782 0.167 7.09 6.45 8.88
5/25/2021 4:45:00 AM 15.95 60.71 0.167 7.1 6.15 8.88
5/25/2021 5:00:00 AM 15.91 60.638 0.167 7.11 7.01 8.89
5/25/2021 5:15:00 AM 15.87 60.566 0.167 7.12 5.12 8.92
5/25/2021 5:30:00 AM 15.82 60.476 0.167 7.11 8.1 8.94
5/25/2021 5:45:00 AM 15.78 60.404 0.167 7.1 5.57 8.94
5/25/2021 6:00:00 AM 15.76 60.368 0.167 7.1 6.75 8.95
5/25/2021 6:15:00 AM 15.72 60.296 0.167 7.1 4.87 8.98
5/25/2021 6:30:00 AM 15.7 60.26 0.167 7.08 7.82 8.98
5/25/2021 6:45:00 AM 15.68 60.224 0.167 7.07 6.81 9.01
5/25/2021 7:00:00 AM 15.67 60.206 0.167 7.07 7.74 9.04
5/25/2021 7:15:00 AM 15.65 60.17 0.167 7.06 6.36 9.06
5/25/2021 7:30:00 AM 15.65 60.17 0.167 7.05 6.67 9.11
5/25/2021 7:45:00 AM 15.64 60.152 0.167 7.06 6.71 9.17
5/25/2021 8:00:00 AM 15.65 60.17 0.167 7.06 7.53 9.22
5/25/2021 8:15:00 AM 15.66 60.188 0.167 7.06 5.16 9.25
5/25/2021 8:30:00 AM 15.67 60.206 0.167 7.06 7.44 9.34
5/25/2021 8:45:00 AM 15.68 60.224 0.167 7.07 9.42 9.39
5/25/2021 9:00:00 AM 15.7 60.26 0.167 7.06 5.07 9.43
5/25/2021 9:15:00 AM 15.72 60.296 0.167 7.07 5.34 9.48
5/25/2021 9:30:00 AM 15.74 60.332 0.167 7.07 8.34 9.53
5/25/2021 9:45:00 AM 15.78 60.404 0.166 7.06 6.58 9.56
5/25/2021 10:00:00 AM 15.83 60.494 0.166 7.06 6.81 9.59
5/25/2021 10:15:00 AM 15.88 60.584 0.166 7.05 7.82 9.65
5/25/2021 10:30:00 AM 15.93 60.674 0.166 7.04 6.32 9.69
5/25/2021 10:45:00 AM 16.01 60.818 0.166 7.04 7.52 9.76
5/25/2021 11:00:00 AM 16.09 60.962 0.166 7.03 15.08 9.78
5/25/2021 11:15:00 AM 16.19 61.142 0.166 7.03 7.35 9.83
5/25/2021 11:30:00 AM 16.32 61.376 0.166 7.03 5.65 9.88
5/25/2021 11:45:00 AM 16.44 61.592 0.166 7.02 10.02 9.88
5/25/2021 12:00:00 PM 16.61 61.898 0.166 7.02 4.21 9.9
5/25/2021 12:15:00 PM 16.74 62.132 0.166 7.02 4.59 9.87
5/25/2021 12:30:00 PM 16.87 62.366 0.166 7.02 10.03 9.92
5/25/2021 12:45:00 PM 17.02 62.636 0.166 7.03 8.04 9.95
5/25/2021 1:00:00 PM 17.21 62.978 0.166 7.02 6.65 9.9
5/25/2021 1:15:00 PM 17.36 63.248 0.166 7.02 9.42 9.89
5/25/2021 1:30:00 PM 17.48 63.464 0.166 7.03 6.58 9.89
5/25/2021 1:45:00 PM 17.64 63.752 0.166 7.03 15.91 9.87
5/25/2021 2:00:00 PM 17.81 64.058 0.166 7.03 6.78 9.86
5/25/2021 2:15:00 PM 17.96 64.328 0.166 7.03 14.83 9.85
5/25/2021 2:30:00 PM 18.22 64.796 0.166 7.03 6.73 9.84
5/25/2021 2:45:00 PM 18.45 65.21 0.166 7.03 10.31 9.81
5/25/2021 3:00:00 PM 18.7 65.66 0.166 7.04 11.19 9.76
5/25/2021 3:15:00 PM 19 66.2 0.166 7.03 5.05 9.71
5/25/2021 3:30:00 PM 19.33 66.794 0.166 7.04 4.65 9.66
5/25/2021 3:45:00 PM 19.49 67.082 0.166 7.04 4.16 9.64
5/25/2021 4:00:00 PM 19.67 67.406 0.166 7.04 5.22 9.53
5/25/2021 4:15:00 PM 19.74 67.532 0.166 7.06 11.62 9.56
5/25/2021 4:30:00 PM 19.78 67.604 0.167 7.06 19.46 9.48
5/25/2021 4:45:00 PM 19.8 67.64 0.167 7.06 20.1 9.4
5/25/2021 5:00:00 PM 19.81 67.658 0.167 7.06 25.85 9.3
5/25/2021 5:15:00 PM 19.86 67.748 0.167 7.07 23.16 9.28
5/25/2021 5:30:00 PM 19.9 67.82 0.167 7.07 10.42 9.2
5/25/2021 5:45:00 PM 19.94 67.892 0.167 7.06 4.31 9.12
5/25/2021 6:00:00 PM 19.96 67.92799 0.167 7.06 7.98 9.07
5/25/2021 6:15:00 PM 19.96 67.92799 0.168 7.06 6.25 8.98
5/25/2021 6:30:00 PM 19.9 67.82 0.168 7.08 21.56 8.94
5/25/2021 6:45:00 PM 19.84 67.712 0.168 7.1 9.25 8.88
5/25/2021 7:00:00 PM 19.77 67.586 0.168 7.12 6.85 8.84
5/25/2021 7:15:00 PM 19.69 67.442 0.168 7.14 6.01 8.77
5/25/2021 7:30:00 PM 19.58 67.244 0.168 7.16 5.37 8.73
5/25/2021 7:45:00 PM 19.47 67.046 0.168 7.17 8.2 8.66
5/25/2021 8:00:00 PM 19.36 66.848 0.168 7.18 5.21 8.63
5/25/2021 8:15:00 PM 19.23 66.614 0.169 7.19 5.23 8.56
5/25/2021 8:30:00 PM 19.15 66.47 0.169 7.19 8.22 8.52
5/25/2021 8:45:00 PM 19.04 66.272 0.169 7.2 5.08 8.49
5/25/2021 9:00:00 PM 18.93 66.074 0.169 7.2 11.26 8.45
5/25/2021 9:15:00 PM 18.8 65.84 0.169 7.19 7.68 8.41
5/25/2021 9:30:00 PM 18.71 65.67799 0.169 7.19 10.45 8.38
5/25/2021 9:45:00 PM 18.62 65.516 0.169 7.18 18.44 8.38
5/25/2021 10:00:00 PM 18.52 65.336 0.169 7.16 13.06 8.37
5/25/2021 10:15:00 PM 18.43 65.174 0.168 7.16 13.98 8.37
5/25/2021 10:30:00 PM 18.34 65.012 0.168 7.16 13.98 8.38
5/25/2021 10:45:00 PM 18.25 64.85 0.168 7.14 11.71 8.38
5/25/2021 11:00:00 PM 18.17 64.706 0.168 7.14 11.93 8.37
5/25/2021 11:15:00 PM 18.09 64.562 0.168 7.14 6.59 8.38
5/25/2021 11:30:00 PM 18.01 64.418 0.168 7.13 3.67 8.4
5/25/2021 11:45:00 PM 17.94 64.292 0.168 7.12 4 8.41
5/26/2021 12:00:00 AM 17.86 64.148 0.168 7.11 4.38 8.4
5/26/2021 12:15:00 AM 17.79 64.022 0.168 7.11 4.59 8.41
5/26/2021 12:30:00 AM 17.72 63.896 0.168 7.1 4.97 8.43
5/26/2021 12:45:00 AM 17.65 63.77 0.168 7.11 3.96 8.44
5/26/2021 1:00:00 AM 17.58 63.644 0.168 7.12 4.04 8.43
5/26/2021 1:15:00 AM 17.51 63.518 0.168 7.1 3.93 8.46
5/26/2021 1:30:00 AM 17.44 63.392 0.168 7.11 4.55 8.49
5/26/2021 1:45:00 AM 17.37 63.266 0.168 7.11 4.06 8.5
5/26/2021 2:00:00 AM 17.3 63.14 0.167 7.11 3.98 8.53
5/26/2021 2:15:00 AM 17.24 63.032 0.167 7.1 4.74 8.54
5/26/2021 2:30:00 AM 17.18 62.924 0.167 7.1 4.1 8.56
5/26/2021 2:45:00 AM 17.13 62.834 0.167 7.09 4.28 8.57
5/26/2021 3:00:00 AM 17.06 62.708 0.167 7.09 4.91 8.58
5/26/2021 3:15:00 AM 17.02 62.636 0.167 7.09 5.62 8.6
5/26/2021 3:30:00 AM 16.97 62.546 0.167 7.08 5.34 8.61
5/26/2021 3:45:00 AM 16.93 62.474 0.167 7.09 4.9 8.62
5/26/2021 4:00:00 AM 16.89 62.402 0.167 7.1 4.31 8.64
5/26/2021 4:15:00 AM 16.86 62.348 0.167 7.08 3.83 8.63
5/26/2021 4:30:00 AM 16.83 62.294 0.167 7.09 4.69 8.65
5/26/2021 4:45:00 AM 16.8 62.24 0.167 7.08 5.46 8.67
5/26/2021 5:00:00 AM 16.78 62.204 0.167 7.08 4.81 8.66
5/26/2021 5:15:00 AM 16.75 62.15 0.167 7.07 5.45 8.67
5/26/2021 5:30:00 AM 16.73 62.114 0.167 7.08 5.04 8.68
5/26/2021 5:45:00 AM 16.71 62.078 0.167 7.08 5.97 8.69
5/26/2021 6:00:00 AM 16.7 62.06 0.167 7.07 4.75 8.69
5/26/2021 6:15:00 AM 16.69 62.042 0.167 7.06 4.47 8.7
5/26/2021 6:30:00 AM 16.69 62.042 0.167 7.05 5.72 8.71
5/26/2021 6:45:00 AM 16.69 62.042 0.167 7.05 6.6 8.73
5/26/2021 7:00:00 AM 16.7 62.06 0.166 7.03 5.89 8.75
5/26/2021 7:15:00 AM 16.72 62.096 0.167 7.03 4.4 8.77
5/26/2021 7:30:00 AM 16.75 62.15 0.166 7.03 4.45 8.81
5/26/2021 7:45:00 AM 16.78 62.204 0.166 7.04 4.16 8.86
5/26/2021 8:00:00 AM 16.82 62.276 0.166 7.03 4.59 8.92
5/26/2021 8:15:00 AM 16.86 62.348 0.166 7.02 4.96 8.96
5/26/2021 8:30:00 AM 16.9 62.42 0.166 7.02 4.77 9
5/26/2021 8:45:00 AM 16.95 62.51 0.166 7.02 5.29 9.03
5/26/2021 9:00:00 AM 17 62.6 0.166 7.02 4.34 9.07
5/26/2021 9:15:00 AM 17.07 62.726 0.166 7.01 4.34 9.12
5/26/2021 9:30:00 AM 17.14 62.852 0.166 7.01 4.79 9.16
5/26/2021 9:45:00 AM 17.2 62.96 0.166 7.01 4.53 9.21
5/26/2021 10:00:00 AM 17.27 63.086 0.166 7.01 4.6 9.24
5/26/2021 10:15:00 AM 17.35 63.23 0.166 7.01 4.28 9.26
5/26/2021 10:30:00 AM 17.44 63.392 0.165 7.06 8.79 9.24
5/26/2021 10:45:00 AM 17.55 63.59 0.165 7.07 5.56 9.29
5/26/2021 11:00:00 AM 17.7 63.86 0.165 7.1 4.58 9.35
5/26/2021 11:15:00 AM 17.88 64.184 0.165 7.1 4.58 9.36
5/26/2021 11:30:00 AM 18.1 64.58 0.165 7.11 4.86 9.39
5/26/2021 11:45:00 AM 18.37 65.066 0.165 7.14 5.09 9.41
5/26/2021 12:00:00 PM 18.64 65.552 0.165 7.16 4.26 9.4
5/26/2021 12:15:00 PM 18.94 66.092 0.165 7.17 4.44 9.39
5/26/2021 12:30:00 PM 19.32 66.776 0.166 7.19 4.29 9.38
5/26/2021 12:45:00 PM 19.73 67.514 0.165 7.22 3.94 9.37
5/26/2021 1:00:00 PM 20.14 68.252 0.166 7.24 5.37 9.35
5/26/2021 1:15:00 PM 20.58 69.044 0.166 7.25 4.4 9.36
5/26/2021 1:30:00 PM 21.02 69.836 0.166 7.27 4.12 9.32
5/26/2021 1:45:00 PM 21.42 70.556 0.166 7.28 5.63 9.3
5/26/2021 2:00:00 PM 21.91 71.438 0.166 7.3 7.14 9.23
5/26/2021 2:15:00 PM 22.16 71.888 0.166 7.27 24.99 9.18
5/26/2021 2:30:00 PM 22.54 72.57201 0.166 7.24 5.31 9.08
5/26/2021 2:45:00 PM 22.87 73.166 0.166 7.25 4.57 9.07
5/26/2021 3:00:00 PM 23.13 73.634 0.166 7.25 4.42 9.01
5/26/2021 3:15:00 PM 23.38 74.084 0.166 7.23 6.08 8.94
5/26/2021 3:30:00 PM 23.55 74.39 0.166 7.22 6.83 8.83
5/26/2021 3:45:00 PM 23.71 74.67799 0.166 7.26 6.85 8.75
5/26/2021 4:00:00 PM 23.77 74.786 0.167 7.19 4.56 8.66
5/26/2021 4:15:00 PM 23.79 74.82201 0.167 7.16 6.03 8.58
5/26/2021 4:30:00 PM 23.72 74.696 0.167 7.12 16.57 8.49
5/26/2021 4:45:00 PM 23.58 74.444 0.167 7.13 5.91 8.36
5/26/2021 5:00:00 PM 23.46 74.228 0.168 7.15 10.2 8.16
5/26/2021 5:15:00 PM 23.24 73.832 0.164 7.19 20.63 7.93
5/26/2021 5:30:00 PM 23.1 73.58 0.164 7.18 10.28 7.8
5/26/2021 5:45:00 PM 23 73.4 0.163 7.17 7.86 7.69
5/26/2021 6:00:00 PM 22.9 73.22 0.162 7.17 8.37 7.61
5/26/2021 6:15:00 PM 22.81 73.058 0.162 7.15 7.12 7.66
5/26/2021 6:30:00 PM 22.7 72.86 0.163 7.14 17.84 7.7
5/26/2021 6:45:00 PM 22.57 72.626 0.163 7.14 8.96 7.69
5/26/2021 7:00:00 PM 22.42 72.356 0.164 7.14 12.82 7.66
5/26/2021 7:15:00 PM 22.29 72.122 0.165 7.15 7.47 7.61
5/26/2021 7:30:00 PM 22.14 71.852 0.165 7.13 11.94 7.58
5/26/2021 7:45:00 PM 21.99 71.582 0.165 7.14 8.31 7.53
5/26/2021 8:00:00 PM 21.82 71.276 0.164 7.15 24.65 7.54
5/26/2021 8:15:00 PM 21.67 71.006 0.164 7.14 18.91 7.55
5/26/2021 8:30:00 PM 21.54 70.772 0.163 7.13 17.84 7.54
5/26/2021 8:45:00 PM 21.42 70.556 0.163 7.12 27.13 7.5
5/26/2021 9:00:00 PM 21.32 70.376 0.162 7.12 30.67 7.46
5/26/2021 9:15:00 PM 21.22 70.196 0.161 7.11 28.08 7.42
5/26/2021 9:30:00 PM 21.1 69.98 0.16 7.11 20.3 7.39
5/26/2021 9:45:00 PM 20.99 69.782 0.16 7.11 22.24 7.39
5/26/2021 10:00:00 PM 20.87 69.566 0.161 7.11 29.7 7.41
5/26/2021 10:15:00 PM 20.74 69.332 0.162 7.1 19.54 7.45
5/26/2021 10:30:00 PM 20.62 69.116 0.162 7.12 21.31 7.5
5/26/2021 10:45:00 PM 20.51 68.918 0.163 7.14 10.98 7.52
5/26/2021 11:00:00 PM 20.42 68.756 0.163 7.14 12.64 7.52
5/26/2021 11:15:00 PM 20.32 68.576 0.163 7.14 16.43 7.53
5/26/2021 11:30:00 PM 20.24 68.432 0.163 7.15 8.91 7.55
5/26/2021 11:45:00 PM 20.15 68.27 0.163 7.15 9.6 7.56
5/27/2021 12:00:00 AM 20.07 68.126 0.163 7.15 9.99 7.55
5/27/2021 12:15:00 AM 19.98 67.964 0.163 7.15 7.55 7.59
5/27/2021 12:30:00 AM 19.91 67.838 0.163 7.14 9.33 7.59
5/27/2021 12:45:00 AM 19.84 67.712 0.163 7.14 7.78 7.62
5/27/2021 1:00:00 AM 19.78 67.604 0.163 7.14 11.71 7.62
5/27/2021 1:15:00 AM 19.73 67.514 0.163 7.13 8.25 7.6
5/27/2021 1:30:00 AM 19.68 67.424 0.162 7.1 8.82 7.61
5/27/2021 1:45:00 AM 19.63 67.334 0.162 7.09 8.32 7.61
5/27/2021 2:00:00 AM 19.58 67.244 0.162 7.09 7.94 7.59
5/27/2021 2:15:00 AM 19.53 67.154 0.162 7.08 8.34 7.59
5/27/2021 2:30:00 AM 19.48 67.064 0.162 7.08 11.63 7.59
5/27/2021 2:45:00 AM 19.42 66.956 0.161 7.09 6.78 7.6
5/27/2021 3:00:00 AM 19.36 66.848 0.161 7.1 8.11 7.59
5/27/2021 3:15:00 AM 19.3 66.74 0.161 7.11 11.18 7.59
5/27/2021 3:30:00 AM 19.24 66.632 0.161 7.09 8.63 7.59
5/27/2021 3:45:00 AM 19.17 66.506 0.16 7.09 36.83 7.59
5/27/2021 4:00:00 AM 19.12 66.416 0.16 7.08 12.79 7.59
5/27/2021 4:15:00 AM 19.06 66.308 0.159 7.06 319.8 7.58
5/27/2021 4:30:00 AM 19 66.2 0.159 7.06 20.71 7.57
5/27/2021 4:45:00 AM 18.93 66.074 0.159 7.06 23.57 7.57
5/27/2021 5:00:00 AM 18.87 65.966 0.158 7.06 21.2 7.57
5/27/2021 5:15:00 AM 18.8 65.84 0.158 7.05 19.6 7.58
5/27/2021 5:30:00 AM 18.73 65.714 0.158 7.04 22.41 7.59
5/27/2021 5:45:00 AM 18.65 65.57 0.158 7.04 20.87 7.59
5/27/2021 6:00:00 AM 18.59 65.462 0.158 7.02 21.15 7.6
5/27/2021 6:15:00 AM 18.53 65.354 0.158 7.02 21.8 7.6
5/27/2021 6:30:00 AM 18.47 65.246 0.158 7.01 19.88 7.6
5/27/2021 6:45:00 AM 18.42 65.156 0.158 7 21.08 7.61
5/27/2021 7:00:00 AM 18.37 65.066 0.158 6.99 18.92 7.63
5/27/2021 7:15:00 AM 18.31 64.958 0.158 6.99 18.88 7.64
5/27/2021 7:30:00 AM 18.27 64.886 0.158 6.99 19.37 7.65
5/27/2021 7:45:00 AM 18.22 64.796 0.158 6.98 19.4 7.68
5/27/2021 8:00:00 AM 18.2 64.76 0.158 6.99 18.4 7.71
5/27/2021 8:15:00 AM 18.17 64.706 0.158 6.99 18.9 7.74
5/27/2021 8:30:00 AM 18.17 64.706 0.158 6.98 21.97 7.77
5/27/2021 8:45:00 AM 18.17 64.706 0.158 6.98 21.56 7.8
5/27/2021 9:00:00 AM 18.19 64.742 0.158 6.98 22.56 7.85
5/27/2021 9:15:00 AM 18.21 64.778 0.158 6.98 21.63 7.89
5/27/2021 9:30:00 AM 18.26 64.868 0.158 6.99 22.19 7.97
5/27/2021 9:45:00 AM 18.31 64.958 0.159 6.99 20.14 8.01
5/27/2021 10:00:00 AM 18.38 65.084 0.159 7 18.66 8.08
5/27/2021 10:15:00 AM 18.49 65.282 0.159 7.01 20.27 8.16
5/27/2021 10:30:00 AM 18.6 65.48 0.16 7.03 21.23 8.2
5/27/2021 10:45:00 AM 18.77 65.786 0.16 7.07 21.12 8.28
5/27/2021 11:00:00 AM 18.94 66.092 0.16 7.08 20.79 8.35
5/27/2021 11:15:00 AM 19.1 66.38 0.161 7.11 27.28 8.37
5/27/2021 11:30:00 AM 19.28 66.704 0.161 7.11 19.18 8.4
5/27/2021 11:45:00 AM 19.51 67.118 0.161 7.15 18.58 8.43
5/27/2021 12:00:00 PM 19.75 67.55 0.161 7.16 21.17 8.43
5/27/2021 12:15:00 PM 19.96 67.92799 0.161 7.19 20.39 8.46
5/27/2021 12:30:00 PM 20.24 68.432 0.162 7.2 23.59 8.44
5/27/2021 12:45:00 PM 20.59 69.062 0.161 7.2 28.68 8.45
5/27/2021 1:00:00 PM 20.9 69.62 0.162 7.23 28.97 8.47
5/27/2021 1:15:00 PM 21.31 70.358 0.162 7.23 20.65 8.48
5/27/2021 1:30:00 PM 21.7 71.06 0.162 7.23 20.34 8.48
5/27/2021 1:45:00 PM 22.09 71.762 0.162 7.23 25.03 8.45
5/27/2021 2:00:00 PM 22.53 72.554 0.162 7.25 17.44 8.42
5/27/2021 2:15:00 PM 22.89 73.202 0.162 7.26 19.01 8.36
5/27/2021 2:30:00 PM 23.23 73.814 0.162 7.26 16.87 8.31
5/27/2021 2:45:00 PM 23.56 74.408 0.163 7.26 21.18 8.32
5/27/2021 3:00:00 PM 23.76 74.768 0.163 7.26 23.44 8.28
5/27/2021 3:15:00 PM 23.9 75.02 0.163 7.21 29.19 8.21
5/27/2021 3:30:00 PM 23.93 75.074 0.163 7.17 27.13 8.12
5/27/2021 3:45:00 PM 24.01 75.218 0.164 7.16 37.11 8.06
5/27/2021 4:00:00 PM 24.02 75.236 0.164 7.13 22.4 8
5/27/2021 4:15:00 PM 23.97 75.146 0.164 7.09 21.45 7.94
5/27/2021 4:30:00 PM 23.99 75.182 0.165 7.06 26.99 7.94
5/27/2021 4:45:00 PM 23.97 75.146 0.165 7.05 19.58 7.95
5/27/2021 5:00:00 PM 23.92 75.056 0.165 7.03 25.54 7.85
5/27/2021 5:15:00 PM 23.88 74.984 0.165 7.07 16.07 7.83
5/27/2021 5:30:00 PM 23.84 74.912 0.165 7.07 20.37 7.76
5/27/2021 5:45:00 PM 23.78 74.804 0.165 7.09 16.21 7.72
5/27/2021 6:00:00 PM 23.69 74.642 0.166 7.08 16.14 7.65
5/27/2021 6:15:00 PM 23.55 74.39 0.166 7.09 17.5 7.6
5/27/2021 6:30:00 PM 23.41 74.138 0.166 7.16 15.51 7.55
5/27/2021 6:45:00 PM 23.28 73.904 0.166 7.12 14.79 7.57
5/27/2021 7:00:00 PM 23.12 73.616 0.166 7.13 15.97 7.56
5/27/2021 7:15:00 PM 22.95 73.31 0.166 7.18 17.25 7.51
5/27/2021 7:30:00 PM 22.77 72.986 0.166 7.14 15.55 7.49
5/27/2021 7:45:00 PM 22.59 72.662 0.166 7.13 16.27 7.47
5/27/2021 8:00:00 PM 22.43 72.374 0.166 7.17 22.07 7.41
5/27/2021 8:15:00 PM 22.27 72.086 0.166 7.12 23.64 7.36
5/27/2021 8:30:00 PM 22.12 71.816 0.166 7.12 20.89 7.37
5/27/2021 8:45:00 PM 21.97 71.546 0.166 7.17 24.07 7.37
5/27/2021 9:00:00 PM 21.81 71.258 0.166 7.12 20.45 7.3
5/27/2021 9:15:00 PM 21.65 70.97 0.166 7.09 20.71 7.27
5/27/2021 9:30:00 PM 21.49 70.682 0.166 7.14 21.16 7.25
5/27/2021 9:45:00 PM 21.31 70.358 0.166 7.13 24 7.27
5/27/2021 10:00:00 PM 21.16 70.088 0.166 7.09 24.59 7.29
5/27/2021 10:15:00 PM 21.03 69.854 0.166 7.11 23.04 7.28
5/27/2021 10:30:00 PM 20.89 69.602 0.167 7.13 27.51 7.3
5/27/2021 10:45:00 PM 20.75 69.35 0.167 7.08 22.5 7.36
5/27/2021 11:00:00 PM 20.65 69.17 0.167 7.07 23.86 7.39
5/27/2021 11:15:00 PM 20.53 68.954 0.167 7.11 14.53 7.41
5/27/2021 11:30:00 PM 20.42 68.756 0.167 7.11 17.56 7.43
5/27/2021 11:45:00 PM 20.3 68.54 0.167 7.07 17.14 7.47
5/28/2021 12:00:00 AM 20.18 68.324 0.167 7.07 28.08 7.46
5/28/2021 12:15:00 AM 20.05 68.09 0.167 7.1 29.84 7.53
5/28/2021 12:30:00 AM 19.95 67.91 0.167 7.07 28.09 7.51
5/28/2021 12:45:00 AM 19.85 67.73 0.167 7.05 73.54 7.48
5/28/2021 1:00:00 AM 19.73 67.514 0.167 7.06 20.48 7.59
5/28/2021 1:15:00 AM 19.63 67.334 0.166 7.09 21.45 7.61
5/28/2021 1:30:00 AM 19.53 67.154 0.168 7.06 17.81 7.62
5/28/2021 1:45:00 AM 19.44 66.992 0.168 7.04 31.2 7.66
5/28/2021 2:00:00 AM 19.33 66.794 0.168 7.07 30.78 7.7
5/28/2021 2:15:00 AM 19.25 66.65 0.168 7.08 31.8 7.7
5/28/2021 2:30:00 AM 19.16 66.488 0.168 7.05 21.51 7.74
5/28/2021 2:45:00 AM 19.08 66.344 0.168 7.04 36.03 7.77
5/28/2021 3:00:00 AM 19 66.2 0.168 7.08 49.61 7.8
5/28/2021 3:15:00 AM 18.91 66.038 0.168 7.07 32.97 7.81
5/28/2021 3:30:00 AM 18.85 65.93 0.168 7.04 41 7.81
5/28/2021 3:45:00 AM 18.78 65.804 0.168 7.06 52.14 7.81
5/28/2021 4:00:00 AM 18.72 65.696 0.168 7.07 46.11 7.8
5/28/2021 4:15:00 AM 18.64 65.552 0.168 7.04 22.12 7.83
5/28/2021 4:30:00 AM 18.57 65.426 0.169 7.07 1723 7.85
5/28/2021 4:45:00 AM 18.49 65.282 0.168 7.08 51.18 7.89
5/28/2021 5:00:00 AM 18.44 65.192 0.169 7.06 6.51 7.9
5/28/2021 5:15:00 AM 18.36 65.048 0.169 7.09 6.29 7.91
5/28/2021 5:30:00 AM 18.29 64.922 0.169 7.09 6.65 7.93
5/28/2021 5:45:00 AM 18.22 64.796 0.169 7.08 5.51 7.95
5/28/2021 6:00:00 AM 18.16 64.688 0.169 7.11 6.85 7.96
5/28/2021 6:15:00 AM 18.08 64.544 0.169 7.09 5.98 7.99
5/28/2021 6:30:00 AM 18.03 64.454 0.169 7.07 5.96 8
5/28/2021 6:45:00 AM 17.99 64.382 0.169 7.09 6.22 8.05
5/28/2021 7:00:00 AM 17.94 64.292 0.169 7.11 5.62 8.08
5/28/2021 7:15:00 AM 17.9 64.22 0.169 7.11 5.63 8.15
5/28/2021 7:30:00 AM 17.86 64.148 0.169 7.08 6.2 8.19
5/28/2021 7:45:00 AM 17.83 64.094 0.168 7.07 5.62 8.25
5/28/2021 8:00:00 AM 17.8 64.04 0.168 7.08 5.51 8.32
5/28/2021 8:15:00 AM 17.78 64.004 0.168 7.06 5.82 8.37
5/28/2021 8:30:00 AM 17.77 63.986 0.168 7.06 5.72 8.41
5/28/2021 8:45:00 AM 17.76 63.968 0.168 7.05 6 8.47
5/28/2021 9:00:00 AM 17.77 63.986 0.168 7.05 5.97 8.54
5/28/2021 9:15:00 AM 17.79 64.022 0.168 7.07 6.67 8.59
5/28/2021 9:30:00 AM 17.82 64.076 0.168 7.07 6.6 8.65
5/28/2021 9:45:00 AM 17.86 64.148 0.167 7.1 5.6 8.72
5/28/2021 10:00:00 AM 17.9 64.22 0.167